<?xml version='1.0' encoding='UTF-8'?><gpx version="1.1" creator="JPX - https://github.com/jenetics/jpx" xmlns="http://www.topografix.com/GPX/1/1"><trk><trkseg><trkpt lat="42.4095952" lon="12.7219176"><ele>845.4000000000001</ele><time>2026-04-07T10:17:24.075Z</time></trkpt><trkpt lat="42.409669" lon="12.7219897"><ele>846.8</ele><time>2026-04-07T10:17:27.075Z</time></trkpt><trkpt lat="42.4097181" lon="12.722087"><ele>848.2</ele><time>2026-04-07T10:17:30.073Z</time></trkpt><trkpt lat="42.4097743" lon="12.722153"><ele>849.5999999999999</ele><time>2026-04-07T10:17:34.075Z</time></trkpt><trkpt lat="42.4098822" lon="12.7221254"><ele>851.0</ele><time>2026-04-07T10:17:53.074Z</time></trkpt><trkpt lat="42.4099851" lon="12.7220596"><ele>851.0</ele><time>2026-04-07T10:17:55.074Z</time></trkpt><trkpt lat="42.4100845" lon="12.7219632"><ele>851.0</ele><time>2026-04-07T10:17:57.074Z</time></trkpt><trkpt lat="42.410179" lon="12.7218638"><ele>851.0</ele><time>2026-04-07T10:17:59.074Z</time></trkpt><trkpt lat="42.4102652" lon="12.7217572"><ele>851.0</ele><time>2026-04-07T10:18:01.073Z</time></trkpt><trkpt lat="42.4103453" lon="12.7216525"><ele>851.0000000000001</ele><time>2026-04-07T10:18:03.073Z</time></trkpt><trkpt lat="42.4104023" lon="12.7215384"><ele>851.0</ele><time>2026-04-07T10:18:05.074Z</time></trkpt><trkpt lat="42.4104411" lon="12.7214336"><ele>851.0</ele><time>2026-04-07T10:18:07.074Z</time></trkpt><trkpt lat="42.4104732" lon="12.7213167"><ele>851.0</ele><time>2026-04-07T10:18:09.074Z</time></trkpt><trkpt lat="42.4105103" lon="12.7212432"><ele>851.0000000000001</ele><time>2026-04-07T10:18:11.073Z</time></trkpt><trkpt lat="42.4105722" lon="12.7212111"><ele>851.0</ele><time>2026-04-07T10:18:13.074Z</time></trkpt><trkpt lat="42.410638" lon="12.7212083"><ele>852.1666666666667</ele><time>2026-04-07T10:18:17.074Z</time></trkpt><trkpt lat="42.4106339" lon="12.7213209"><ele>853.3333333333334</ele><time>2026-04-07T10:18:22.074Z</time></trkpt><trkpt lat="42.4105979" lon="12.7214163"><ele>854.5</ele><time>2026-04-07T10:18:24.074Z</time></trkpt><trkpt lat="42.4105631" lon="12.7214904"><ele>855.6666666666667</ele><time>2026-04-07T10:18:25.074Z</time></trkpt><trkpt lat="42.4105291" lon="12.7215997"><ele>856.8333333333334</ele><time>2026-04-07T10:18:27.074Z</time></trkpt><trkpt lat="42.410519" lon="12.7217184"><ele>858.0</ele><time>2026-04-07T10:18:29.074Z</time></trkpt><trkpt lat="42.4105222" lon="12.7218143"><ele>856.8333333333334</ele><time>2026-04-07T10:18:31.074Z</time></trkpt><trkpt lat="42.4105222" lon="12.721905"><ele>855.6666666666667</ele><time>2026-04-07T10:18:33.074Z</time></trkpt><trkpt lat="42.4104761" lon="12.7219967"><ele>854.5</ele><time>2026-04-07T10:18:35.074Z</time></trkpt><trkpt lat="42.4104007" lon="12.722053"><ele>853.3333333333334</ele><time>2026-04-07T10:18:37.073Z</time></trkpt><trkpt lat="42.4103382" lon="12.7221184"><ele>852.1666666666667</ele><time>2026-04-07T10:18:39.074Z</time></trkpt><trkpt lat="42.410303" lon="12.7222203"><ele>851.0</ele><time>2026-04-07T10:18:41.073Z</time></trkpt><trkpt lat="42.4102902" lon="12.7223474"><ele>851.0000000000001</ele><time>2026-04-07T10:18:43.074Z</time></trkpt><trkpt lat="42.4102906" lon="12.722474"><ele>851.0</ele><time>2026-04-07T10:18:45.073Z</time></trkpt><trkpt lat="42.4103195" lon="12.7225752"><ele>851.0</ele><time>2026-04-07T10:18:47.073Z</time></trkpt><trkpt lat="42.4103902" lon="12.7226164"><ele>851.0</ele><time>2026-04-07T10:18:49.074Z</time></trkpt><trkpt lat="42.4104517" lon="12.7225743"><ele>851.0000000000001</ele><time>2026-04-07T10:18:51.073Z</time></trkpt><trkpt lat="42.4105052" lon="12.7225175"><ele>851.0</ele><time>2026-04-07T10:18:53.082Z</time></trkpt><trkpt lat="42.4105606" lon="12.7225699"><ele>854.1999999999999</ele><time>2026-04-07T10:18:57.05Z</time></trkpt><trkpt lat="42.4106264" lon="12.7226649"><ele>857.4</ele><time>2026-04-07T10:18:59.074Z</time></trkpt><trkpt lat="42.4107009" lon="12.7226989"><ele>860.6</ele><time>2026-04-07T10:19:01.076Z</time></trkpt><trkpt lat="42.410826" lon="12.722714"><ele>863.8</ele><time>2026-04-07T10:19:02.074Z</time></trkpt><trkpt lat="42.4109044" lon="12.7227444"><ele>867.0</ele><time>2026-04-07T10:19:04.073Z</time></trkpt><trkpt lat="42.4109633" lon="12.7228209"><ele>868.8</ele><time>2026-04-07T10:19:06.074Z</time></trkpt><trkpt lat="42.4110332" lon="12.7229143"><ele>870.6</ele><time>2026-04-07T10:19:08.073Z</time></trkpt><trkpt lat="42.4110988" lon="12.7230132"><ele>872.3999999999999</ele><time>2026-04-07T10:19:10.073Z</time></trkpt><trkpt lat="42.4111776" lon="12.7230983"><ele>874.1999999999999</ele><time>2026-04-07T10:19:12.073Z</time></trkpt><trkpt lat="42.4112542" lon="12.7231761"><ele>876.0</ele><time>2026-04-07T10:19:14.074Z</time></trkpt><trkpt lat="42.4113222" lon="12.7232443"><ele>879.5999999999999</ele><time>2026-04-07T10:19:16.074Z</time></trkpt><trkpt lat="42.4114012" lon="12.7232573"><ele>883.1999999999999</ele><time>2026-04-07T10:19:18.074Z</time></trkpt><trkpt lat="42.4114909" lon="12.7231976"><ele>886.8000000000001</ele><time>2026-04-07T10:19:20.073Z</time></trkpt><trkpt lat="42.4115757" lon="12.7230959"><ele>890.4000000000001</ele><time>2026-04-07T10:19:22.074Z</time></trkpt><trkpt lat="42.411679" lon="12.7229974"><ele>894.0</ele><time>2026-04-07T10:19:24.074Z</time></trkpt><trkpt lat="42.4117994" lon="12.7229543"><ele>894.0</ele><time>2026-04-07T10:19:26.074Z</time></trkpt><trkpt lat="42.4118653" lon="12.7229398"><ele>894.0</ele><time>2026-04-07T10:19:27.073Z</time></trkpt><trkpt lat="42.4119301" lon="12.7229274"><ele>894.0</ele><time>2026-04-07T10:19:28.073Z</time></trkpt><trkpt lat="42.4119963" lon="12.7229187"><ele>894.0</ele><time>2026-04-07T10:19:29.074Z</time></trkpt><trkpt lat="42.4121055" lon="12.7228988"><ele>894.0</ele><time>2026-04-07T10:19:31.073Z</time></trkpt><trkpt lat="42.4121693" lon="12.7228947"><ele>894.0</ele><time>2026-04-07T10:19:32.073Z</time></trkpt><trkpt lat="42.4122765" lon="12.7228619"><ele>898.0</ele><time>2026-04-07T10:19:34.074Z</time></trkpt><trkpt lat="42.4123897" lon="12.7228519"><ele>902.0000000000001</ele><time>2026-04-07T10:19:36.074Z</time></trkpt><trkpt lat="42.4124844" lon="12.7228624"><ele>906.0000000000001</ele><time>2026-04-07T10:19:38.074Z</time></trkpt><trkpt lat="42.4125882" lon="12.7228853"><ele>910.0</ele><time>2026-04-07T10:19:40.074Z</time></trkpt><trkpt lat="42.4127066" lon="12.7228554"><ele>914.0</ele><time>2026-04-07T10:19:42.074Z</time></trkpt><trkpt lat="42.4127715" lon="12.7228319"><ele>914.0000000000001</ele><time>2026-04-07T10:19:43.074Z</time></trkpt><trkpt lat="42.4128351" lon="12.7228039"><ele>914.0</ele><time>2026-04-07T10:19:44.074Z</time></trkpt><trkpt lat="42.4129015" lon="12.7227745"><ele>914.0</ele><time>2026-04-07T10:19:45.074Z</time></trkpt><trkpt lat="42.4130016" lon="12.7227341"><ele>914.0</ele><time>2026-04-07T10:19:47.074Z</time></trkpt><trkpt lat="42.4130921" lon="12.7227232"><ele>914.0000000000001</ele><time>2026-04-07T10:19:49.074Z</time></trkpt><trkpt lat="42.413159" lon="12.7226531"><ele>914.0</ele><time>2026-04-07T10:19:51.074Z</time></trkpt><trkpt lat="42.413195" lon="12.7225595"><ele>912.8000000000001</ele><time>2026-04-07T10:19:53.074Z</time></trkpt><trkpt lat="42.4132448" lon="12.7224753"><ele>911.6000000000001</ele><time>2026-04-07T10:19:55.074Z</time></trkpt><trkpt lat="42.4133066" lon="12.7223892"><ele>910.4</ele><time>2026-04-07T10:19:57.074Z</time></trkpt><trkpt lat="42.4133795" lon="12.7222764"><ele>909.2</ele><time>2026-04-07T10:19:59.073Z</time></trkpt><trkpt lat="42.4134193" lon="12.7221436"><ele>908.0</ele><time>2026-04-07T10:20:01.074Z</time></trkpt><trkpt lat="42.4134367" lon="12.7220553"><ele>908.0000000000001</ele><time>2026-04-07T10:20:02.074Z</time></trkpt><trkpt lat="42.413461" lon="12.7219691"><ele>908.0</ele><time>2026-04-07T10:20:03.074Z</time></trkpt><trkpt lat="42.4135009" lon="12.7218917"><ele>908.0</ele><time>2026-04-07T10:20:04.074Z</time></trkpt><trkpt lat="42.4135379" lon="12.7218142"><ele>908.0</ele><time>2026-04-07T10:20:05.074Z</time></trkpt><trkpt lat="42.4136062" lon="12.7216797"><ele>908.0000000000001</ele><time>2026-04-07T10:20:07.074Z</time></trkpt><trkpt lat="42.4136579" lon="12.7215528"><ele>908.0</ele><time>2026-04-07T10:20:09.073Z</time></trkpt><trkpt lat="42.4137112" lon="12.7214079"><ele>910.75</ele><time>2026-04-07T10:20:11.074Z</time></trkpt><trkpt lat="42.4137304" lon="12.7212486"><ele>913.5</ele><time>2026-04-07T10:20:13.073Z</time></trkpt><trkpt lat="42.4137576" lon="12.721098"><ele>916.25</ele><time>2026-04-07T10:20:15.073Z</time></trkpt><trkpt lat="42.4138027" lon="12.7209464"><ele>919.0</ele><time>2026-04-07T10:20:17.074Z</time></trkpt><trkpt lat="42.4138711" lon="12.7208099"><ele>919.0</ele><time>2026-04-07T10:20:19.072Z</time></trkpt><trkpt lat="42.4139372" lon="12.7206756"><ele>919.0000000000001</ele><time>2026-04-07T10:20:21.073Z</time></trkpt><trkpt lat="42.4140088" lon="12.7205498"><ele>919.0000000000001</ele><time>2026-04-07T10:20:23.073Z</time></trkpt><trkpt lat="42.4140824" lon="12.7204571"><ele>919.0</ele><time>2026-04-07T10:20:25.073Z</time></trkpt><trkpt lat="42.414131" lon="12.7204019"><ele>919.0</ele><time>2026-04-07T10:20:26.073Z</time></trkpt><trkpt lat="42.4141932" lon="12.7203592"><ele>918.9999999999999</ele><time>2026-04-07T10:20:27.073Z</time></trkpt><trkpt lat="42.4142588" lon="12.7203159"><ele>919.0</ele><time>2026-04-07T10:20:28.073Z</time></trkpt><trkpt lat="42.4143312" lon="12.7202708"><ele>919.0</ele><time>2026-04-07T10:20:29.072Z</time></trkpt><trkpt lat="42.4144034" lon="12.720232"><ele>919.0</ele><time>2026-04-07T10:20:30.072Z</time></trkpt><trkpt lat="42.4144724" lon="12.7201914"><ele>918.9999999999999</ele><time>2026-04-07T10:20:31.073Z</time></trkpt><trkpt lat="42.4145484" lon="12.7201661"><ele>919.0</ele><time>2026-04-07T10:20:32.072Z</time></trkpt><trkpt lat="42.4146198" lon="12.7201494"><ele>921.2</ele><time>2026-04-07T10:20:33.073Z</time></trkpt><trkpt lat="42.4146926" lon="12.7201439"><ele>923.4000000000001</ele><time>2026-04-07T10:20:34.072Z</time></trkpt><trkpt lat="42.4148126" lon="12.7201145"><ele>925.6</ele><time>2026-04-07T10:20:36.073Z</time></trkpt><trkpt lat="42.414925" lon="12.7200529"><ele>927.8</ele><time>2026-04-07T10:20:38.073Z</time></trkpt><trkpt lat="42.4150326" lon="12.7199592"><ele>930.0</ele><time>2026-04-07T10:20:40.073Z</time></trkpt><trkpt lat="42.4150989" lon="12.7199311"><ele>930.0</ele><time>2026-04-07T10:20:41.073Z</time></trkpt><trkpt lat="42.415158" lon="12.7198973"><ele>930.0</ele><time>2026-04-07T10:20:42.073Z</time></trkpt><trkpt lat="42.4152181" lon="12.7198661"><ele>930.0</ele><time>2026-04-07T10:20:43.073Z</time></trkpt><trkpt lat="42.4152747" lon="12.719818"><ele>930.0</ele><time>2026-04-07T10:20:44.072Z</time></trkpt><trkpt lat="42.4153346" lon="12.7197677"><ele>930.0</ele><time>2026-04-07T10:20:45.073Z</time></trkpt><trkpt lat="42.4154039" lon="12.7197221"><ele>930.0</ele><time>2026-04-07T10:20:46.072Z</time></trkpt><trkpt lat="42.4154644" lon="12.7196714"><ele>930.0</ele><time>2026-04-07T10:20:47.073Z</time></trkpt><trkpt lat="42.4155268" lon="12.7196223"><ele>931.2</ele><time>2026-04-07T10:20:48.073Z</time></trkpt><trkpt lat="42.4155875" lon="12.7195777"><ele>932.4</ele><time>2026-04-07T10:20:49.073Z</time></trkpt><trkpt lat="42.4156438" lon="12.7195372"><ele>933.5999999999999</ele><time>2026-04-07T10:20:50.072Z</time></trkpt><trkpt lat="42.4157572" lon="12.7194595"><ele>934.8</ele><time>2026-04-07T10:20:52.073Z</time></trkpt><trkpt lat="42.4158691" lon="12.7193862"><ele>936.0</ele><time>2026-04-07T10:20:54.073Z</time></trkpt><trkpt lat="42.4159271" lon="12.719338"><ele>936.0</ele><time>2026-04-07T10:20:55.073Z</time></trkpt><trkpt lat="42.4159906" lon="12.7192966"><ele>936.0000000000001</ele><time>2026-04-07T10:20:56.073Z</time></trkpt><trkpt lat="42.4160579" lon="12.7192594"><ele>936.0</ele><time>2026-04-07T10:20:57.073Z</time></trkpt><trkpt lat="42.4161257" lon="12.7192201"><ele>936.0</ele><time>2026-04-07T10:20:58.072Z</time></trkpt><trkpt lat="42.4162039" lon="12.7191874"><ele>936.0000000000001</ele><time>2026-04-07T10:20:59.073Z</time></trkpt><trkpt lat="42.41627" lon="12.7191598"><ele>936.0</ele><time>2026-04-07T10:21:00.073Z</time></trkpt><trkpt lat="42.416338" lon="12.7191359"><ele>936.0</ele><time>2026-04-07T10:21:01.073Z</time></trkpt><trkpt lat="42.4164069" lon="12.7191121"><ele>939.5714285714287</ele><time>2026-04-07T10:21:02.073Z</time></trkpt><trkpt lat="42.4164762" lon="12.7190894"><ele>943.1428571428572</ele><time>2026-04-07T10:21:03.073Z</time></trkpt><trkpt lat="42.4165409" lon="12.7190621"><ele>946.7142857142858</ele><time>2026-04-07T10:21:04.073Z</time></trkpt><trkpt lat="42.4166102" lon="12.7190223"><ele>950.2857142857142</ele><time>2026-04-07T10:21:05.073Z</time></trkpt><trkpt lat="42.4166787" lon="12.7189691"><ele>953.8571428571428</ele><time>2026-04-07T10:21:06.073Z</time></trkpt><trkpt lat="42.4167385" lon="12.7189161"><ele>957.4285714285713</ele><time>2026-04-07T10:21:07.072Z</time></trkpt><trkpt lat="42.416797" lon="12.718863"><ele>961.0</ele><time>2026-04-07T10:21:08.073Z</time></trkpt><trkpt lat="42.416869" lon="12.7188025"><ele>960.9999999999999</ele><time>2026-04-07T10:21:09.073Z</time></trkpt><trkpt lat="42.416936" lon="12.7187516"><ele>961.0</ele><time>2026-04-07T10:21:10.072Z</time></trkpt><trkpt lat="42.4169979" lon="12.7186997"><ele>961.0</ele><time>2026-04-07T10:21:11.073Z</time></trkpt><trkpt lat="42.4170686" lon="12.7186475"><ele>961.0</ele><time>2026-04-07T10:21:12.073Z</time></trkpt><trkpt lat="42.4171376" lon="12.7185924"><ele>960.9999999999999</ele><time>2026-04-07T10:21:13.073Z</time></trkpt><trkpt lat="42.4172131" lon="12.7185381"><ele>961.0</ele><time>2026-04-07T10:21:14.073Z</time></trkpt><trkpt lat="42.4172956" lon="12.7184747"><ele>961.1999999999999</ele><time>2026-04-07T10:21:15.072Z</time></trkpt><trkpt lat="42.4173795" lon="12.7184058"><ele>961.3999999999999</ele><time>2026-04-07T10:21:16.073Z</time></trkpt><trkpt lat="42.417482" lon="12.7183256"><ele>961.6</ele><time>2026-04-07T10:21:17.073Z</time></trkpt><trkpt lat="42.4175832" lon="12.7182458"><ele>961.8</ele><time>2026-04-07T10:21:18.073Z</time></trkpt><trkpt lat="42.4176792" lon="12.7181756"><ele>962.0</ele><time>2026-04-07T10:21:19.072Z</time></trkpt><trkpt lat="42.4177589" lon="12.7181175"><ele>962.0</ele><time>2026-04-07T10:21:20.073Z</time></trkpt><trkpt lat="42.4178206" lon="12.718069"><ele>962.0</ele><time>2026-04-07T10:21:21.073Z</time></trkpt><trkpt lat="42.4179179" lon="12.7179981"><ele>962.0</ele><time>2026-04-07T10:21:23.073Z</time></trkpt><trkpt lat="42.4180137" lon="12.7179283"><ele>962.0</ele><time>2026-04-07T10:21:25.073Z</time></trkpt><trkpt lat="42.4181164" lon="12.7178725"><ele>962.0</ele><time>2026-04-07T10:21:27.073Z</time></trkpt><trkpt lat="42.4182316" lon="12.717826"><ele>963.2</ele><time>2026-04-07T10:21:29.073Z</time></trkpt><trkpt lat="42.4183474" lon="12.7177881"><ele>964.4000000000001</ele><time>2026-04-07T10:21:31.072Z</time></trkpt><trkpt lat="42.4184623" lon="12.7177532"><ele>965.5999999999999</ele><time>2026-04-07T10:21:33.073Z</time></trkpt><trkpt lat="42.4185219" lon="12.717719"><ele>966.8</ele><time>2026-04-07T10:21:34.073Z</time></trkpt><trkpt lat="42.4185861" lon="12.7176783"><ele>968.0</ele><time>2026-04-07T10:21:35.073Z</time></trkpt><trkpt lat="42.41866" lon="12.7176429"><ele>968.0000000000001</ele><time>2026-04-07T10:21:36.073Z</time></trkpt><trkpt lat="42.4187309" lon="12.7176159"><ele>968.0</ele><time>2026-04-07T10:21:37.073Z</time></trkpt><trkpt lat="42.4188015" lon="12.7175985"><ele>968.0</ele><time>2026-04-07T10:21:38.072Z</time></trkpt><trkpt lat="42.4188703" lon="12.7175699"><ele>968.0</ele><time>2026-04-07T10:21:39.073Z</time></trkpt><trkpt lat="42.4189441" lon="12.7175454"><ele>968.0000000000001</ele><time>2026-04-07T10:21:40.073Z</time></trkpt><trkpt lat="42.4190247" lon="12.7175207"><ele>968.0</ele><time>2026-04-07T10:21:41.072Z</time></trkpt><trkpt lat="42.4191075" lon="12.7174983"><ele>971.8</ele><time>2026-04-07T10:21:42.073Z</time></trkpt><trkpt lat="42.4191798" lon="12.7174845"><ele>975.5999999999999</ele><time>2026-04-07T10:21:43.073Z</time></trkpt><trkpt lat="42.419248" lon="12.7174678"><ele>979.4000000000001</ele><time>2026-04-07T10:21:44.072Z</time></trkpt><trkpt lat="42.419363" lon="12.7174257"><ele>983.2</ele><time>2026-04-07T10:21:46.072Z</time></trkpt><trkpt lat="42.4194613" lon="12.7173906"><ele>987.0</ele><time>2026-04-07T10:21:48.073Z</time></trkpt><trkpt lat="42.4195768" lon="12.7173588"><ele>987.0</ele><time>2026-04-07T10:21:50.073Z</time></trkpt><trkpt lat="42.4196454" lon="12.7173219"><ele>987.0</ele><time>2026-04-07T10:21:51.072Z</time></trkpt><trkpt lat="42.4197199" lon="12.7172797"><ele>987.0</ele><time>2026-04-07T10:21:52.073Z</time></trkpt><trkpt lat="42.4197913" lon="12.7172213"><ele>987.0</ele><time>2026-04-07T10:21:53.072Z</time></trkpt><trkpt lat="42.4198704" lon="12.7171506"><ele>987.0</ele><time>2026-04-07T10:21:54.073Z</time></trkpt><trkpt lat="42.4199452" lon="12.7170779"><ele>987.0</ele><time>2026-04-07T10:21:55.072Z</time></trkpt><trkpt lat="42.4200151" lon="12.7169986"><ele>987.8</ele><time>2026-04-07T10:21:56.072Z</time></trkpt><trkpt lat="42.4200736" lon="12.716922"><ele>988.6</ele><time>2026-04-07T10:21:57.073Z</time></trkpt><trkpt lat="42.4201255" lon="12.7168387"><ele>989.3999999999999</ele><time>2026-04-07T10:21:58.073Z</time></trkpt><trkpt lat="42.420187" lon="12.7167712"><ele>990.1999999999999</ele><time>2026-04-07T10:21:59.073Z</time></trkpt><trkpt lat="42.4202576" lon="12.7167013"><ele>991.0</ele><time>2026-04-07T10:22:00.073Z</time></trkpt><trkpt lat="42.4203675" lon="12.7165788"><ele>991.1666666666666</ele><time>2026-04-07T10:22:02.073Z</time></trkpt><trkpt lat="42.420429" lon="12.7165366"><ele>991.3333333333333</ele><time>2026-04-07T10:22:03.073Z</time></trkpt><trkpt lat="42.4204979" lon="12.7165113"><ele>991.5</ele><time>2026-04-07T10:22:04.072Z</time></trkpt><trkpt lat="42.4205749" lon="12.7164971"><ele>991.6666666666667</ele><time>2026-04-07T10:22:05.072Z</time></trkpt><trkpt lat="42.4206615" lon="12.716485"><ele>991.8333333333334</ele><time>2026-04-07T10:22:06.072Z</time></trkpt><trkpt lat="42.4207528" lon="12.7164872"><ele>992.0</ele><time>2026-04-07T10:22:07.072Z</time></trkpt><trkpt lat="42.4208301" lon="12.7165014"><ele>992.5000000000001</ele><time>2026-04-07T10:22:08.072Z</time></trkpt><trkpt lat="42.420899" lon="12.7165308"><ele>993.0</ele><time>2026-04-07T10:22:09.073Z</time></trkpt><trkpt lat="42.4209689" lon="12.7165799"><ele>993.5</ele><time>2026-04-07T10:22:10.073Z</time></trkpt><trkpt lat="42.4210313" lon="12.7166538"><ele>994.0</ele><time>2026-04-07T10:22:11.073Z</time></trkpt><trkpt lat="42.4210845" lon="12.7167433"><ele>994.5000000000001</ele><time>2026-04-07T10:22:12.073Z</time></trkpt><trkpt lat="42.4211226" lon="12.7168332"><ele>995.0</ele><time>2026-04-07T10:22:13.072Z</time></trkpt><trkpt lat="42.4211615" lon="12.7169018"><ele>996.6666666666667</ele><time>2026-04-07T10:22:14.073Z</time></trkpt><trkpt lat="42.4212651" lon="12.7169903"><ele>998.3333333333334</ele><time>2026-04-07T10:22:16.073Z</time></trkpt><trkpt lat="42.421325" lon="12.717031"><ele>1000.0</ele><time>2026-04-07T10:22:17.073Z</time></trkpt><trkpt lat="42.4213892" lon="12.7170682"><ele>1001.6666666666667</ele><time>2026-04-07T10:22:18.072Z</time></trkpt><trkpt lat="42.4214645" lon="12.7170746"><ele>1003.3333333333334</ele><time>2026-04-07T10:22:19.073Z</time></trkpt><trkpt lat="42.4215356" lon="12.7170821"><ele>1005.0</ele><time>2026-04-07T10:22:20.072Z</time></trkpt><trkpt lat="42.4216483" lon="12.7170876"><ele>1006.0</ele><time>2026-04-07T10:22:21.073Z</time></trkpt><trkpt lat="42.4217436" lon="12.7170922"><ele>1007.0</ele><time>2026-04-07T10:22:22.072Z</time></trkpt><trkpt lat="42.4218505" lon="12.7170939"><ele>1008.0</ele><time>2026-04-07T10:22:23.072Z</time></trkpt><trkpt lat="42.421929" lon="12.7170861"><ele>1009.0</ele><time>2026-04-07T10:22:24.073Z</time></trkpt><trkpt lat="42.4220063" lon="12.7170765"><ele>1010.0</ele><time>2026-04-07T10:22:25.073Z</time></trkpt><trkpt lat="42.4221323" lon="12.7170497"><ele>1008.8333333333334</ele><time>2026-04-07T10:22:27.072Z</time></trkpt><trkpt lat="42.4222503" lon="12.7170087"><ele>1007.6666666666667</ele><time>2026-04-07T10:22:29.073Z</time></trkpt><trkpt lat="42.4223279" lon="12.7169758"><ele>1006.5</ele><time>2026-04-07T10:22:31.073Z</time></trkpt><trkpt lat="42.4224001" lon="12.7169826"><ele>1005.3333333333333</ele><time>2026-04-07T10:22:32.073Z</time></trkpt><trkpt lat="42.4224653" lon="12.7169936"><ele>1004.1666666666666</ele><time>2026-04-07T10:22:33.073Z</time></trkpt><trkpt lat="42.4225359" lon="12.7170287"><ele>1003.0</ele><time>2026-04-07T10:22:34.073Z</time></trkpt><trkpt lat="42.4226019" lon="12.7170697"><ele>1002.9999999999999</ele><time>2026-04-07T10:22:35.072Z</time></trkpt><trkpt lat="42.422662" lon="12.7171084"><ele>1003.0</ele><time>2026-04-07T10:22:36.073Z</time></trkpt><trkpt lat="42.4227222" lon="12.7171477"><ele>1003.0</ele><time>2026-04-07T10:22:37.073Z</time></trkpt><trkpt lat="42.4228213" lon="12.7172075"><ele>1003.0</ele><time>2026-04-07T10:22:39.073Z</time></trkpt><trkpt lat="42.4228996" lon="12.7172546"><ele>1002.9999999999999</ele><time>2026-04-07T10:22:41.073Z</time></trkpt><trkpt lat="42.4229906" lon="12.7172709"><ele>1003.0</ele><time>2026-04-07T10:22:43.072Z</time></trkpt><trkpt lat="42.4231008" lon="12.7173027"><ele>999.2</ele><time>2026-04-07T10:22:45.073Z</time></trkpt><trkpt lat="42.4231738" lon="12.7173258"><ele>995.4</ele><time>2026-04-07T10:22:46.072Z</time></trkpt><trkpt lat="42.4232805" lon="12.7173499"><ele>991.6000000000001</ele><time>2026-04-07T10:22:48.073Z</time></trkpt><trkpt lat="42.4234006" lon="12.7174046"><ele>987.8000000000001</ele><time>2026-04-07T10:22:50.073Z</time></trkpt><trkpt lat="42.4235212" lon="12.7174992"><ele>984.0</ele><time>2026-04-07T10:22:52.073Z</time></trkpt><trkpt lat="42.4235894" lon="12.7175677"><ele>984.0</ele><time>2026-04-07T10:22:54.073Z</time></trkpt><trkpt lat="42.4236325" lon="12.7176317"><ele>984.0</ele><time>2026-04-07T10:22:56.073Z</time></trkpt><trkpt lat="42.423686" lon="12.7176948"><ele>984.0</ele><time>2026-04-07T10:22:58.071Z</time></trkpt><trkpt lat="42.4237674" lon="12.7176923"><ele>984.0</ele><time>2026-04-07T10:23:00.073Z</time></trkpt><trkpt lat="42.4238299" lon="12.7176411"><ele>984.0</ele><time>2026-04-07T10:23:02.073Z</time></trkpt><trkpt lat="42.4238941" lon="12.7175827"><ele>984.0</ele><time>2026-04-07T10:23:04.072Z</time></trkpt><trkpt lat="42.4239904" lon="12.717555"><ele>981.8000000000001</ele><time>2026-04-07T10:23:06.072Z</time></trkpt><trkpt lat="42.4240955" lon="12.7175754"><ele>979.6000000000001</ele><time>2026-04-07T10:23:08.072Z</time></trkpt><trkpt lat="42.4241756" lon="12.7176286"><ele>977.4</ele><time>2026-04-07T10:23:10.072Z</time></trkpt><trkpt lat="42.4242334" lon="12.7177133"><ele>975.2</ele><time>2026-04-07T10:23:12.072Z</time></trkpt><trkpt lat="42.4242986" lon="12.717826"><ele>973.0</ele><time>2026-04-07T10:23:14.072Z</time></trkpt><trkpt lat="42.4243471" lon="12.7178875"><ele>973.8333333333333</ele><time>2026-04-07T10:23:15.072Z</time></trkpt><trkpt lat="42.4244017" lon="12.71795"><ele>974.6666666666666</ele><time>2026-04-07T10:23:16.072Z</time></trkpt><trkpt lat="42.424461" lon="12.7180123"><ele>975.5</ele><time>2026-04-07T10:23:17.072Z</time></trkpt><trkpt lat="42.424569" lon="12.7180988"><ele>976.3333333333333</ele><time>2026-04-07T10:23:19.072Z</time></trkpt><trkpt lat="42.4246338" lon="12.718149"><ele>977.1666666666666</ele><time>2026-04-07T10:23:20.072Z</time></trkpt><trkpt lat="42.4246943" lon="12.7181885"><ele>978.0</ele><time>2026-04-07T10:23:21.071Z</time></trkpt><trkpt lat="42.4247539" lon="12.7182288"><ele>978.0</ele><time>2026-04-07T10:23:22.072Z</time></trkpt><trkpt lat="42.4248136" lon="12.7182759"><ele>978.0000000000001</ele><time>2026-04-07T10:23:23.071Z</time></trkpt><trkpt lat="42.4248707" lon="12.7183269"><ele>978.0</ele><time>2026-04-07T10:23:24.072Z</time></trkpt><trkpt lat="42.4249355" lon="12.7183863"><ele>978.0</ele><time>2026-04-07T10:23:25.071Z</time></trkpt><trkpt lat="42.4249978" lon="12.718432"><ele>978.0000000000001</ele><time>2026-04-07T10:23:26.072Z</time></trkpt><trkpt lat="42.4250627" lon="12.7184751"><ele>978.0</ele><time>2026-04-07T10:23:27.072Z</time></trkpt><trkpt lat="42.4251303" lon="12.7185159"><ele>978.0</ele><time>2026-04-07T10:23:28.071Z</time></trkpt><trkpt lat="42.4252094" lon="12.7185631"><ele>978.1666666666666</ele><time>2026-04-07T10:23:29.072Z</time></trkpt><trkpt lat="42.4252823" lon="12.7186091"><ele>978.3333333333333</ele><time>2026-04-07T10:23:30.071Z</time></trkpt><trkpt lat="42.4253677" lon="12.7186528"><ele>978.5</ele><time>2026-04-07T10:23:31.072Z</time></trkpt><trkpt lat="42.4254402" lon="12.7186968"><ele>978.6666666666666</ele><time>2026-04-07T10:23:32.072Z</time></trkpt><trkpt lat="42.4255117" lon="12.7187425"><ele>978.8333333333333</ele><time>2026-04-07T10:23:33.072Z</time></trkpt><trkpt lat="42.425576" lon="12.7187829"><ele>979.0</ele><time>2026-04-07T10:23:34.072Z</time></trkpt><trkpt lat="42.4256316" lon="12.71883"><ele>979.0</ele><time>2026-04-07T10:23:35.071Z</time></trkpt><trkpt lat="42.425728" lon="12.7189158"><ele>979.0000000000001</ele><time>2026-04-07T10:23:37.071Z</time></trkpt><trkpt lat="42.4257881" lon="12.7190337"><ele>979.0000000000001</ele><time>2026-04-07T10:23:39.071Z</time></trkpt><trkpt lat="42.4258492" lon="12.7191803"><ele>979.0</ele><time>2026-04-07T10:23:41.072Z</time></trkpt><trkpt lat="42.4259059" lon="12.7192958"><ele>979.0</ele><time>2026-04-07T10:23:43.072Z</time></trkpt><trkpt lat="42.4259471" lon="12.7194617"><ele>980.8333333333333</ele><time>2026-04-07T10:23:45.072Z</time></trkpt><trkpt lat="42.4259724" lon="12.7195539"><ele>982.6666666666666</ele><time>2026-04-07T10:23:46.072Z</time></trkpt><trkpt lat="42.4259938" lon="12.7196547"><ele>984.5</ele><time>2026-04-07T10:23:47.071Z</time></trkpt><trkpt lat="42.4260201" lon="12.719753"><ele>986.3333333333333</ele><time>2026-04-07T10:23:48.072Z</time></trkpt><trkpt lat="42.4260492" lon="12.7198315"><ele>988.1666666666666</ele><time>2026-04-07T10:23:49.072Z</time></trkpt><trkpt lat="42.42613" lon="12.7199396"><ele>990.0</ele><time>2026-04-07T10:23:51.071Z</time></trkpt><trkpt lat="42.4261905" lon="12.7199667"><ele>990.0</ele><time>2026-04-07T10:23:52.072Z</time></trkpt><trkpt lat="42.426262" lon="12.7199785"><ele>990.0</ele><time>2026-04-07T10:23:53.072Z</time></trkpt><trkpt lat="42.4263272" lon="12.7199788"><ele>990.0</ele><time>2026-04-07T10:23:54.072Z</time></trkpt><trkpt lat="42.4264251" lon="12.719989"><ele>990.0</ele><time>2026-04-07T10:23:56.071Z</time></trkpt><trkpt lat="42.4265199" lon="12.7200805"><ele>990.0</ele><time>2026-04-07T10:23:58.071Z</time></trkpt><trkpt lat="42.4265934" lon="12.7202104"><ele>988.5</ele><time>2026-04-07T10:24:00.072Z</time></trkpt><trkpt lat="42.4266271" lon="12.7203704"><ele>987.0</ele><time>2026-04-07T10:24:02.072Z</time></trkpt><trkpt lat="42.426632" lon="12.7205308"><ele>985.5</ele><time>2026-04-07T10:24:04.071Z</time></trkpt><trkpt lat="42.4266156" lon="12.7206928"><ele>984.0</ele><time>2026-04-07T10:24:06.072Z</time></trkpt><trkpt lat="42.4266084" lon="12.7208708"><ele>984.0</ele><time>2026-04-07T10:24:08.072Z</time></trkpt><trkpt lat="42.4266039" lon="12.7209644"><ele>984.0000000000001</ele><time>2026-04-07T10:24:09.071Z</time></trkpt><trkpt lat="42.4266048" lon="12.7211168"><ele>984.0000000000001</ele><time>2026-04-07T10:24:11.072Z</time></trkpt><trkpt lat="42.4266297" lon="12.721263"><ele>984.0</ele><time>2026-04-07T10:24:13.072Z</time></trkpt><trkpt lat="42.4266914" lon="12.7213959"><ele>984.0</ele><time>2026-04-07T10:24:15.071Z</time></trkpt><trkpt lat="42.4267454" lon="12.721496"><ele>984.5</ele><time>2026-04-07T10:24:17.072Z</time></trkpt><trkpt lat="42.4268206" lon="12.7215356"><ele>985.0</ele><time>2026-04-07T10:24:19.071Z</time></trkpt><trkpt lat="42.4268874" lon="12.7215046"><ele>985.5</ele><time>2026-04-07T10:24:21.071Z</time></trkpt><trkpt lat="42.4269368" lon="12.721407"><ele>986.0</ele><time>2026-04-07T10:24:23.071Z</time></trkpt><trkpt lat="42.4269805" lon="12.7212839"><ele>986.5</ele><time>2026-04-07T10:24:25.071Z</time></trkpt><trkpt lat="42.4270507" lon="12.7211736"><ele>987.0</ele><time>2026-04-07T10:24:27.072Z</time></trkpt><trkpt lat="42.4270977" lon="12.7211106"><ele>986.0</ele><time>2026-04-07T10:24:28.072Z</time></trkpt><trkpt lat="42.4271526" lon="12.7210516"><ele>985.0</ele><time>2026-04-07T10:24:29.072Z</time></trkpt><trkpt lat="42.4272129" lon="12.7209872"><ele>984.0</ele><time>2026-04-07T10:24:30.071Z</time></trkpt><trkpt lat="42.4272899" lon="12.720923"><ele>983.0</ele><time>2026-04-07T10:24:31.072Z</time></trkpt><trkpt lat="42.4273664" lon="12.7208506"><ele>982.0</ele><time>2026-04-07T10:24:32.072Z</time></trkpt><trkpt lat="42.4274468" lon="12.720783"><ele>981.0</ele><time>2026-04-07T10:24:33.072Z</time></trkpt><trkpt lat="42.4275298" lon="12.7207143"><ele>981.0</ele><time>2026-04-07T10:24:34.071Z</time></trkpt><trkpt lat="42.4276112" lon="12.7206468"><ele>981.0</ele><time>2026-04-07T10:24:35.072Z</time></trkpt><trkpt lat="42.4276883" lon="12.7205868"><ele>981.0</ele><time>2026-04-07T10:24:36.072Z</time></trkpt><trkpt lat="42.4277626" lon="12.7205261"><ele>981.0</ele><time>2026-04-07T10:24:37.072Z</time></trkpt><trkpt lat="42.4278304" lon="12.7204693"><ele>981.0</ele><time>2026-04-07T10:24:38.072Z</time></trkpt><trkpt lat="42.4279027" lon="12.7204062"><ele>981.0</ele><time>2026-04-07T10:24:39.072Z</time></trkpt><trkpt lat="42.4279715" lon="12.7203455"><ele>981.0</ele><time>2026-04-07T10:24:40.072Z</time></trkpt><trkpt lat="42.4280436" lon="12.7202897"><ele>981.0</ele><time>2026-04-07T10:24:41.072Z</time></trkpt><trkpt lat="42.4281049" lon="12.7202214"><ele>981.0</ele><time>2026-04-07T10:24:42.072Z</time></trkpt><trkpt lat="42.4281589" lon="12.720156"><ele>981.0</ele><time>2026-04-07T10:24:43.071Z</time></trkpt><trkpt lat="42.4282085" lon="12.7200804"><ele>981.0</ele><time>2026-04-07T10:24:44.071Z</time></trkpt><trkpt lat="42.4282503" lon="12.7199956"><ele>981.0</ele><time>2026-04-07T10:24:45.072Z</time></trkpt><trkpt lat="42.4282905" lon="12.7199185"><ele>981.0</ele><time>2026-04-07T10:24:46.071Z</time></trkpt><trkpt lat="42.4283358" lon="12.719785"><ele>980.9999999999999</ele><time>2026-04-07T10:24:48.071Z</time></trkpt><trkpt lat="42.4283897" lon="12.7196822"><ele>980.9999999999999</ele><time>2026-04-07T10:24:50.072Z</time></trkpt><trkpt lat="42.428437" lon="12.7195703"><ele>981.0</ele><time>2026-04-07T10:24:52.071Z</time></trkpt><trkpt lat="42.4285057" lon="12.71947"><ele>981.0</ele><time>2026-04-07T10:24:54.071Z</time></trkpt><trkpt lat="42.4285705" lon="12.7193754"><ele>982.8</ele><time>2026-04-07T10:24:56.071Z</time></trkpt><trkpt lat="42.4286536" lon="12.7192964"><ele>984.5999999999999</ele><time>2026-04-07T10:24:58.072Z</time></trkpt><trkpt lat="42.4287431" lon="12.7192048"><ele>986.4</ele><time>2026-04-07T10:25:00.072Z</time></trkpt><trkpt lat="42.4288285" lon="12.7190966"><ele>988.2</ele><time>2026-04-07T10:25:02.072Z</time></trkpt><trkpt lat="42.4288691" lon="12.7190311"><ele>990.0</ele><time>2026-04-07T10:25:03.072Z</time></trkpt><trkpt lat="42.428953" lon="12.7189191"><ele>992.6666666666666</ele><time>2026-04-07T10:25:05.071Z</time></trkpt><trkpt lat="42.4289982" lon="12.7188594"><ele>995.3333333333333</ele><time>2026-04-07T10:25:06.071Z</time></trkpt><trkpt lat="42.429046" lon="12.7188"><ele>998.0</ele><time>2026-04-07T10:25:07.072Z</time></trkpt><trkpt lat="42.4290928" lon="12.7187249"><ele>1000.6666666666666</ele><time>2026-04-07T10:25:08.072Z</time></trkpt><trkpt lat="42.4291413" lon="12.7186478"><ele>1003.3333333333333</ele><time>2026-04-07T10:25:09.071Z</time></trkpt><trkpt lat="42.4292259" lon="12.7185257"><ele>1006.0</ele><time>2026-04-07T10:25:11.072Z</time></trkpt><trkpt lat="42.4293" lon="12.7184019"><ele>1007.0</ele><time>2026-04-07T10:25:13.072Z</time></trkpt><trkpt lat="42.4293683" lon="12.7182647"><ele>1008.0</ele><time>2026-04-07T10:25:15.071Z</time></trkpt><trkpt lat="42.4294278" lon="12.7181376"><ele>1009.0</ele><time>2026-04-07T10:25:17.072Z</time></trkpt><trkpt lat="42.4295174" lon="12.7180394"><ele>1010.0</ele><time>2026-04-07T10:25:19.072Z</time></trkpt><trkpt lat="42.4295921" lon="12.7179357"><ele>1010.0</ele><time>2026-04-07T10:25:21.072Z</time></trkpt><trkpt lat="42.4296407" lon="12.7178208"><ele>1010.0</ele><time>2026-04-07T10:25:23.071Z</time></trkpt><trkpt lat="42.429677" lon="12.7177073"><ele>1010.0</ele><time>2026-04-07T10:25:25.071Z</time></trkpt><trkpt lat="42.4297193" lon="12.7175804"><ele>1010.0</ele><time>2026-04-07T10:25:27.071Z</time></trkpt><trkpt lat="42.4297461" lon="12.7175017"><ele>1010.0</ele><time>2026-04-07T10:25:28.071Z</time></trkpt><trkpt lat="42.4298169" lon="12.7173646"><ele>1011.6</ele><time>2026-04-07T10:25:30.071Z</time></trkpt><trkpt lat="42.429857" lon="12.717296"><ele>1013.2</ele><time>2026-04-07T10:25:31.072Z</time></trkpt><trkpt lat="42.4299003" lon="12.717226"><ele>1014.8</ele><time>2026-04-07T10:25:32.072Z</time></trkpt><trkpt lat="42.4299729" lon="12.7171174"><ele>1016.4</ele><time>2026-04-07T10:25:34.071Z</time></trkpt><trkpt lat="42.4300553" lon="12.7170165"><ele>1018.0</ele><time>2026-04-07T10:25:36.072Z</time></trkpt><trkpt lat="42.4301417" lon="12.7169118"><ele>1017.4999999999999</ele><time>2026-04-07T10:25:38.072Z</time></trkpt><trkpt lat="42.4301993" lon="12.7168511"><ele>1017.0</ele><time>2026-04-07T10:25:40.072Z</time></trkpt><trkpt lat="42.4302779" lon="12.7168439"><ele>1016.5</ele><time>2026-04-07T10:25:44.071Z</time></trkpt><trkpt lat="42.4303505" lon="12.7168691"><ele>1016.0</ele><time>2026-04-07T10:25:46.072Z</time></trkpt><trkpt lat="42.4304554" lon="12.7168892"><ele>1015.4999999999999</ele><time>2026-04-07T10:25:48.071Z</time></trkpt><trkpt lat="42.430527" lon="12.7168779"><ele>1015.0</ele><time>2026-04-07T10:25:49.072Z</time></trkpt><trkpt lat="42.4305916" lon="12.7168701"><ele>1014.9999999999999</ele><time>2026-04-07T10:25:50.072Z</time></trkpt><trkpt lat="42.4306548" lon="12.7168512"><ele>1015.0</ele><time>2026-04-07T10:25:51.071Z</time></trkpt><trkpt lat="42.4307184" lon="12.716823"><ele>1015.0</ele><time>2026-04-07T10:25:52.071Z</time></trkpt><trkpt lat="42.4307807" lon="12.7167986"><ele>1015.0</ele><time>2026-04-07T10:25:53.071Z</time></trkpt><trkpt lat="42.430893" lon="12.7167409"><ele>1014.9999999999999</ele><time>2026-04-07T10:25:55.071Z</time></trkpt><trkpt lat="42.4309718" lon="12.7166843"><ele>1015.0</ele><time>2026-04-07T10:25:57.071Z</time></trkpt><trkpt lat="42.4310474" lon="12.7166381"><ele>1015.0</ele><time>2026-04-07T10:25:59.071Z</time></trkpt><trkpt lat="42.4311237" lon="12.7165851"><ele>1015.0</ele><time>2026-04-07T10:26:01.071Z</time></trkpt><trkpt lat="42.4312108" lon="12.7165369"><ele>1015.0</ele><time>2026-04-07T10:26:03.071Z</time></trkpt><trkpt lat="42.4313133" lon="12.7165065"><ele>1015.0</ele><time>2026-04-07T10:26:05.07Z</time></trkpt><trkpt lat="42.4314338" lon="12.7165087"><ele>1015.0</ele><time>2026-04-07T10:26:07.071Z</time></trkpt><trkpt lat="42.4315541" lon="12.7165265"><ele>1015.2</ele><time>2026-04-07T10:26:09.07Z</time></trkpt><trkpt lat="42.4316497" lon="12.7165368"><ele>1015.4</ele><time>2026-04-07T10:26:11.071Z</time></trkpt><trkpt lat="42.4317464" lon="12.7165387"><ele>1015.5999999999999</ele><time>2026-04-07T10:26:13.071Z</time></trkpt><trkpt lat="42.4318436" lon="12.7165187"><ele>1015.8</ele><time>2026-04-07T10:26:15.07Z</time></trkpt><trkpt lat="42.4319249" lon="12.7165287"><ele>1016.0</ele><time>2026-04-07T10:26:17.071Z</time></trkpt><trkpt lat="42.4319938" lon="12.7165984"><ele>1016.0000000000001</ele><time>2026-04-07T10:26:20.071Z</time></trkpt><trkpt lat="42.4320662" lon="12.7166835"><ele>1016.0</ele><time>2026-04-07T10:26:23.07Z</time></trkpt><trkpt lat="42.4321262" lon="12.716757"><ele>1016.0</ele><time>2026-04-07T10:26:25.071Z</time></trkpt><trkpt lat="42.4321779" lon="12.7168132"><ele>1016.0</ele><time>2026-04-07T10:26:27.07Z</time></trkpt><trkpt lat="42.4322451" lon="12.7168969"><ele>1016.0000000000001</ele><time>2026-04-07T10:26:30.071Z</time></trkpt><trkpt lat="42.4322993" lon="12.7169631"><ele>1016.0</ele><time>2026-04-07T10:26:32.071Z</time></trkpt><trkpt lat="42.4323608" lon="12.7170356"><ele>1015.0</ele><time>2026-04-07T10:26:34.071Z</time></trkpt><trkpt lat="42.4324534" lon="12.7171042"><ele>1013.9999999999999</ele><time>2026-04-07T10:26:36.071Z</time></trkpt><trkpt lat="42.4325353" lon="12.7171781"><ele>1012.9999999999999</ele><time>2026-04-07T10:26:38.071Z</time></trkpt><trkpt lat="42.4326129" lon="12.7172453"><ele>1012.0</ele><time>2026-04-07T10:26:40.071Z</time></trkpt><trkpt lat="42.43268" lon="12.7173178"><ele>1011.0</ele><time>2026-04-07T10:26:42.071Z</time></trkpt><trkpt lat="42.4327276" lon="12.7173923"><ele>1011.0</ele><time>2026-04-07T10:26:44.071Z</time></trkpt><trkpt lat="42.4327799" lon="12.7174964"><ele>1011.0</ele><time>2026-04-07T10:26:47.071Z</time></trkpt><trkpt lat="42.4328177" lon="12.7176009"><ele>1011.0</ele><time>2026-04-07T10:26:50.071Z</time></trkpt><trkpt lat="42.4328508" lon="12.7176852"><ele>1011.0</ele><time>2026-04-07T10:26:53.07Z</time></trkpt><trkpt lat="42.4328917" lon="12.7177684"><ele>1011.0</ele><time>2026-04-07T10:26:56.07Z</time></trkpt><trkpt lat="42.4329421" lon="12.71786"><ele>1011.0</ele><time>2026-04-07T10:26:59.071Z</time></trkpt><trkpt lat="42.4329932" lon="12.7179407"><ele>1009.1666666666666</ele><time>2026-04-07T10:27:02.071Z</time></trkpt><trkpt lat="42.4330534" lon="12.7180318"><ele>1007.3333333333333</ele><time>2026-04-07T10:27:05.07Z</time></trkpt><trkpt lat="42.4331211" lon="12.7181273"><ele>1005.5</ele><time>2026-04-07T10:27:08.071Z</time></trkpt><trkpt lat="42.4331827" lon="12.7182105"><ele>1003.6666666666666</ele><time>2026-04-07T10:27:10.071Z</time></trkpt><trkpt lat="42.4332471" lon="12.7182921"><ele>1001.8333333333333</ele><time>2026-04-07T10:27:12.071Z</time></trkpt><trkpt lat="42.433307" lon="12.7183685"><ele>1000.0</ele><time>2026-04-07T10:27:14.071Z</time></trkpt><trkpt lat="42.4333514" lon="12.7184363"><ele>1000.0</ele><time>2026-04-07T10:27:16.071Z</time></trkpt><trkpt lat="42.4334021" lon="12.7185047"><ele>1000.0</ele><time>2026-04-07T10:27:18.071Z</time></trkpt><trkpt lat="42.4334585" lon="12.7185736"><ele>1000.0</ele><time>2026-04-07T10:27:20.07Z</time></trkpt><trkpt lat="42.4335129" lon="12.7186374"><ele>1000.0</ele><time>2026-04-07T10:27:22.071Z</time></trkpt><trkpt lat="42.4335516" lon="12.7187067"><ele>1000.0</ele><time>2026-04-07T10:27:24.071Z</time></trkpt><trkpt lat="42.4335864" lon="12.71878"><ele>1000.0</ele><time>2026-04-07T10:27:26.071Z</time></trkpt><trkpt lat="42.433631" lon="12.718898"><ele>1000.0</ele><time>2026-04-07T10:27:29.071Z</time></trkpt><trkpt lat="42.4336751" lon="12.7189989"><ele>998.6666666666666</ele><time>2026-04-07T10:27:31.071Z</time></trkpt><trkpt lat="42.433715" lon="12.7190899"><ele>997.3333333333333</ele><time>2026-04-07T10:27:33.071Z</time></trkpt><trkpt lat="42.4337557" lon="12.7191734"><ele>996.0</ele><time>2026-04-07T10:27:35.07Z</time></trkpt><trkpt lat="42.4337962" lon="12.7192552"><ele>994.6666666666667</ele><time>2026-04-07T10:27:37.071Z</time></trkpt><trkpt lat="42.4338396" lon="12.7193323"><ele>993.3333333333334</ele><time>2026-04-07T10:27:39.07Z</time></trkpt><trkpt lat="42.4338855" lon="12.7194165"><ele>992.0</ele><time>2026-04-07T10:27:41.07Z</time></trkpt><trkpt lat="42.433936" lon="12.7195035"><ele>989.1666666666667</ele><time>2026-04-07T10:27:43.071Z</time></trkpt><trkpt lat="42.4339978" lon="12.7195824"><ele>986.3333333333334</ele><time>2026-04-07T10:27:45.071Z</time></trkpt><trkpt lat="42.434064" lon="12.7196486"><ele>983.5</ele><time>2026-04-07T10:27:47.07Z</time></trkpt><trkpt lat="42.4341268" lon="12.719717"><ele>980.6666666666667</ele><time>2026-04-07T10:27:49.071Z</time></trkpt><trkpt lat="42.4341702" lon="12.7197897"><ele>977.8333333333334</ele><time>2026-04-07T10:27:51.07Z</time></trkpt><trkpt lat="42.4342009" lon="12.7198891"><ele>975.0</ele><time>2026-04-07T10:27:53.071Z</time></trkpt><trkpt lat="42.4342342" lon="12.7200165"><ele>975.0</ele><time>2026-04-07T10:27:55.07Z</time></trkpt><trkpt lat="42.4342845" lon="12.7201068"><ele>975.0</ele><time>2026-04-07T10:27:57.071Z</time></trkpt><trkpt lat="42.4343528" lon="12.7201885"><ele>975.0</ele><time>2026-04-07T10:27:59.071Z</time></trkpt><trkpt lat="42.4344089" lon="12.7202797"><ele>975.0</ele><time>2026-04-07T10:28:01.071Z</time></trkpt><trkpt lat="42.4344594" lon="12.7203728"><ele>975.0</ele><time>2026-04-07T10:28:03.071Z</time></trkpt><trkpt lat="42.4345119" lon="12.7204672"><ele>975.0</ele><time>2026-04-07T10:28:05.07Z</time></trkpt><trkpt lat="42.4345815" lon="12.7205643"><ele>972.0</ele><time>2026-04-07T10:28:07.069Z</time></trkpt><trkpt lat="42.4346538" lon="12.7206784"><ele>969.0</ele><time>2026-04-07T10:28:09.07Z</time></trkpt><trkpt lat="42.434721" lon="12.7208071"><ele>966.0</ele><time>2026-04-07T10:28:11.071Z</time></trkpt><trkpt lat="42.4348033" lon="12.7209098"><ele>963.0</ele><time>2026-04-07T10:28:13.071Z</time></trkpt><trkpt lat="42.4348844" lon="12.7210189"><ele>961.5999999999999</ele><time>2026-04-07T10:28:15.071Z</time></trkpt><trkpt lat="42.4349648" lon="12.7211174"><ele>960.1999999999999</ele><time>2026-04-07T10:28:17.071Z</time></trkpt><trkpt lat="42.4350484" lon="12.7212012"><ele>958.8</ele><time>2026-04-07T10:28:19.07Z</time></trkpt><trkpt lat="42.4351523" lon="12.7212803"><ele>957.4</ele><time>2026-04-07T10:28:21.071Z</time></trkpt><trkpt lat="42.435257" lon="12.7213439"><ele>956.0</ele><time>2026-04-07T10:28:23.071Z</time></trkpt><trkpt lat="42.435366" lon="12.72139"><ele>955.5999999999999</ele><time>2026-04-07T10:28:25.07Z</time></trkpt><trkpt lat="42.4354778" lon="12.7214299"><ele>955.1999999999999</ele><time>2026-04-07T10:28:27.071Z</time></trkpt><trkpt lat="42.4356014" lon="12.721447"><ele>954.8000000000001</ele><time>2026-04-07T10:28:29.071Z</time></trkpt><trkpt lat="42.4356702" lon="12.7214392"><ele>954.4000000000001</ele><time>2026-04-07T10:28:30.071Z</time></trkpt><trkpt lat="42.4357416" lon="12.7214282"><ele>954.0</ele><time>2026-04-07T10:28:31.071Z</time></trkpt><trkpt lat="42.4358121" lon="12.7214122"><ele>954.0</ele><time>2026-04-07T10:28:32.071Z</time></trkpt><trkpt lat="42.4358745" lon="12.7213844"><ele>953.9999999999999</ele><time>2026-04-07T10:28:33.071Z</time></trkpt><trkpt lat="42.4359384" lon="12.7213417"><ele>954.0</ele><time>2026-04-07T10:28:34.07Z</time></trkpt><trkpt lat="42.4360027" lon="12.7212949"><ele>954.0</ele><time>2026-04-07T10:28:35.071Z</time></trkpt><trkpt lat="42.4360754" lon="12.7212548"><ele>953.9999999999999</ele><time>2026-04-07T10:28:36.071Z</time></trkpt><trkpt lat="42.4361493" lon="12.7212266"><ele>954.0</ele><time>2026-04-07T10:28:37.071Z</time></trkpt><trkpt lat="42.4362289" lon="12.7212033"><ele>954.0</ele><time>2026-04-07T10:28:38.071Z</time></trkpt><trkpt lat="42.4362992" lon="12.7211848"><ele>954.3333333333334</ele><time>2026-04-07T10:28:39.071Z</time></trkpt><trkpt lat="42.4364197" lon="12.7211736"><ele>954.6666666666667</ele><time>2026-04-07T10:28:41.071Z</time></trkpt><trkpt lat="42.4364885" lon="12.7211613"><ele>955.0</ele><time>2026-04-07T10:28:42.07Z</time></trkpt><trkpt lat="42.4365576" lon="12.7211409"><ele>955.3333333333334</ele><time>2026-04-07T10:28:43.071Z</time></trkpt><trkpt lat="42.4366714" lon="12.7210886"><ele>955.6666666666667</ele><time>2026-04-07T10:28:45.071Z</time></trkpt><trkpt lat="42.4367308" lon="12.7210548"><ele>956.0</ele><time>2026-04-07T10:28:46.071Z</time></trkpt><trkpt lat="42.4368432" lon="12.7209843"><ele>956.0000000000001</ele><time>2026-04-07T10:28:48.07Z</time></trkpt><trkpt lat="42.4369058" lon="12.7209528"><ele>956.0</ele><time>2026-04-07T10:28:49.07Z</time></trkpt><trkpt lat="42.4370153" lon="12.7208878"><ele>956.0</ele><time>2026-04-07T10:28:51.069Z</time></trkpt><trkpt lat="42.4370778" lon="12.7208472"><ele>956.0</ele><time>2026-04-07T10:28:52.069Z</time></trkpt><trkpt lat="42.4371417" lon="12.7208038"><ele>956.0000000000001</ele><time>2026-04-07T10:28:53.07Z</time></trkpt><trkpt lat="42.4372064" lon="12.72075"><ele>956.0</ele><time>2026-04-07T10:28:54.07Z</time></trkpt><trkpt lat="42.4372683" lon="12.7206852"><ele>955.8333333333334</ele><time>2026-04-07T10:28:55.07Z</time></trkpt><trkpt lat="42.4373352" lon="12.7206321"><ele>955.6666666666667</ele><time>2026-04-07T10:28:56.069Z</time></trkpt><trkpt lat="42.4374072" lon="12.7205811"><ele>955.5</ele><time>2026-04-07T10:28:57.07Z</time></trkpt><trkpt lat="42.4374801" lon="12.7205393"><ele>955.3333333333333</ele><time>2026-04-07T10:28:58.07Z</time></trkpt><trkpt lat="42.4375513" lon="12.720504"><ele>955.1666666666666</ele><time>2026-04-07T10:28:59.07Z</time></trkpt><trkpt lat="42.4376246" lon="12.7204653"><ele>955.0</ele><time>2026-04-07T10:29:00.07Z</time></trkpt><trkpt lat="42.4377393" lon="12.720395"><ele>954.9999999999999</ele><time>2026-04-07T10:29:02.07Z</time></trkpt><trkpt lat="42.4377926" lon="12.7203496"><ele>955.0</ele><time>2026-04-07T10:29:03.07Z</time></trkpt><trkpt lat="42.4378469" lon="12.7202974"><ele>955.0</ele><time>2026-04-07T10:29:04.07Z</time></trkpt><trkpt lat="42.4379285" lon="12.7201712"><ele>955.0</ele><time>2026-04-07T10:29:06.07Z</time></trkpt><trkpt lat="42.4379667" lon="12.7200912"><ele>954.9999999999999</ele><time>2026-04-07T10:29:07.07Z</time></trkpt><trkpt lat="42.438003" lon="12.7200094"><ele>955.0</ele><time>2026-04-07T10:29:08.07Z</time></trkpt><trkpt lat="42.4380377" lon="12.7198822"><ele>954.9999999999999</ele><time>2026-04-07T10:29:10.07Z</time></trkpt><trkpt lat="42.4380904" lon="12.7197634"><ele>955.0</ele><time>2026-04-07T10:29:12.069Z</time></trkpt><trkpt lat="42.4381411" lon="12.7196671"><ele>955.0</ele><time>2026-04-07T10:29:14.07Z</time></trkpt><trkpt lat="42.4381938" lon="12.7195765"><ele>955.0</ele><time>2026-04-07T10:29:16.07Z</time></trkpt><trkpt lat="42.4382333" lon="12.719496"><ele>954.9999999999999</ele><time>2026-04-07T10:29:18.07Z</time></trkpt><trkpt lat="42.4382741" lon="12.7194212"><ele>955.0</ele><time>2026-04-07T10:29:20.07Z</time></trkpt><trkpt lat="42.4383124" lon="12.7193506"><ele>953.4999999999999</ele><time>2026-04-07T10:29:22.07Z</time></trkpt><trkpt lat="42.43836" lon="12.7192708"><ele>952.0</ele><time>2026-04-07T10:29:24.07Z</time></trkpt><trkpt lat="42.4384077" lon="12.7191938"><ele>950.5</ele><time>2026-04-07T10:29:26.069Z</time></trkpt><trkpt lat="42.4384561" lon="12.7191171"><ele>949.0</ele><time>2026-04-07T10:29:28.069Z</time></trkpt><trkpt lat="42.4385118" lon="12.7190325"><ele>947.4999999999999</ele><time>2026-04-07T10:29:30.07Z</time></trkpt><trkpt lat="42.4385708" lon="12.7189476"><ele>946.0</ele><time>2026-04-07T10:29:32.069Z</time></trkpt><trkpt lat="42.4386181" lon="12.7188757"><ele>945.9999999999999</ele><time>2026-04-07T10:29:34.07Z</time></trkpt><trkpt lat="42.4386584" lon="12.718809"><ele>946.0</ele><time>2026-04-07T10:29:36.069Z</time></trkpt><trkpt lat="42.4387095" lon="12.7187427"><ele>946.0</ele><time>2026-04-07T10:29:38.07Z</time></trkpt><trkpt lat="42.4387806" lon="12.7186789"><ele>946.0</ele><time>2026-04-07T10:29:40.069Z</time></trkpt><trkpt lat="42.4388743" lon="12.7186172"><ele>945.9999999999999</ele><time>2026-04-07T10:29:42.068Z</time></trkpt><trkpt lat="42.4389592" lon="12.7185592"><ele>946.0</ele><time>2026-04-07T10:29:44.07Z</time></trkpt><trkpt lat="42.4390363" lon="12.7184991"><ele>943.9999999999999</ele><time>2026-04-07T10:29:47.069Z</time></trkpt><trkpt lat="42.4390987" lon="12.7184608"><ele>942.0</ele><time>2026-04-07T10:29:49.069Z</time></trkpt><trkpt lat="42.4391784" lon="12.7183932"><ele>940.0</ele><time>2026-04-07T10:29:51.07Z</time></trkpt><trkpt lat="42.4392648" lon="12.7183255"><ele>938.0</ele><time>2026-04-07T10:29:53.069Z</time></trkpt><trkpt lat="42.4393397" lon="12.718256"><ele>935.9999999999999</ele><time>2026-04-07T10:29:55.07Z</time></trkpt><trkpt lat="42.4393952" lon="12.7181844"><ele>934.0</ele><time>2026-04-07T10:29:57.069Z</time></trkpt><trkpt lat="42.4394614" lon="12.7181232"><ele>934.0</ele><time>2026-04-07T10:29:59.07Z</time></trkpt><trkpt lat="42.4395323" lon="12.7180546"><ele>934.0000000000001</ele><time>2026-04-07T10:30:01.07Z</time></trkpt><trkpt lat="42.439618" lon="12.7179668"><ele>934.0000000000001</ele><time>2026-04-07T10:30:03.07Z</time></trkpt><trkpt lat="42.4396939" lon="12.71788"><ele>934.0</ele><time>2026-04-07T10:30:05.07Z</time></trkpt><trkpt lat="42.4397518" lon="12.7177798"><ele>934.0</ele><time>2026-04-07T10:30:07.07Z</time></trkpt><trkpt lat="42.4397945" lon="12.7176809"><ele>930.6</ele><time>2026-04-07T10:30:09.07Z</time></trkpt><trkpt lat="42.4398408" lon="12.7175861"><ele>927.2</ele><time>2026-04-07T10:30:11.07Z</time></trkpt><trkpt lat="42.4399055" lon="12.7174903"><ele>923.8000000000001</ele><time>2026-04-07T10:30:13.069Z</time></trkpt><trkpt lat="42.4399956" lon="12.7174336"><ele>920.4000000000001</ele><time>2026-04-07T10:30:15.069Z</time></trkpt><trkpt lat="42.440095" lon="12.7174331"><ele>917.0</ele><time>2026-04-07T10:30:17.069Z</time></trkpt><trkpt lat="42.4402013" lon="12.7174789"><ele>917.0</ele><time>2026-04-07T10:30:19.069Z</time></trkpt><trkpt lat="42.4402614" lon="12.7175183"><ele>917.0</ele><time>2026-04-07T10:30:20.07Z</time></trkpt><trkpt lat="42.4403222" lon="12.717557"><ele>917.0</ele><time>2026-04-07T10:30:21.07Z</time></trkpt><trkpt lat="42.4403752" lon="12.7176038"><ele>917.0</ele><time>2026-04-07T10:30:22.07Z</time></trkpt><trkpt lat="42.4404337" lon="12.717654"><ele>917.0</ele><time>2026-04-07T10:30:23.069Z</time></trkpt><trkpt lat="42.4404955" lon="12.7177044"><ele>917.0</ele><time>2026-04-07T10:30:24.07Z</time></trkpt><trkpt lat="42.4405517" lon="12.7177665"><ele>917.0</ele><time>2026-04-07T10:30:25.07Z</time></trkpt><trkpt lat="42.4406085" lon="12.7178356"><ele>919.8333333333334</ele><time>2026-04-07T10:30:26.07Z</time></trkpt><trkpt lat="42.4406644" lon="12.7178983"><ele>922.6666666666667</ele><time>2026-04-07T10:30:27.07Z</time></trkpt><trkpt lat="42.4407268" lon="12.7179618"><ele>925.5</ele><time>2026-04-07T10:30:28.069Z</time></trkpt><trkpt lat="42.4407899" lon="12.718024"><ele>928.3333333333333</ele><time>2026-04-07T10:30:29.07Z</time></trkpt><trkpt lat="42.4408525" lon="12.7180827"><ele>931.1666666666666</ele><time>2026-04-07T10:30:30.07Z</time></trkpt><trkpt lat="42.44091" lon="12.7181433"><ele>934.0</ele><time>2026-04-07T10:30:31.07Z</time></trkpt><trkpt lat="42.4409598" lon="12.7182148"><ele>933.9999999999999</ele><time>2026-04-07T10:30:32.07Z</time></trkpt><trkpt lat="42.4410157" lon="12.7182874"><ele>934.0</ele><time>2026-04-07T10:30:33.069Z</time></trkpt><trkpt lat="42.4410727" lon="12.7183685"><ele>934.0</ele><time>2026-04-07T10:30:34.07Z</time></trkpt><trkpt lat="42.4411289" lon="12.7184415"><ele>934.0</ele><time>2026-04-07T10:30:35.07Z</time></trkpt><trkpt lat="42.4411848" lon="12.7185048"><ele>933.9999999999999</ele><time>2026-04-07T10:30:36.07Z</time></trkpt><trkpt lat="42.4412478" lon="12.7185618"><ele>934.0</ele><time>2026-04-07T10:30:37.07Z</time></trkpt><trkpt lat="42.441317" lon="12.7186143"><ele>935.9999999999999</ele><time>2026-04-07T10:30:38.07Z</time></trkpt><trkpt lat="42.4413872" lon="12.7186591"><ele>938.0</ele><time>2026-04-07T10:30:39.07Z</time></trkpt><trkpt lat="42.4414552" lon="12.7186913"><ele>940.0</ele><time>2026-04-07T10:30:40.07Z</time></trkpt><trkpt lat="42.4415155" lon="12.7187168"><ele>942.0</ele><time>2026-04-07T10:30:41.069Z</time></trkpt><trkpt lat="42.4416256" lon="12.7187837"><ele>943.9999999999999</ele><time>2026-04-07T10:30:43.069Z</time></trkpt><trkpt lat="42.4416828" lon="12.7188415"><ele>946.0</ele><time>2026-04-07T10:30:44.07Z</time></trkpt><trkpt lat="42.4417413" lon="12.718909"><ele>945.9999999999999</ele><time>2026-04-07T10:30:45.07Z</time></trkpt><trkpt lat="42.441794" lon="12.7189855"><ele>946.0</ele><time>2026-04-07T10:30:46.07Z</time></trkpt><trkpt lat="42.4418511" lon="12.7190648"><ele>946.0</ele><time>2026-04-07T10:30:47.069Z</time></trkpt><trkpt lat="42.4419108" lon="12.7191349"><ele>946.0</ele><time>2026-04-07T10:30:48.07Z</time></trkpt><trkpt lat="42.4419771" lon="12.7191879"><ele>945.9999999999999</ele><time>2026-04-07T10:30:49.07Z</time></trkpt><trkpt lat="42.4420468" lon="12.7192429"><ele>946.0</ele><time>2026-04-07T10:30:50.07Z</time></trkpt><trkpt lat="42.4421142" lon="12.7192776"><ele>946.9999999999999</ele><time>2026-04-07T10:30:51.07Z</time></trkpt><trkpt lat="42.4421898" lon="12.7193056"><ele>948.0</ele><time>2026-04-07T10:30:52.07Z</time></trkpt><trkpt lat="42.4422735" lon="12.7193243"><ele>949.0</ele><time>2026-04-07T10:30:53.07Z</time></trkpt><trkpt lat="42.4423486" lon="12.7193459"><ele>950.0</ele><time>2026-04-07T10:30:54.07Z</time></trkpt><trkpt lat="42.4424169" lon="12.7193707"><ele>950.9999999999999</ele><time>2026-04-07T10:30:55.07Z</time></trkpt><trkpt lat="42.4424834" lon="12.7194021"><ele>952.0</ele><time>2026-04-07T10:30:56.069Z</time></trkpt><trkpt lat="42.4425525" lon="12.7194511"><ele>952.0</ele><time>2026-04-07T10:30:57.07Z</time></trkpt><trkpt lat="42.4426182" lon="12.7195077"><ele>952.0</ele><time>2026-04-07T10:30:58.07Z</time></trkpt><trkpt lat="42.4426821" lon="12.7195699"><ele>952.0</ele><time>2026-04-07T10:30:59.069Z</time></trkpt><trkpt lat="42.4427394" lon="12.7196242"><ele>952.0</ele><time>2026-04-07T10:31:00.069Z</time></trkpt><trkpt lat="42.4427962" lon="12.7196815"><ele>952.0</ele><time>2026-04-07T10:31:01.07Z</time></trkpt><trkpt lat="42.4428573" lon="12.7197294"><ele>952.0</ele><time>2026-04-07T10:31:02.069Z</time></trkpt><trkpt lat="42.4429303" lon="12.719769"><ele>952.0</ele><time>2026-04-07T10:31:03.07Z</time></trkpt><trkpt lat="42.4430106" lon="12.7197988"><ele>949.8333333333333</ele><time>2026-04-07T10:31:04.069Z</time></trkpt><trkpt lat="42.4430743" lon="12.71983"><ele>947.6666666666666</ele><time>2026-04-07T10:31:05.07Z</time></trkpt><trkpt lat="42.4431685" lon="12.719877"><ele>945.5</ele><time>2026-04-07T10:31:07.07Z</time></trkpt><trkpt lat="42.4432423" lon="12.7199094"><ele>943.3333333333333</ele><time>2026-04-07T10:31:09.069Z</time></trkpt><trkpt lat="42.4433101" lon="12.7199393"><ele>941.1666666666666</ele><time>2026-04-07T10:31:11.069Z</time></trkpt><trkpt lat="42.4434116" lon="12.719968"><ele>939.0</ele><time>2026-04-07T10:31:13.07Z</time></trkpt><trkpt lat="42.443536" lon="12.7199916"><ele>939.0</ele><time>2026-04-07T10:31:15.07Z</time></trkpt><trkpt lat="42.4436068" lon="12.7200106"><ele>939.0</ele><time>2026-04-07T10:31:16.07Z</time></trkpt><trkpt lat="42.4436764" lon="12.7200289"><ele>939.0</ele><time>2026-04-07T10:31:17.07Z</time></trkpt><trkpt lat="42.4437411" lon="12.7200517"><ele>939.0</ele><time>2026-04-07T10:31:18.07Z</time></trkpt><trkpt lat="42.4438597" lon="12.7200919"><ele>939.0</ele><time>2026-04-07T10:31:20.07Z</time></trkpt><trkpt lat="42.4439682" lon="12.7201345"><ele>939.0</ele><time>2026-04-07T10:31:22.069Z</time></trkpt><trkpt lat="42.444085" lon="12.7201711"><ele>938.1666666666666</ele><time>2026-04-07T10:31:24.07Z</time></trkpt><trkpt lat="42.4441712" lon="12.7201799"><ele>937.3333333333333</ele><time>2026-04-07T10:31:26.069Z</time></trkpt><trkpt lat="42.4442468" lon="12.7202053"><ele>936.5</ele><time>2026-04-07T10:31:28.07Z</time></trkpt><trkpt lat="42.4443054" lon="12.720243"><ele>935.6666666666666</ele><time>2026-04-07T10:31:30.07Z</time></trkpt><trkpt lat="42.444365" lon="12.7202882"><ele>934.8333333333333</ele><time>2026-04-07T10:31:32.07Z</time></trkpt><trkpt lat="42.4444207" lon="12.7203547"><ele>934.0</ele><time>2026-04-07T10:31:34.069Z</time></trkpt><trkpt lat="42.4445019" lon="12.720439"><ele>935.6</ele><time>2026-04-07T10:31:36.069Z</time></trkpt><trkpt lat="42.4445769" lon="12.7205253"><ele>937.2</ele><time>2026-04-07T10:31:38.068Z</time></trkpt><trkpt lat="42.4446565" lon="12.7206447"><ele>938.8000000000001</ele><time>2026-04-07T10:31:40.069Z</time></trkpt><trkpt lat="42.4447323" lon="12.7207577"><ele>940.4000000000001</ele><time>2026-04-07T10:31:42.069Z</time></trkpt><trkpt lat="42.4448051" lon="12.7208647"><ele>942.0</ele><time>2026-04-07T10:31:44.069Z</time></trkpt><trkpt lat="42.4448761" lon="12.7209448"><ele>942.0</ele><time>2026-04-07T10:31:46.068Z</time></trkpt><trkpt lat="42.4449754" lon="12.7210019"><ele>942.0</ele><time>2026-04-07T10:31:48.069Z</time></trkpt><trkpt lat="42.4450801" lon="12.7210264"><ele>942.0</ele><time>2026-04-07T10:31:50.068Z</time></trkpt><trkpt lat="42.4451804" lon="12.7210277"><ele>942.0</ele><time>2026-04-07T10:31:52.068Z</time></trkpt><trkpt lat="42.4452545" lon="12.7209962"><ele>942.0</ele><time>2026-04-07T10:31:54.069Z</time></trkpt><trkpt lat="42.4453317" lon="12.7209652"><ele>942.0</ele><time>2026-04-07T10:31:56.068Z</time></trkpt><trkpt lat="42.4454118" lon="12.7209185"><ele>942.0</ele><time>2026-04-07T10:31:58.069Z</time></trkpt><trkpt lat="42.4454858" lon="12.7208297"><ele>942.0</ele><time>2026-04-07T10:32:00.069Z</time></trkpt><trkpt lat="42.445558" lon="12.7207182"><ele>942.0</ele><time>2026-04-07T10:32:02.069Z</time></trkpt><trkpt lat="42.4456334" lon="12.7206396"><ele>942.0</ele><time>2026-04-07T10:32:04.069Z</time></trkpt><trkpt lat="42.4457057" lon="12.7206089"><ele>941.1428571428573</ele><time>2026-04-07T10:32:06.069Z</time></trkpt><trkpt lat="42.4457737" lon="12.7206028"><ele>940.2857142857143</ele><time>2026-04-07T10:32:08.069Z</time></trkpt><trkpt lat="42.4458367" lon="12.7206416"><ele>939.4285714285716</ele><time>2026-04-07T10:32:10.069Z</time></trkpt><trkpt lat="42.4458926" lon="12.7206916"><ele>938.5714285714287</ele><time>2026-04-07T10:32:12.069Z</time></trkpt><trkpt lat="42.4459484" lon="12.7207497"><ele>937.7142857142858</ele><time>2026-04-07T10:32:15.068Z</time></trkpt><trkpt lat="42.4460056" lon="12.7208243"><ele>936.8571428571429</ele><time>2026-04-07T10:32:19.069Z</time></trkpt><trkpt lat="42.4460666" lon="12.7208525"><ele>936.0</ele><time>2026-04-07T10:32:22.068Z</time></trkpt><trkpt lat="42.4461203" lon="12.7208051"><ele>936.0</ele><time>2026-04-07T10:32:24.068Z</time></trkpt><trkpt lat="42.4461583" lon="12.7207206"><ele>935.9999999999999</ele><time>2026-04-07T10:32:25.068Z</time></trkpt><trkpt lat="42.4462065" lon="12.7205663"><ele>935.9999999999999</ele><time>2026-04-07T10:32:27.068Z</time></trkpt><trkpt lat="42.4462644" lon="12.7204113"><ele>936.0</ele><time>2026-04-07T10:32:29.069Z</time></trkpt><trkpt lat="42.4462966" lon="12.7203294"><ele>936.0</ele><time>2026-04-07T10:32:30.068Z</time></trkpt><trkpt lat="42.4463262" lon="12.7202499"><ele>934.0</ele><time>2026-04-07T10:32:31.069Z</time></trkpt><trkpt lat="42.4463943" lon="12.7201112"><ele>931.9999999999999</ele><time>2026-04-07T10:32:33.068Z</time></trkpt><trkpt lat="42.446473" lon="12.7200208"><ele>929.9999999999999</ele><time>2026-04-07T10:32:35.069Z</time></trkpt><trkpt lat="42.4465536" lon="12.7199525"><ele>928.0</ele><time>2026-04-07T10:32:37.069Z</time></trkpt><trkpt lat="42.4466327" lon="12.7199057"><ele>926.0</ele><time>2026-04-07T10:32:39.069Z</time></trkpt><trkpt lat="42.4467134" lon="12.7198425"><ele>926.0000000000001</ele><time>2026-04-07T10:32:41.068Z</time></trkpt><trkpt lat="42.4467967" lon="12.719764"><ele>926.0</ele><time>2026-04-07T10:32:43.068Z</time></trkpt><trkpt lat="42.4468973" lon="12.7196721"><ele>926.0</ele><time>2026-04-07T10:32:45.068Z</time></trkpt><trkpt lat="42.4469555" lon="12.7196342"><ele>926.0</ele><time>2026-04-07T10:32:46.069Z</time></trkpt><trkpt lat="42.4470194" lon="12.7195976"><ele>926.0000000000001</ele><time>2026-04-07T10:32:47.069Z</time></trkpt><trkpt lat="42.4470793" lon="12.7195669"><ele>926.0</ele><time>2026-04-07T10:32:48.069Z</time></trkpt><trkpt lat="42.4471475" lon="12.7195427"><ele>926.5999999999999</ele><time>2026-04-07T10:32:49.069Z</time></trkpt><trkpt lat="42.4472643" lon="12.7194905"><ele>927.1999999999999</ele><time>2026-04-07T10:32:51.068Z</time></trkpt><trkpt lat="42.4473696" lon="12.7194277"><ele>927.8000000000001</ele><time>2026-04-07T10:32:53.068Z</time></trkpt><trkpt lat="42.4474256" lon="12.7193839"><ele>928.4000000000001</ele><time>2026-04-07T10:32:54.068Z</time></trkpt><trkpt lat="42.4474878" lon="12.7193328"><ele>929.0</ele><time>2026-04-07T10:32:55.069Z</time></trkpt><trkpt lat="42.447553" lon="12.7192739"><ele>929.0000000000001</ele><time>2026-04-07T10:32:56.069Z</time></trkpt><trkpt lat="42.4476428" lon="12.7191557"><ele>929.0</ele><time>2026-04-07T10:32:58.069Z</time></trkpt><trkpt lat="42.4476883" lon="12.7190941"><ele>929.0</ele><time>2026-04-07T10:32:59.069Z</time></trkpt><trkpt lat="42.4477403" lon="12.7190297"><ele>929.0</ele><time>2026-04-07T10:33:00.069Z</time></trkpt><trkpt lat="42.4477917" lon="12.7189617"><ele>929.0000000000001</ele><time>2026-04-07T10:33:01.069Z</time></trkpt><trkpt lat="42.4478422" lon="12.7188958"><ele>929.0</ele><time>2026-04-07T10:33:02.069Z</time></trkpt><trkpt lat="42.4478907" lon="12.718836"><ele>929.1666666666667</ele><time>2026-04-07T10:33:03.069Z</time></trkpt><trkpt lat="42.4479741" lon="12.7187397"><ele>929.3333333333334</ele><time>2026-04-07T10:33:05.069Z</time></trkpt><trkpt lat="42.4480685" lon="12.7186723"><ele>929.5</ele><time>2026-04-07T10:33:07.067Z</time></trkpt><trkpt lat="42.4481291" lon="12.7186338"><ele>929.6666666666667</ele><time>2026-04-07T10:33:08.069Z</time></trkpt><trkpt lat="42.4481868" lon="12.7185874"><ele>929.8333333333334</ele><time>2026-04-07T10:33:09.068Z</time></trkpt><trkpt lat="42.4482446" lon="12.7185421"><ele>930.0</ele><time>2026-04-07T10:33:10.068Z</time></trkpt><trkpt lat="42.4483075" lon="12.7185057"><ele>930.0</ele><time>2026-04-07T10:33:11.069Z</time></trkpt><trkpt lat="42.448368" lon="12.7184708"><ele>930.0</ele><time>2026-04-07T10:33:12.068Z</time></trkpt><trkpt lat="42.4484258" lon="12.7184357"><ele>930.0</ele><time>2026-04-07T10:33:13.069Z</time></trkpt><trkpt lat="42.4485154" lon="12.7183627"><ele>930.0</ele><time>2026-04-07T10:33:15.069Z</time></trkpt><trkpt lat="42.4485694" lon="12.7182832"><ele>930.0</ele><time>2026-04-07T10:33:18.069Z</time></trkpt><trkpt lat="42.4485941" lon="12.7181906"><ele>930.0</ele><time>2026-04-07T10:33:22.069Z</time></trkpt><trkpt lat="42.4486278" lon="12.7181039"><ele>930.0</ele><time>2026-04-07T10:33:25.069Z</time></trkpt><trkpt lat="42.4486451" lon="12.7180099"><ele>930.0</ele><time>2026-04-07T10:33:28.068Z</time></trkpt><trkpt lat="42.4486707" lon="12.7179159"><ele>930.0</ele><time>2026-04-07T10:33:31.068Z</time></trkpt><trkpt lat="42.448691" lon="12.7178196"><ele>930.0</ele><time>2026-04-07T10:33:34.069Z</time></trkpt><trkpt lat="42.4487108" lon="12.7177152"><ele>930.0</ele><time>2026-04-07T10:33:37.069Z</time></trkpt><trkpt lat="42.4487323" lon="12.7175876"><ele>930.0</ele><time>2026-04-07T10:33:40.069Z</time></trkpt><trkpt lat="42.4487664" lon="12.7174683"><ele>929.0</ele><time>2026-04-07T10:33:43.068Z</time></trkpt><trkpt lat="42.4487919" lon="12.7173676"><ele>928.0</ele><time>2026-04-07T10:33:45.069Z</time></trkpt><trkpt lat="42.4488145" lon="12.7172661"><ele>927.0</ele><time>2026-04-07T10:33:47.068Z</time></trkpt><trkpt lat="42.4488327" lon="12.7171771"><ele>926.0</ele><time>2026-04-07T10:33:49.069Z</time></trkpt><trkpt lat="42.4488596" lon="12.7170571"><ele>925.0</ele><time>2026-04-07T10:33:52.069Z</time></trkpt><trkpt lat="42.4488768" lon="12.7169678"><ele>924.0</ele><time>2026-04-07T10:33:54.068Z</time></trkpt><trkpt lat="42.4488974" lon="12.7168776"><ele>924.0</ele><time>2026-04-07T10:33:56.069Z</time></trkpt><trkpt lat="42.4489192" lon="12.7167775"><ele>924.0</ele><time>2026-04-07T10:33:58.069Z</time></trkpt><trkpt lat="42.4489443" lon="12.7166705"><ele>924.0</ele><time>2026-04-07T10:34:00.069Z</time></trkpt><trkpt lat="42.4489697" lon="12.716569"><ele>924.0</ele><time>2026-04-07T10:34:02.069Z</time></trkpt><trkpt lat="42.4489965" lon="12.7164727"><ele>924.0</ele><time>2026-04-07T10:34:04.069Z</time></trkpt><trkpt lat="42.4490228" lon="12.7163733"><ele>924.0</ele><time>2026-04-07T10:34:06.069Z</time></trkpt><trkpt lat="42.4490507" lon="12.7162776"><ele>924.0</ele><time>2026-04-07T10:34:08.069Z</time></trkpt><trkpt lat="42.4490824" lon="12.7161913"><ele>924.0</ele><time>2026-04-07T10:34:10.068Z</time></trkpt><trkpt lat="42.4491162" lon="12.7161057"><ele>924.0</ele><time>2026-04-07T10:34:12.069Z</time></trkpt><trkpt lat="42.4491531" lon="12.7160305"><ele>924.0</ele><time>2026-04-07T10:34:14.068Z</time></trkpt><trkpt lat="42.4492016" lon="12.7159226"><ele>924.0</ele><time>2026-04-07T10:34:17.069Z</time></trkpt><trkpt lat="42.4492539" lon="12.7158186"><ele>924.0</ele><time>2026-04-07T10:34:20.068Z</time></trkpt><trkpt lat="42.4492979" lon="12.7157277"><ele>922.0</ele><time>2026-04-07T10:34:22.069Z</time></trkpt><trkpt lat="42.4493468" lon="12.7156302"><ele>920.0</ele><time>2026-04-07T10:34:24.068Z</time></trkpt><trkpt lat="42.4493881" lon="12.7155486"><ele>918.0</ele><time>2026-04-07T10:34:26.067Z</time></trkpt><trkpt lat="42.4494256" lon="12.7154781"><ele>916.0</ele><time>2026-04-07T10:34:28.068Z</time></trkpt><trkpt lat="42.4494407" lon="12.7153863"><ele>914.0</ele><time>2026-04-07T10:34:31.068Z</time></trkpt><trkpt lat="42.4493886" lon="12.7153077"><ele>912.0</ele><time>2026-04-07T10:34:33.068Z</time></trkpt><trkpt lat="42.4493298" lon="12.7152149"><ele>910.4000000000001</ele><time>2026-04-07T10:34:35.067Z</time></trkpt><trkpt lat="42.4492922" lon="12.7151018"><ele>908.8000000000001</ele><time>2026-04-07T10:34:37.068Z</time></trkpt><trkpt lat="42.449254" lon="12.7149549"><ele>907.2</ele><time>2026-04-07T10:34:39.067Z</time></trkpt><trkpt lat="42.4492263" lon="12.7148033"><ele>905.6</ele><time>2026-04-07T10:34:41.068Z</time></trkpt><trkpt lat="42.4491998" lon="12.714648"><ele>904.0</ele><time>2026-04-07T10:34:43.068Z</time></trkpt><trkpt lat="42.4491732" lon="12.7144919"><ele>904.0</ele><time>2026-04-07T10:34:45.067Z</time></trkpt><trkpt lat="42.4491523" lon="12.7144061"><ele>904.0000000000001</ele><time>2026-04-07T10:34:46.068Z</time></trkpt><trkpt lat="42.4491362" lon="12.71432"><ele>904.0000000000001</ele><time>2026-04-07T10:34:47.068Z</time></trkpt><trkpt lat="42.4490915" lon="12.7141738"><ele>904.0</ele><time>2026-04-07T10:34:49.068Z</time></trkpt><trkpt lat="42.4490214" lon="12.7140445"><ele>904.0</ele><time>2026-04-07T10:34:51.067Z</time></trkpt><trkpt lat="42.4489469" lon="12.7139027"><ele>904.0</ele><time>2026-04-07T10:34:53.068Z</time></trkpt><trkpt lat="42.4489072" lon="12.7138217"><ele>904.0</ele><time>2026-04-07T10:34:54.067Z</time></trkpt><trkpt lat="42.4488605" lon="12.7137454"><ele>904.0</ele><time>2026-04-07T10:34:55.068Z</time></trkpt><trkpt lat="42.4488073" lon="12.7136788"><ele>904.0</ele><time>2026-04-07T10:34:56.067Z</time></trkpt><trkpt lat="42.4487564" lon="12.7136245"><ele>904.0</ele><time>2026-04-07T10:34:57.068Z</time></trkpt><trkpt lat="42.4487045" lon="12.7135627"><ele>904.0</ele><time>2026-04-07T10:34:58.067Z</time></trkpt><trkpt lat="42.4486515" lon="12.7135027"><ele>904.0</ele><time>2026-04-07T10:34:59.068Z</time></trkpt><trkpt lat="42.4486015" lon="12.7134479"><ele>903.9999999999999</ele><time>2026-04-07T10:35:00.068Z</time></trkpt><trkpt lat="42.4485455" lon="12.713392"><ele>904.0</ele><time>2026-04-07T10:35:01.067Z</time></trkpt><trkpt lat="42.4484919" lon="12.7133467"><ele>904.0</ele><time>2026-04-07T10:35:02.068Z</time></trkpt><trkpt lat="42.4483666" lon="12.7132532"><ele>904.0</ele><time>2026-04-07T10:35:04.068Z</time></trkpt><trkpt lat="42.4482872" lon="12.7132061"><ele>903.9999999999999</ele><time>2026-04-07T10:35:05.067Z</time></trkpt><trkpt lat="42.4482103" lon="12.7131669"><ele>904.0</ele><time>2026-04-07T10:35:06.068Z</time></trkpt><trkpt lat="42.4481227" lon="12.7131375"><ele>904.0</ele><time>2026-04-07T10:35:07.068Z</time></trkpt><trkpt lat="42.4480218" lon="12.7131186"><ele>904.0000000000001</ele><time>2026-04-07T10:35:08.067Z</time></trkpt><trkpt lat="42.4479149" lon="12.7131025"><ele>904.0000000000001</ele><time>2026-04-07T10:35:09.068Z</time></trkpt><trkpt lat="42.4478165" lon="12.71309"><ele>904.0</ele><time>2026-04-07T10:35:10.068Z</time></trkpt><trkpt lat="42.4477199" lon="12.7130768"><ele>904.0</ele><time>2026-04-07T10:35:11.067Z</time></trkpt><trkpt lat="42.4476322" lon="12.7130663"><ele>903.6666666666666</ele><time>2026-04-07T10:35:12.068Z</time></trkpt><trkpt lat="42.4475568" lon="12.7130551"><ele>903.3333333333333</ele><time>2026-04-07T10:35:13.068Z</time></trkpt><trkpt lat="42.4474818" lon="12.7130472"><ele>903.0</ele><time>2026-04-07T10:35:14.068Z</time></trkpt><trkpt lat="42.4474056" lon="12.7130343"><ele>902.6666666666667</ele><time>2026-04-07T10:35:15.068Z</time></trkpt><trkpt lat="42.4473322" lon="12.7130057"><ele>902.3333333333334</ele><time>2026-04-07T10:35:16.067Z</time></trkpt><trkpt lat="42.447251" lon="12.7129654"><ele>902.0</ele><time>2026-04-07T10:35:17.067Z</time></trkpt><trkpt lat="42.4471624" lon="12.7129153"><ele>902.0000000000001</ele><time>2026-04-07T10:35:18.067Z</time></trkpt><trkpt lat="42.4470757" lon="12.7128614"><ele>902.0</ele><time>2026-04-07T10:35:19.068Z</time></trkpt><trkpt lat="42.4469901" lon="12.7128132"><ele>902.0</ele><time>2026-04-07T10:35:20.068Z</time></trkpt><trkpt lat="42.4469008" lon="12.7127702"><ele>902.0</ele><time>2026-04-07T10:35:21.068Z</time></trkpt><trkpt lat="42.4468243" lon="12.7127278"><ele>902.0000000000001</ele><time>2026-04-07T10:35:22.068Z</time></trkpt><trkpt lat="42.4467511" lon="12.7126784"><ele>902.0</ele><time>2026-04-07T10:35:23.068Z</time></trkpt><trkpt lat="42.446681" lon="12.7126283"><ele>902.3333333333334</ele><time>2026-04-07T10:35:24.068Z</time></trkpt><trkpt lat="42.4466042" lon="12.7125852"><ele>902.6666666666667</ele><time>2026-04-07T10:35:25.067Z</time></trkpt><trkpt lat="42.4465202" lon="12.7125429"><ele>903.0</ele><time>2026-04-07T10:35:26.068Z</time></trkpt><trkpt lat="42.446448" lon="12.7125165"><ele>903.3333333333333</ele><time>2026-04-07T10:35:27.068Z</time></trkpt><trkpt lat="42.4463807" lon="12.7124997"><ele>903.6666666666666</ele><time>2026-04-07T10:35:28.068Z</time></trkpt><trkpt lat="42.4462736" lon="12.7124582"><ele>904.0</ele><time>2026-04-07T10:35:30.067Z</time></trkpt><trkpt lat="42.4461588" lon="12.712377"><ele>905.0</ele><time>2026-04-07T10:35:32.068Z</time></trkpt><trkpt lat="42.4460589" lon="12.7123242"><ele>906.0000000000001</ele><time>2026-04-07T10:35:34.068Z</time></trkpt><trkpt lat="42.4459792" lon="12.7123331"><ele>907.0000000000001</ele><time>2026-04-07T10:35:36.068Z</time></trkpt><trkpt lat="42.445874" lon="12.7124145"><ele>908.0</ele><time>2026-04-07T10:35:38.068Z</time></trkpt><trkpt lat="42.4458144" lon="12.7124475"><ele>909.0</ele><time>2026-04-07T10:35:39.067Z</time></trkpt><trkpt lat="42.4457412" lon="12.7124872"><ele>909.0</ele><time>2026-04-07T10:35:40.068Z</time></trkpt><trkpt lat="42.445673" lon="12.7125299"><ele>909.0</ele><time>2026-04-07T10:35:41.067Z</time></trkpt><trkpt lat="42.4455963" lon="12.7125985"><ele>909.0</ele><time>2026-04-07T10:35:42.068Z</time></trkpt><trkpt lat="42.4455275" lon="12.7126642"><ele>909.0</ele><time>2026-04-07T10:35:43.067Z</time></trkpt><trkpt lat="42.4454634" lon="12.7127201"><ele>909.0</ele><time>2026-04-07T10:35:44.068Z</time></trkpt><trkpt lat="42.4453979" lon="12.7127824"><ele>909.0</ele><time>2026-04-07T10:35:45.068Z</time></trkpt><trkpt lat="42.445325" lon="12.7128293"><ele>908.6666666666666</ele><time>2026-04-07T10:35:46.068Z</time></trkpt><trkpt lat="42.4452393" lon="12.712875"><ele>908.3333333333333</ele><time>2026-04-07T10:35:47.067Z</time></trkpt><trkpt lat="42.4451527" lon="12.7129173"><ele>908.0</ele><time>2026-04-07T10:35:48.067Z</time></trkpt><trkpt lat="42.4450721" lon="12.7129574"><ele>907.6666666666666</ele><time>2026-04-07T10:35:49.068Z</time></trkpt><trkpt lat="42.444991" lon="12.7129952"><ele>907.3333333333333</ele><time>2026-04-07T10:35:50.068Z</time></trkpt><trkpt lat="42.4449192" lon="12.7130297"><ele>907.0</ele><time>2026-04-07T10:35:51.067Z</time></trkpt><trkpt lat="42.4448492" lon="12.7130619"><ele>906.9999999999999</ele><time>2026-04-07T10:35:52.068Z</time></trkpt><trkpt lat="42.4447755" lon="12.7130957"><ele>907.0</ele><time>2026-04-07T10:35:53.068Z</time></trkpt><trkpt lat="42.444695" lon="12.713123"><ele>907.0</ele><time>2026-04-07T10:35:54.068Z</time></trkpt><trkpt lat="42.4446156" lon="12.7131485"><ele>907.0</ele><time>2026-04-07T10:35:55.067Z</time></trkpt><trkpt lat="42.4445312" lon="12.7131683"><ele>906.9999999999999</ele><time>2026-04-07T10:35:56.068Z</time></trkpt><trkpt lat="42.4444457" lon="12.7131757"><ele>907.0</ele><time>2026-04-07T10:35:57.068Z</time></trkpt><trkpt lat="42.4443556" lon="12.7131839"><ele>907.6</ele><time>2026-04-07T10:35:58.067Z</time></trkpt><trkpt lat="42.4442645" lon="12.7131937"><ele>908.2</ele><time>2026-04-07T10:35:59.068Z</time></trkpt><trkpt lat="42.4441595" lon="12.7131912"><ele>908.8</ele><time>2026-04-07T10:36:00.068Z</time></trkpt><trkpt lat="42.4440601" lon="12.7132008"><ele>909.4</ele><time>2026-04-07T10:36:01.068Z</time></trkpt><trkpt lat="42.4439721" lon="12.7132112"><ele>910.0</ele><time>2026-04-07T10:36:02.067Z</time></trkpt><trkpt lat="42.4438892" lon="12.7132253"><ele>909.9999999999999</ele><time>2026-04-07T10:36:03.068Z</time></trkpt><trkpt lat="42.4438148" lon="12.713235"><ele>910.0</ele><time>2026-04-07T10:36:04.068Z</time></trkpt><trkpt lat="42.443752" lon="12.7132478"><ele>910.0</ele><time>2026-04-07T10:36:05.068Z</time></trkpt><trkpt lat="42.4436506" lon="12.713267"><ele>910.0</ele><time>2026-04-07T10:36:07.068Z</time></trkpt><trkpt lat="42.4435748" lon="12.7132787"><ele>909.9999999999999</ele><time>2026-04-07T10:36:09.068Z</time></trkpt><trkpt lat="42.4434896" lon="12.7132877"><ele>910.0</ele><time>2026-04-07T10:36:11.067Z</time></trkpt><trkpt lat="42.4433787" lon="12.7132932"><ele>909.75</ele><time>2026-04-07T10:36:13.068Z</time></trkpt><trkpt lat="42.4432667" lon="12.7132944"><ele>909.5</ele><time>2026-04-07T10:36:15.068Z</time></trkpt><trkpt lat="42.4431402" lon="12.7132894"><ele>909.25</ele><time>2026-04-07T10:36:17.068Z</time></trkpt><trkpt lat="42.4430247" lon="12.7132687"><ele>909.0</ele><time>2026-04-07T10:36:19.067Z</time></trkpt><trkpt lat="42.4429208" lon="12.7132517"><ele>909.0</ele><time>2026-04-07T10:36:21.068Z</time></trkpt><trkpt lat="42.4428037" lon="12.7132102"><ele>909.0</ele><time>2026-04-07T10:36:23.068Z</time></trkpt><trkpt lat="42.4426797" lon="12.7131699"><ele>909.0</ele><time>2026-04-07T10:36:25.068Z</time></trkpt><trkpt lat="42.4425564" lon="12.7131708"><ele>909.0</ele><time>2026-04-07T10:36:27.068Z</time></trkpt><trkpt lat="42.4424601" lon="12.713181"><ele>909.0</ele><time>2026-04-07T10:36:29.068Z</time></trkpt><trkpt lat="42.442378" lon="12.7131923"><ele>909.0</ele><time>2026-04-07T10:36:31.068Z</time></trkpt><trkpt lat="42.4423096" lon="12.7132081"><ele>909.0</ele><time>2026-04-07T10:36:33.068Z</time></trkpt><trkpt lat="42.4422451" lon="12.7132077"><ele>909.0</ele><time>2026-04-07T10:36:35.068Z</time></trkpt><trkpt lat="42.4421723" lon="12.7131953"><ele>909.0</ele><time>2026-04-07T10:36:37.068Z</time></trkpt><trkpt lat="42.4421066" lon="12.7131562"><ele>909.0</ele><time>2026-04-07T10:36:39.068Z</time></trkpt><trkpt lat="42.4420457" lon="12.7131067"><ele>909.0</ele><time>2026-04-07T10:36:41.068Z</time></trkpt><trkpt lat="42.4419827" lon="12.7130561"><ele>909.2857142857142</ele><time>2026-04-07T10:36:43.068Z</time></trkpt><trkpt lat="42.4419206" lon="12.7130057"><ele>909.5714285714287</ele><time>2026-04-07T10:36:45.067Z</time></trkpt><trkpt lat="42.4418653" lon="12.7129476"><ele>909.8571428571429</ele><time>2026-04-07T10:36:47.067Z</time></trkpt><trkpt lat="42.4418107" lon="12.7128926"><ele>910.1428571428571</ele><time>2026-04-07T10:36:49.068Z</time></trkpt><trkpt lat="42.4417594" lon="12.7128314"><ele>910.4285714285713</ele><time>2026-04-07T10:36:51.068Z</time></trkpt><trkpt lat="42.4417084" lon="12.7127721"><ele>910.7142857142858</ele><time>2026-04-07T10:36:53.068Z</time></trkpt><trkpt lat="42.4416425" lon="12.7127171"><ele>911.0</ele><time>2026-04-07T10:36:55.067Z</time></trkpt><trkpt lat="42.4415711" lon="12.7126621"><ele>911.0000000000001</ele><time>2026-04-07T10:36:57.068Z</time></trkpt><trkpt lat="42.4415103" lon="12.7126197"><ele>911.0</ele><time>2026-04-07T10:36:59.068Z</time></trkpt><trkpt lat="42.4414282" lon="12.7125576"><ele>911.0</ele><time>2026-04-07T10:37:02.068Z</time></trkpt><trkpt lat="42.4413677" lon="12.712499"><ele>911.0</ele><time>2026-04-07T10:37:04.067Z</time></trkpt><trkpt lat="42.4412962" lon="12.7124389"><ele>911.0000000000001</ele><time>2026-04-07T10:37:06.067Z</time></trkpt><trkpt lat="42.441193" lon="12.712364"><ele>911.0</ele><time>2026-04-07T10:37:08.067Z</time></trkpt><trkpt lat="42.4410816" lon="12.7122949"><ele>909.4</ele><time>2026-04-07T10:37:10.066Z</time></trkpt><trkpt lat="42.4409895" lon="12.7122246"><ele>907.8</ele><time>2026-04-07T10:37:12.067Z</time></trkpt><trkpt lat="42.4408992" lon="12.7121524"><ele>906.1999999999999</ele><time>2026-04-07T10:37:14.067Z</time></trkpt><trkpt lat="42.440822" lon="12.7120743"><ele>904.5999999999999</ele><time>2026-04-07T10:37:16.067Z</time></trkpt><trkpt lat="42.4407443" lon="12.7119991"><ele>903.0</ele><time>2026-04-07T10:37:18.067Z</time></trkpt><trkpt lat="42.4406702" lon="12.7119035"><ele>903.0</ele><time>2026-04-07T10:37:20.066Z</time></trkpt><trkpt lat="42.4406001" lon="12.7118166"><ele>903.0</ele><time>2026-04-07T10:37:22.066Z</time></trkpt><trkpt lat="42.440483" lon="12.7117501"><ele>903.0</ele><time>2026-04-07T10:37:24.067Z</time></trkpt><trkpt lat="42.4404176" lon="12.7117289"><ele>903.0</ele><time>2026-04-07T10:37:25.067Z</time></trkpt><trkpt lat="42.4403491" lon="12.7116808"><ele>903.0</ele><time>2026-04-07T10:37:26.066Z</time></trkpt><trkpt lat="42.4402705" lon="12.71163"><ele>901.0</ele><time>2026-04-07T10:37:27.066Z</time></trkpt><trkpt lat="42.4401912" lon="12.7115819"><ele>899.0</ele><time>2026-04-07T10:37:28.067Z</time></trkpt><trkpt lat="42.4401178" lon="12.7115299"><ele>897.0</ele><time>2026-04-07T10:37:29.066Z</time></trkpt><trkpt lat="42.4400499" lon="12.7114808"><ele>895.0</ele><time>2026-04-07T10:37:30.067Z</time></trkpt><trkpt lat="42.4399792" lon="12.7114369"><ele>893.0</ele><time>2026-04-07T10:37:31.067Z</time></trkpt><trkpt lat="42.4399155" lon="12.7114031"><ele>891.0</ele><time>2026-04-07T10:37:32.067Z</time></trkpt><trkpt lat="42.4397956" lon="12.7113261"><ele>891.0</ele><time>2026-04-07T10:37:34.066Z</time></trkpt><trkpt lat="42.4397396" lon="12.7112852"><ele>890.9999999999999</ele><time>2026-04-07T10:37:35.066Z</time></trkpt><trkpt lat="42.4396391" lon="12.7112164"><ele>890.9999999999999</ele><time>2026-04-07T10:37:37.066Z</time></trkpt><trkpt lat="42.4395335" lon="12.7111565"><ele>891.0</ele><time>2026-04-07T10:37:39.067Z</time></trkpt><trkpt lat="42.4394777" lon="12.7111157"><ele>891.0</ele><time>2026-04-07T10:37:40.066Z</time></trkpt><trkpt lat="42.4393798" lon="12.7110362"><ele>890.1999999999999</ele><time>2026-04-07T10:37:42.067Z</time></trkpt><trkpt lat="42.4392961" lon="12.7109525"><ele>889.3999999999999</ele><time>2026-04-07T10:37:44.067Z</time></trkpt><trkpt lat="42.4392193" lon="12.7108655"><ele>888.6</ele><time>2026-04-07T10:37:46.066Z</time></trkpt><trkpt lat="42.4391411" lon="12.7107861"><ele>887.8</ele><time>2026-04-07T10:37:48.066Z</time></trkpt><trkpt lat="42.4390627" lon="12.710746"><ele>887.0</ele><time>2026-04-07T10:37:50.067Z</time></trkpt><trkpt lat="42.4389969" lon="12.7107719"><ele>887.0000000000001</ele><time>2026-04-07T10:37:52.067Z</time></trkpt><trkpt lat="42.4390406" lon="12.7109335"><ele>887.0</ele><time>2026-04-07T10:39:07.067Z</time></trkpt><trkpt lat="42.4390626" lon="12.7110199"><ele>887.0</ele><time>2026-04-07T10:39:08.067Z</time></trkpt><trkpt lat="42.4390827" lon="12.7111095"><ele>887.0</ele><time>2026-04-07T10:39:09.067Z</time></trkpt><trkpt lat="42.4390869" lon="12.7112018"><ele>887.0000000000001</ele><time>2026-04-07T10:39:10.067Z</time></trkpt><trkpt lat="42.439087" lon="12.7112933"><ele>887.0</ele><time>2026-04-07T10:39:11.066Z</time></trkpt><trkpt lat="42.4390803" lon="12.7113854"><ele>886.8333333333334</ele><time>2026-04-07T10:39:12.067Z</time></trkpt><trkpt lat="42.4390531" lon="12.7114884"><ele>886.6666666666667</ele><time>2026-04-07T10:39:13.067Z</time></trkpt><trkpt lat="42.4390187" lon="12.7115979"><ele>886.5</ele><time>2026-04-07T10:39:14.066Z</time></trkpt><trkpt lat="42.4389856" lon="12.7116933"><ele>886.3333333333333</ele><time>2026-04-07T10:39:15.067Z</time></trkpt><trkpt lat="42.4389457" lon="12.7117774"><ele>886.1666666666666</ele><time>2026-04-07T10:39:16.067Z</time></trkpt><trkpt lat="42.4389068" lon="12.7118506"><ele>886.0</ele><time>2026-04-07T10:39:17.067Z</time></trkpt><trkpt lat="42.4388557" lon="12.7120004"><ele>885.9999999999999</ele><time>2026-04-07T10:39:19.066Z</time></trkpt><trkpt lat="42.4388557" lon="12.7121748"><ele>886.0</ele><time>2026-04-07T10:39:21.067Z</time></trkpt><trkpt lat="42.4388725" lon="12.7122762"><ele>886.0</ele><time>2026-04-07T10:39:22.067Z</time></trkpt><trkpt lat="42.4388895" lon="12.7123813"><ele>886.0</ele><time>2026-04-07T10:39:23.066Z</time></trkpt><trkpt lat="42.4389033" lon="12.7124849"><ele>885.9999999999999</ele><time>2026-04-07T10:39:24.067Z</time></trkpt><trkpt lat="42.4389139" lon="12.7125827"><ele>886.0</ele><time>2026-04-07T10:39:25.066Z</time></trkpt><trkpt lat="42.438931" lon="12.7126726"><ele>887.1999999999999</ele><time>2026-04-07T10:39:26.067Z</time></trkpt><trkpt lat="42.4389825" lon="12.7128071"><ele>888.3999999999999</ele><time>2026-04-07T10:39:28.067Z</time></trkpt><trkpt lat="42.4390667" lon="12.7129137"><ele>889.6</ele><time>2026-04-07T10:39:30.066Z</time></trkpt><trkpt lat="42.4391138" lon="12.713019"><ele>890.8</ele><time>2026-04-07T10:39:32.067Z</time></trkpt><trkpt lat="42.4391439" lon="12.7131466"><ele>892.0</ele><time>2026-04-07T10:39:34.066Z</time></trkpt><trkpt lat="42.4391623" lon="12.7132872"><ele>892.0</ele><time>2026-04-07T10:39:36.067Z</time></trkpt><trkpt lat="42.439188" lon="12.713404"><ele>892.0</ele><time>2026-04-07T10:39:38.067Z</time></trkpt><trkpt lat="42.4392322" lon="12.713513"><ele>892.0</ele><time>2026-04-07T10:39:40.067Z</time></trkpt><trkpt lat="42.4392851" lon="12.7136292"><ele>892.0</ele><time>2026-04-07T10:39:42.067Z</time></trkpt><trkpt lat="42.4393149" lon="12.7137767"><ele>892.0</ele><time>2026-04-07T10:39:44.066Z</time></trkpt><trkpt lat="42.4393252" lon="12.7138703"><ele>892.8571428571429</ele><time>2026-04-07T10:39:45.066Z</time></trkpt><trkpt lat="42.43934" lon="12.7139562"><ele>893.7142857142857</ele><time>2026-04-07T10:39:46.066Z</time></trkpt><trkpt lat="42.4393559" lon="12.7140517"><ele>894.5714285714286</ele><time>2026-04-07T10:39:47.065Z</time></trkpt><trkpt lat="42.4393667" lon="12.7141434"><ele>895.4285714285713</ele><time>2026-04-07T10:39:48.066Z</time></trkpt><trkpt lat="42.4393764" lon="12.7142353"><ele>896.2857142857142</ele><time>2026-04-07T10:39:49.065Z</time></trkpt><trkpt lat="42.4393835" lon="12.7143254"><ele>897.1428571428571</ele><time>2026-04-07T10:39:50.066Z</time></trkpt><trkpt lat="42.4393881" lon="12.7144153"><ele>898.0</ele><time>2026-04-07T10:39:51.066Z</time></trkpt><trkpt lat="42.4393986" lon="12.714507"><ele>899.0</ele><time>2026-04-07T10:39:52.066Z</time></trkpt><trkpt lat="42.4394502" lon="12.7146583"><ele>900.0</ele><time>2026-04-07T10:39:54.066Z</time></trkpt><trkpt lat="42.4395155" lon="12.7148149"><ele>901.0</ele><time>2026-04-07T10:39:56.065Z</time></trkpt><trkpt lat="42.4395441" lon="12.7148945"><ele>902.0</ele><time>2026-04-07T10:39:57.066Z</time></trkpt><trkpt lat="42.4395676" lon="12.7149803"><ele>903.0</ele><time>2026-04-07T10:39:58.065Z</time></trkpt><trkpt lat="42.439587" lon="12.7150674"><ele>902.0</ele><time>2026-04-07T10:39:59.066Z</time></trkpt><trkpt lat="42.4396516" lon="12.7152057"><ele>901.0</ele><time>2026-04-07T10:40:01.066Z</time></trkpt><trkpt lat="42.4397128" lon="12.7152839"><ele>900.0</ele><time>2026-04-07T10:40:03.064Z</time></trkpt><trkpt lat="42.4398149" lon="12.715432"><ele>899.0</ele><time>2026-04-07T10:41:02.066Z</time></trkpt><trkpt lat="42.439871" lon="12.7155573"><ele>900.5000000000001</ele><time>2026-04-07T10:41:04.066Z</time></trkpt><trkpt lat="42.4399055" lon="12.7156294"><ele>902.0</ele><time>2026-04-07T10:41:05.065Z</time></trkpt><trkpt lat="42.4399572" lon="12.715739"><ele>903.5</ele><time>2026-04-07T10:41:07.065Z</time></trkpt><trkpt lat="42.4399804" lon="12.7158493"><ele>905.0</ele><time>2026-04-07T10:41:09.066Z</time></trkpt><trkpt lat="42.4399918" lon="12.7159354"><ele>906.5000000000001</ele><time>2026-04-07T10:41:10.066Z</time></trkpt><trkpt lat="42.4400056" lon="12.716082"><ele>908.0</ele><time>2026-04-07T10:41:12.066Z</time></trkpt><trkpt lat="42.4399981" lon="12.7161746"><ele>909.0</ele><time>2026-04-07T10:41:13.066Z</time></trkpt><trkpt lat="42.4399681" lon="12.7163359"><ele>910.0</ele><time>2026-04-07T10:41:15.066Z</time></trkpt><trkpt lat="42.4399399" lon="12.7164837"><ele>911.0</ele><time>2026-04-07T10:41:17.066Z</time></trkpt><trkpt lat="42.4398935" lon="12.7166185"><ele>912.0</ele><time>2026-04-07T10:41:19.066Z</time></trkpt><trkpt lat="42.439862" lon="12.716765"><ele>913.0</ele><time>2026-04-07T10:41:21.066Z</time></trkpt><trkpt lat="42.4398531" lon="12.7169253"><ele>914.0</ele><time>2026-04-07T10:41:23.066Z</time></trkpt><trkpt lat="42.439852" lon="12.717013"><ele>915.0</ele><time>2026-04-07T10:41:24.066Z</time></trkpt><trkpt lat="42.439849" lon="12.7171739"><ele>916.0</ele><time>2026-04-07T10:41:26.065Z</time></trkpt><trkpt lat="42.4398355" lon="12.717302"><ele>917.0</ele><time>2026-04-07T10:41:28.066Z</time></trkpt><trkpt lat="42.4398278" lon="12.7173929"><ele>917.0</ele><time>2026-04-07T10:41:30.065Z</time></trkpt><trkpt lat="42.4398871" lon="12.7174574"><ele>917.0</ele><time>2026-04-07T10:41:33.066Z</time></trkpt><trkpt lat="42.439963" lon="12.7174553"><ele>917.0</ele><time>2026-04-07T10:41:35.066Z</time></trkpt><trkpt lat="42.4400713" lon="12.7174492"><ele>917.0</ele><time>2026-04-07T10:41:37.066Z</time></trkpt><trkpt lat="42.440176" lon="12.7174768"><ele>917.0</ele><time>2026-04-07T10:41:39.066Z</time></trkpt><trkpt lat="42.4402825" lon="12.7175425"><ele>917.0</ele><time>2026-04-07T10:41:41.066Z</time></trkpt><trkpt lat="42.4403373" lon="12.7175852"><ele>917.0</ele><time>2026-04-07T10:41:42.066Z</time></trkpt><trkpt lat="42.4404342" lon="12.7176474"><ele>917.0</ele><time>2026-04-07T10:41:44.066Z</time></trkpt><trkpt lat="42.4405285" lon="12.7177341"><ele>917.0</ele><time>2026-04-07T10:41:46.066Z</time></trkpt><trkpt lat="42.4405804" lon="12.7177932"><ele>917.0</ele><time>2026-04-07T10:41:47.066Z</time></trkpt><trkpt lat="42.4406729" lon="12.7179025"><ele>919.4285714285714</ele><time>2026-04-07T10:41:49.065Z</time></trkpt><trkpt lat="42.4407227" lon="12.7179558"><ele>921.8571428571429</ele><time>2026-04-07T10:41:50.065Z</time></trkpt><trkpt lat="42.4407766" lon="12.7180039"><ele>924.2857142857142</ele><time>2026-04-07T10:41:51.066Z</time></trkpt><trkpt lat="42.4408319" lon="12.7180555"><ele>926.7142857142857</ele><time>2026-04-07T10:41:52.066Z</time></trkpt><trkpt lat="42.4408838" lon="12.7181075"><ele>929.1428571428571</ele><time>2026-04-07T10:41:53.066Z</time></trkpt><trkpt lat="42.4409342" lon="12.7181628"><ele>931.5714285714284</ele><time>2026-04-07T10:41:54.065Z</time></trkpt><trkpt lat="42.440984" lon="12.7182308"><ele>933.9999999999999</ele><time>2026-04-07T10:41:55.065Z</time></trkpt><trkpt lat="42.4410362" lon="12.7183033"><ele>933.9999999999999</ele><time>2026-04-07T10:41:56.066Z</time></trkpt><trkpt lat="42.4410894" lon="12.7183681"><ele>934.0</ele><time>2026-04-07T10:41:57.066Z</time></trkpt><trkpt lat="42.4411471" lon="12.7184451"><ele>934.0</ele><time>2026-04-07T10:41:58.066Z</time></trkpt><trkpt lat="42.4412159" lon="12.7185133"><ele>934.0</ele><time>2026-04-07T10:41:59.065Z</time></trkpt><trkpt lat="42.441286" lon="12.7185696"><ele>933.9999999999999</ele><time>2026-04-07T10:42:00.066Z</time></trkpt><trkpt lat="42.4413582" lon="12.71862"><ele>934.0</ele><time>2026-04-07T10:42:01.066Z</time></trkpt><trkpt lat="42.4414327" lon="12.7186591"><ele>936.4000000000001</ele><time>2026-04-07T10:42:02.065Z</time></trkpt><trkpt lat="42.4414964" lon="12.7186891"><ele>938.8000000000001</ele><time>2026-04-07T10:42:03.065Z</time></trkpt><trkpt lat="42.4415979" lon="12.7187405"><ele>941.1999999999999</ele><time>2026-04-07T10:42:05.065Z</time></trkpt><trkpt lat="42.4417041" lon="12.7188406"><ele>943.5999999999999</ele><time>2026-04-07T10:42:07.066Z</time></trkpt><trkpt lat="42.4417599" lon="12.7189051"><ele>946.0</ele><time>2026-04-07T10:42:08.066Z</time></trkpt><trkpt lat="42.4418144" lon="12.7189788"><ele>945.9999999999999</ele><time>2026-04-07T10:42:09.066Z</time></trkpt><trkpt lat="42.4418714" lon="12.7190578"><ele>946.0</ele><time>2026-04-07T10:42:10.066Z</time></trkpt><trkpt lat="42.4419301" lon="12.7191252"><ele>946.0</ele><time>2026-04-07T10:42:11.065Z</time></trkpt><trkpt lat="42.4419848" lon="12.7191797"><ele>946.0</ele><time>2026-04-07T10:42:12.065Z</time></trkpt><trkpt lat="42.4420799" lon="12.71925"><ele>945.9999999999999</ele><time>2026-04-07T10:42:14.064Z</time></trkpt><trkpt lat="42.4421846" lon="12.7192944"><ele>946.0</ele><time>2026-04-07T10:42:16.066Z</time></trkpt><trkpt lat="42.44225" lon="12.7193135"><ele>947.1999999999999</ele><time>2026-04-07T10:42:17.065Z</time></trkpt><trkpt lat="42.4423691" lon="12.7193426"><ele>948.3999999999999</ele><time>2026-04-07T10:42:19.066Z</time></trkpt><trkpt lat="42.442476" lon="12.719392"><ele>949.6</ele><time>2026-04-07T10:42:21.065Z</time></trkpt><trkpt lat="42.442592" lon="12.719465"><ele>950.8</ele><time>2026-04-07T10:42:23.065Z</time></trkpt><trkpt lat="42.442649" lon="12.7195177"><ele>952.0</ele><time>2026-04-07T10:42:24.065Z</time></trkpt><trkpt lat="42.4427121" lon="12.7195732"><ele>951.9999999999999</ele><time>2026-04-07T10:42:25.065Z</time></trkpt><trkpt lat="42.442781" lon="12.7196352"><ele>952.0</ele><time>2026-04-07T10:42:26.065Z</time></trkpt><trkpt lat="42.4428531" lon="12.7196897"><ele>952.0</ele><time>2026-04-07T10:42:27.065Z</time></trkpt><trkpt lat="42.4429225" lon="12.7197257"><ele>952.0</ele><time>2026-04-07T10:42:28.064Z</time></trkpt><trkpt lat="42.4429923" lon="12.7197625"><ele>951.9999999999999</ele><time>2026-04-07T10:42:29.064Z</time></trkpt><trkpt lat="42.443061" lon="12.7197965"><ele>952.0</ele><time>2026-04-07T10:42:30.064Z</time></trkpt><trkpt lat="42.4431274" lon="12.7198302"><ele>949.8333333333333</ele><time>2026-04-07T10:42:31.065Z</time></trkpt><trkpt lat="42.4431984" lon="12.7198656"><ele>947.6666666666666</ele><time>2026-04-07T10:42:32.064Z</time></trkpt><trkpt lat="42.4432723" lon="12.7198987"><ele>945.5</ele><time>2026-04-07T10:42:33.065Z</time></trkpt><trkpt lat="42.4433483" lon="12.7199295"><ele>943.3333333333333</ele><time>2026-04-07T10:42:34.065Z</time></trkpt><trkpt lat="42.4434282" lon="12.7199523"><ele>941.1666666666666</ele><time>2026-04-07T10:42:35.065Z</time></trkpt><trkpt lat="42.4435093" lon="12.7199776"><ele>939.0</ele><time>2026-04-07T10:42:36.065Z</time></trkpt><trkpt lat="42.443588" lon="12.7199961"><ele>939.0</ele><time>2026-04-07T10:42:37.064Z</time></trkpt><trkpt lat="42.4436554" lon="12.7199976"><ele>939.0</ele><time>2026-04-07T10:42:38.064Z</time></trkpt><trkpt lat="42.4437718" lon="12.7200362"><ele>939.0</ele><time>2026-04-07T10:42:40.065Z</time></trkpt><trkpt lat="42.443839" lon="12.7200587"><ele>939.0</ele><time>2026-04-07T10:42:41.064Z</time></trkpt><trkpt lat="42.4439046" lon="12.7200936"><ele>939.0</ele><time>2026-04-07T10:42:42.065Z</time></trkpt><trkpt lat="42.4439708" lon="12.7201239"><ele>939.0</ele><time>2026-04-07T10:42:43.065Z</time></trkpt><trkpt lat="42.4440795" lon="12.7201545"><ele>938.1666666666666</ele><time>2026-04-07T10:42:45.064Z</time></trkpt><trkpt lat="42.4441601" lon="12.7201764"><ele>937.3333333333333</ele><time>2026-04-07T10:42:47.065Z</time></trkpt><trkpt lat="42.4442374" lon="12.7202029"><ele>936.5</ele><time>2026-04-07T10:42:49.065Z</time></trkpt><trkpt lat="42.4443049" lon="12.7202259"><ele>935.6666666666666</ele><time>2026-04-07T10:42:51.065Z</time></trkpt><trkpt lat="42.4443736" lon="12.72026"><ele>934.8333333333333</ele><time>2026-04-07T10:42:53.064Z</time></trkpt><trkpt lat="42.444447" lon="12.7203415"><ele>934.0</ele><time>2026-04-07T10:42:56.065Z</time></trkpt><trkpt lat="42.4445228" lon="12.7204342"><ele>936.0</ele><time>2026-04-07T10:42:58.065Z</time></trkpt><trkpt lat="42.4445996" lon="12.7205421"><ele>938.0</ele><time>2026-04-07T10:43:00.064Z</time></trkpt><trkpt lat="42.4446777" lon="12.7206602"><ele>940.0</ele><time>2026-04-07T10:43:02.065Z</time></trkpt><trkpt lat="42.4447547" lon="12.7207794"><ele>942.0</ele><time>2026-04-07T10:43:04.065Z</time></trkpt><trkpt lat="42.4448288" lon="12.7208834"><ele>942.0</ele><time>2026-04-07T10:43:06.065Z</time></trkpt><trkpt lat="42.444909" lon="12.7209685"><ele>942.0</ele><time>2026-04-07T10:43:08.065Z</time></trkpt><trkpt lat="42.4450084" lon="12.7210031"><ele>942.0</ele><time>2026-04-07T10:43:10.064Z</time></trkpt><trkpt lat="42.4451123" lon="12.7210224"><ele>942.0</ele><time>2026-04-07T10:43:12.064Z</time></trkpt><trkpt lat="42.4452183" lon="12.7210086"><ele>942.0</ele><time>2026-04-07T10:43:14.065Z</time></trkpt><trkpt lat="42.4453078" lon="12.7209772"><ele>942.0</ele><time>2026-04-07T10:43:16.065Z</time></trkpt><trkpt lat="42.4454022" lon="12.720936"><ele>942.0</ele><time>2026-04-07T10:43:18.065Z</time></trkpt><trkpt lat="42.4454789" lon="12.7208493"><ele>942.0</ele><time>2026-04-07T10:43:20.065Z</time></trkpt><trkpt lat="42.4455185" lon="12.7207816"><ele>942.0</ele><time>2026-04-07T10:43:21.065Z</time></trkpt><trkpt lat="42.4456031" lon="12.7206783"><ele>942.0</ele><time>2026-04-07T10:43:23.065Z</time></trkpt><trkpt lat="42.445668" lon="12.7206205"><ele>941.0</ele><time>2026-04-07T10:43:25.065Z</time></trkpt><trkpt lat="42.4457585" lon="12.7206207"><ele>940.0</ele><time>2026-04-07T10:43:27.064Z</time></trkpt><trkpt lat="42.4458476" lon="12.7206292"><ele>939.0</ele><time>2026-04-07T10:43:29.065Z</time></trkpt><trkpt lat="42.4459215" lon="12.7206784"><ele>938.0</ele><time>2026-04-07T10:43:31.065Z</time></trkpt><trkpt lat="42.4459708" lon="12.7207439"><ele>937.0</ele><time>2026-04-07T10:43:34.065Z</time></trkpt><trkpt lat="42.446015" lon="12.7208114"><ele>936.0</ele><time>2026-04-07T10:43:37.065Z</time></trkpt><trkpt lat="42.4460887" lon="12.7208412"><ele>936.0</ele><time>2026-04-07T10:43:40.065Z</time></trkpt><trkpt lat="42.4461423" lon="12.7207846"><ele>935.9999999999999</ele><time>2026-04-07T10:43:42.064Z</time></trkpt><trkpt lat="42.4461887" lon="12.7206529"><ele>935.9999999999999</ele><time>2026-04-07T10:43:44.065Z</time></trkpt><trkpt lat="42.4462254" lon="12.7205041"><ele>936.0</ele><time>2026-04-07T10:43:46.065Z</time></trkpt><trkpt lat="42.4462873" lon="12.7203774"><ele>936.0</ele><time>2026-04-07T10:43:48.065Z</time></trkpt><trkpt lat="42.4463478" lon="12.7202365"><ele>933.5</ele><time>2026-04-07T10:43:50.065Z</time></trkpt><trkpt lat="42.4464165" lon="12.7201032"><ele>931.0</ele><time>2026-04-07T10:43:52.065Z</time></trkpt><trkpt lat="42.4465004" lon="12.720009"><ele>928.5</ele><time>2026-04-07T10:43:54.063Z</time></trkpt><trkpt lat="42.4465878" lon="12.7199379"><ele>926.0</ele><time>2026-04-07T10:43:56.065Z</time></trkpt><trkpt lat="42.4467011" lon="12.7198594"><ele>926.0000000000001</ele><time>2026-04-07T10:43:58.065Z</time></trkpt><trkpt lat="42.4468025" lon="12.719773"><ele>926.0</ele><time>2026-04-07T10:44:00.065Z</time></trkpt><trkpt lat="42.446856" lon="12.7197182"><ele>926.0</ele><time>2026-04-07T10:44:01.065Z</time></trkpt><trkpt lat="42.4469135" lon="12.7196692"><ele>926.0</ele><time>2026-04-07T10:44:02.065Z</time></trkpt><trkpt lat="42.4469706" lon="12.7196247"><ele>926.0000000000001</ele><time>2026-04-07T10:44:03.065Z</time></trkpt><trkpt lat="42.4470286" lon="12.7195899"><ele>926.0</ele><time>2026-04-07T10:44:04.065Z</time></trkpt><trkpt lat="42.4471454" lon="12.7195316"><ele>926.5000000000001</ele><time>2026-04-07T10:44:06.065Z</time></trkpt><trkpt lat="42.4472104" lon="12.7195063"><ele>927.0</ele><time>2026-04-07T10:44:07.065Z</time></trkpt><trkpt lat="42.4472779" lon="12.7194764"><ele>927.5</ele><time>2026-04-07T10:44:08.065Z</time></trkpt><trkpt lat="42.4473956" lon="12.7194119"><ele>928.0</ele><time>2026-04-07T10:44:10.065Z</time></trkpt><trkpt lat="42.4474692" lon="12.7193628"><ele>928.5000000000001</ele><time>2026-04-07T10:44:11.065Z</time></trkpt><trkpt lat="42.44752" lon="12.7193075"><ele>929.0</ele><time>2026-04-07T10:44:12.065Z</time></trkpt><trkpt lat="42.447581" lon="12.7192446"><ele>929.0000000000001</ele><time>2026-04-07T10:44:13.065Z</time></trkpt><trkpt lat="42.4476424" lon="12.7191676"><ele>929.0</ele><time>2026-04-07T10:44:14.065Z</time></trkpt><trkpt lat="42.4477055" lon="12.7190881"><ele>929.0</ele><time>2026-04-07T10:44:15.064Z</time></trkpt><trkpt lat="42.4477684" lon="12.7190096"><ele>929.0</ele><time>2026-04-07T10:44:16.065Z</time></trkpt><trkpt lat="42.4478284" lon="12.718934"><ele>929.0000000000001</ele><time>2026-04-07T10:44:17.065Z</time></trkpt><trkpt lat="42.4478815" lon="12.7188655"><ele>929.0</ele><time>2026-04-07T10:44:18.065Z</time></trkpt><trkpt lat="42.4479306" lon="12.718804"><ele>929.2</ele><time>2026-04-07T10:44:19.064Z</time></trkpt><trkpt lat="42.4480203" lon="12.7187124"><ele>929.4000000000001</ele><time>2026-04-07T10:44:21.065Z</time></trkpt><trkpt lat="42.4481184" lon="12.7186451"><ele>929.6</ele><time>2026-04-07T10:44:23.065Z</time></trkpt><trkpt lat="42.4481817" lon="12.7186006"><ele>929.8</ele><time>2026-04-07T10:44:24.064Z</time></trkpt><trkpt lat="42.4482564" lon="12.7185488"><ele>930.0</ele><time>2026-04-07T10:44:25.065Z</time></trkpt><trkpt lat="42.4483274" lon="12.7185001"><ele>930.0</ele><time>2026-04-07T10:44:26.065Z</time></trkpt><trkpt lat="42.448394" lon="12.718467"><ele>930.0</ele><time>2026-04-07T10:44:27.065Z</time></trkpt><trkpt lat="42.4484529" lon="12.718428"><ele>930.0</ele><time>2026-04-07T10:44:28.065Z</time></trkpt><trkpt lat="42.4485424" lon="12.7183559"><ele>930.0</ele><time>2026-04-07T10:44:30.064Z</time></trkpt><trkpt lat="42.4485934" lon="12.7182869"><ele>930.0</ele><time>2026-04-07T10:44:32.065Z</time></trkpt><trkpt lat="42.4486334" lon="12.7182087"><ele>930.0</ele><time>2026-04-07T10:44:35.065Z</time></trkpt><trkpt lat="42.4486588" lon="12.7181126"><ele>930.0</ele><time>2026-04-07T10:44:38.064Z</time></trkpt><trkpt lat="42.4486817" lon="12.718"><ele>930.0</ele><time>2026-04-07T10:44:41.065Z</time></trkpt><trkpt lat="42.4487057" lon="12.7178701"><ele>930.0</ele><time>2026-04-07T10:44:44.065Z</time></trkpt><trkpt lat="42.448719" lon="12.7177805"><ele>930.0</ele><time>2026-04-07T10:44:46.064Z</time></trkpt><trkpt lat="42.4487306" lon="12.7176934"><ele>930.0</ele><time>2026-04-07T10:44:48.065Z</time></trkpt><trkpt lat="42.4487435" lon="12.7176051"><ele>930.0</ele><time>2026-04-07T10:44:50.065Z</time></trkpt><trkpt lat="42.4487729" lon="12.7174987"><ele>929.0</ele><time>2026-04-07T10:44:53.065Z</time></trkpt><trkpt lat="42.4488009" lon="12.7173958"><ele>928.0</ele><time>2026-04-07T10:44:56.065Z</time></trkpt><trkpt lat="42.4488228" lon="12.7172931"><ele>927.0</ele><time>2026-04-07T10:44:59.064Z</time></trkpt><trkpt lat="42.4488341" lon="12.7171895"><ele>926.0</ele><time>2026-04-07T10:45:03.064Z</time></trkpt><trkpt lat="42.4488598" lon="12.7170614"><ele>925.0</ele><time>2026-04-07T10:45:06.064Z</time></trkpt><trkpt lat="42.448877" lon="12.7169718"><ele>924.0</ele><time>2026-04-07T10:45:08.064Z</time></trkpt><trkpt lat="42.4488978" lon="12.7168864"><ele>924.0</ele><time>2026-04-07T10:45:10.064Z</time></trkpt><trkpt lat="42.4489171" lon="12.7168014"><ele>924.0</ele><time>2026-04-07T10:45:12.064Z</time></trkpt><trkpt lat="42.448939" lon="12.7167102"><ele>924.0</ele><time>2026-04-07T10:45:14.064Z</time></trkpt><trkpt lat="42.4489605" lon="12.7166218"><ele>924.0</ele><time>2026-04-07T10:45:16.064Z</time></trkpt><trkpt lat="42.4489799" lon="12.7165402"><ele>924.0</ele><time>2026-04-07T10:45:18.063Z</time></trkpt><trkpt lat="42.4490073" lon="12.7164346"><ele>924.0</ele><time>2026-04-07T10:45:20.064Z</time></trkpt><trkpt lat="42.4490375" lon="12.7163221"><ele>924.0</ele><time>2026-04-07T10:45:22.064Z</time></trkpt><trkpt lat="42.4490694" lon="12.7162299"><ele>924.0</ele><time>2026-04-07T10:45:24.064Z</time></trkpt><trkpt lat="42.4491019" lon="12.7161454"><ele>924.0</ele><time>2026-04-07T10:45:26.064Z</time></trkpt><trkpt lat="42.4491363" lon="12.7160684"><ele>924.0</ele><time>2026-04-07T10:45:28.063Z</time></trkpt><trkpt lat="42.4491732" lon="12.715995"><ele>924.0</ele><time>2026-04-07T10:45:30.064Z</time></trkpt><trkpt lat="42.4492223" lon="12.7158858"><ele>924.0</ele><time>2026-04-07T10:45:33.064Z</time></trkpt><trkpt lat="42.4492661" lon="12.7157944"><ele>924.0</ele><time>2026-04-07T10:45:35.064Z</time></trkpt><trkpt lat="42.4493153" lon="12.7156953"><ele>922.0</ele><time>2026-04-07T10:45:37.064Z</time></trkpt><trkpt lat="42.4493656" lon="12.7156021"><ele>920.0</ele><time>2026-04-07T10:45:39.063Z</time></trkpt><trkpt lat="42.4494213" lon="12.71553"><ele>918.0</ele><time>2026-04-07T10:45:41.063Z</time></trkpt><trkpt lat="42.4494741" lon="12.715451"><ele>916.0</ele><time>2026-04-07T10:45:43.063Z</time></trkpt><trkpt lat="42.4495281" lon="12.7153624"><ele>914.0</ele><time>2026-04-07T10:45:45.064Z</time></trkpt><trkpt lat="42.4495818" lon="12.7152749"><ele>912.0</ele><time>2026-04-07T10:45:47.064Z</time></trkpt><trkpt lat="42.4496248" lon="12.7151777"><ele>911.4285714285713</ele><time>2026-04-07T10:45:49.063Z</time></trkpt><trkpt lat="42.4496527" lon="12.7150784"><ele>910.8571428571428</ele><time>2026-04-07T10:45:51.063Z</time></trkpt><trkpt lat="42.4496763" lon="12.7149831"><ele>910.2857142857142</ele><time>2026-04-07T10:45:53.063Z</time></trkpt><trkpt lat="42.4496935" lon="12.714886"><ele>909.7142857142858</ele><time>2026-04-07T10:45:55.063Z</time></trkpt><trkpt lat="42.44971" lon="12.7147921"><ele>909.1428571428572</ele><time>2026-04-07T10:45:57.063Z</time></trkpt><trkpt lat="42.4497241" lon="12.7146998"><ele>908.5714285714287</ele><time>2026-04-07T10:45:59.064Z</time></trkpt><trkpt lat="42.4497429" lon="12.7146135"><ele>908.0</ele><time>2026-04-07T10:46:01.063Z</time></trkpt><trkpt lat="42.4497669" lon="12.7145339"><ele>908.0000000000001</ele><time>2026-04-07T10:46:03.063Z</time></trkpt><trkpt lat="42.4498045" lon="12.7144576"><ele>908.0</ele><time>2026-04-07T10:46:05.064Z</time></trkpt><trkpt lat="42.4498774" lon="12.7143695"><ele>908.0</ele><time>2026-04-07T10:46:07.063Z</time></trkpt><trkpt lat="42.4499855" lon="12.714294"><ele>908.0</ele><time>2026-04-07T10:46:09.064Z</time></trkpt><trkpt lat="42.4500451" lon="12.7142554"><ele>908.0000000000001</ele><time>2026-04-07T10:46:10.063Z</time></trkpt><trkpt lat="42.4501092" lon="12.7142238"><ele>908.0</ele><time>2026-04-07T10:46:11.064Z</time></trkpt><trkpt lat="42.4501771" lon="12.7142008"><ele>905.75</ele><time>2026-04-07T10:46:12.064Z</time></trkpt><trkpt lat="42.4502974" lon="12.7141849"><ele>903.5</ele><time>2026-04-07T10:46:14.064Z</time></trkpt><trkpt lat="42.4504135" lon="12.7141672"><ele>901.25</ele><time>2026-04-07T10:46:16.064Z</time></trkpt><trkpt lat="42.4505248" lon="12.7141432"><ele>899.0</ele><time>2026-04-07T10:46:18.064Z</time></trkpt><trkpt lat="42.4506347" lon="12.7141209"><ele>899.0</ele><time>2026-04-07T10:46:20.064Z</time></trkpt><trkpt lat="42.4506982" lon="12.7141042"><ele>899.0000000000001</ele><time>2026-04-07T10:46:21.064Z</time></trkpt><trkpt lat="42.4508161" lon="12.714075"><ele>899.0000000000001</ele><time>2026-04-07T10:46:23.064Z</time></trkpt><trkpt lat="42.4509098" lon="12.7140487"><ele>899.0</ele><time>2026-04-07T10:46:25.064Z</time></trkpt><trkpt lat="42.4509626" lon="12.7140003"><ele>899.0</ele><time>2026-04-07T10:46:31.064Z</time></trkpt><trkpt lat="42.4510801" lon="12.7139785"><ele>899.0000000000001</ele><time>2026-04-07T10:47:27.063Z</time></trkpt><trkpt lat="42.4511669" lon="12.7139591"><ele>899.0</ele><time>2026-04-07T10:47:28.064Z</time></trkpt><trkpt lat="42.4512775" lon="12.7139229"><ele>899.0</ele><time>2026-04-07T10:47:30.063Z</time></trkpt><trkpt lat="42.451341" lon="12.7139251"><ele>899.0</ele><time>2026-04-07T10:47:31.064Z</time></trkpt><trkpt lat="42.451404" lon="12.7139351"><ele>899.0000000000001</ele><time>2026-04-07T10:47:32.063Z</time></trkpt><trkpt lat="42.4514763" lon="12.7139446"><ele>899.0</ele><time>2026-04-07T10:47:33.064Z</time></trkpt><trkpt lat="42.4515683" lon="12.7139558"><ele>900.0000000000001</ele><time>2026-04-07T10:47:34.063Z</time></trkpt><trkpt lat="42.4516482" lon="12.7139579"><ele>901.0</ele><time>2026-04-07T10:47:35.063Z</time></trkpt><trkpt lat="42.4517254" lon="12.7139413"><ele>902.0</ele><time>2026-04-07T10:47:36.063Z</time></trkpt><trkpt lat="42.4518001" lon="12.7139161"><ele>903.0</ele><time>2026-04-07T10:47:37.063Z</time></trkpt><trkpt lat="42.4518776" lon="12.7138879"><ele>904.0000000000001</ele><time>2026-04-07T10:47:38.062Z</time></trkpt><trkpt lat="42.4519572" lon="12.7138656"><ele>905.0</ele><time>2026-04-07T10:47:39.063Z</time></trkpt><trkpt lat="42.4520345" lon="12.7138426"><ele>905.0000000000001</ele><time>2026-04-07T10:47:40.063Z</time></trkpt><trkpt lat="42.4521097" lon="12.713809"><ele>905.0</ele><time>2026-04-07T10:47:41.063Z</time></trkpt><trkpt lat="42.4521838" lon="12.7137723"><ele>905.0</ele><time>2026-04-07T10:47:42.062Z</time></trkpt><trkpt lat="42.4522581" lon="12.7137325"><ele>905.0</ele><time>2026-04-07T10:47:43.063Z</time></trkpt><trkpt lat="42.452329" lon="12.7136946"><ele>905.0000000000001</ele><time>2026-04-07T10:47:44.063Z</time></trkpt><trkpt lat="42.4523897" lon="12.7136677"><ele>905.0</ele><time>2026-04-07T10:47:45.061Z</time></trkpt><trkpt lat="42.4525035" lon="12.7135988"><ele>904.3333333333334</ele><time>2026-04-07T10:47:47.062Z</time></trkpt><trkpt lat="42.4525612" lon="12.7135516"><ele>903.6666666666667</ele><time>2026-04-07T10:47:48.062Z</time></trkpt><trkpt lat="42.4526613" lon="12.7134411"><ele>903.0</ele><time>2026-04-07T10:47:50.063Z</time></trkpt><trkpt lat="42.4527035" lon="12.7133748"><ele>902.3333333333333</ele><time>2026-04-07T10:47:51.062Z</time></trkpt><trkpt lat="42.452734" lon="12.7132963"><ele>901.6666666666666</ele><time>2026-04-07T10:47:52.063Z</time></trkpt><trkpt lat="42.4527831" lon="12.7131515"><ele>901.0</ele><time>2026-04-07T10:47:54.063Z</time></trkpt><trkpt lat="42.4528483" lon="12.7130211"><ele>900.9999999999999</ele><time>2026-04-07T10:47:56.063Z</time></trkpt><trkpt lat="42.4528974" lon="12.7129648"><ele>901.0</ele><time>2026-04-07T10:47:57.063Z</time></trkpt><trkpt lat="42.4529613" lon="12.7129024"><ele>901.0</ele><time>2026-04-07T10:47:58.063Z</time></trkpt><trkpt lat="42.4530267" lon="12.7128432"><ele>901.0</ele><time>2026-04-07T10:47:59.063Z</time></trkpt><trkpt lat="42.4530937" lon="12.7127877"><ele>900.9999999999999</ele><time>2026-04-07T10:48:00.063Z</time></trkpt><trkpt lat="42.4531598" lon="12.7127363"><ele>901.0</ele><time>2026-04-07T10:48:01.063Z</time></trkpt><trkpt lat="42.453223" lon="12.7126821"><ele>901.6666666666666</ele><time>2026-04-07T10:48:02.062Z</time></trkpt><trkpt lat="42.4532921" lon="12.7126201"><ele>902.3333333333333</ele><time>2026-04-07T10:48:03.063Z</time></trkpt><trkpt lat="42.4533656" lon="12.7125577"><ele>903.0</ele><time>2026-04-07T10:48:04.063Z</time></trkpt><trkpt lat="42.4534393" lon="12.7124963"><ele>903.6666666666667</ele><time>2026-04-07T10:48:05.062Z</time></trkpt><trkpt lat="42.4534914" lon="12.7124357"><ele>904.3333333333334</ele><time>2026-04-07T10:48:06.063Z</time></trkpt><trkpt lat="42.4535363" lon="12.7123721"><ele>905.0</ele><time>2026-04-07T10:48:07.063Z</time></trkpt><trkpt lat="42.4535862" lon="12.7123144"><ele>905.0000000000001</ele><time>2026-04-07T10:48:08.063Z</time></trkpt><trkpt lat="42.4536782" lon="12.7122076"><ele>905.0</ele><time>2026-04-07T10:48:10.063Z</time></trkpt><trkpt lat="42.4537328" lon="12.7121535"><ele>905.0</ele><time>2026-04-07T10:48:11.063Z</time></trkpt><trkpt lat="42.453795" lon="12.7120932"><ele>905.0</ele><time>2026-04-07T10:48:12.062Z</time></trkpt><trkpt lat="42.453846" lon="12.7120333"><ele>905.0000000000001</ele><time>2026-04-07T10:48:13.062Z</time></trkpt><trkpt lat="42.4538984" lon="12.711981"><ele>905.0</ele><time>2026-04-07T10:48:14.063Z</time></trkpt><trkpt lat="42.4539547" lon="12.7119302"><ele>903.8</ele><time>2026-04-07T10:48:15.062Z</time></trkpt><trkpt lat="42.4540427" lon="12.7118277"><ele>902.6</ele><time>2026-04-07T10:48:17.062Z</time></trkpt><trkpt lat="42.4540899" lon="12.7117711"><ele>901.4000000000001</ele><time>2026-04-07T10:48:18.062Z</time></trkpt><trkpt lat="42.4541805" lon="12.7116603"><ele>900.2</ele><time>2026-04-07T10:48:20.062Z</time></trkpt><trkpt lat="42.4542626" lon="12.7115734"><ele>899.0</ele><time>2026-04-07T10:48:22.062Z</time></trkpt><trkpt lat="42.4543339" lon="12.7114946"><ele>899.0</ele><time>2026-04-07T10:48:24.063Z</time></trkpt><trkpt lat="42.4544157" lon="12.7114046"><ele>899.0</ele><time>2026-04-07T10:48:26.062Z</time></trkpt><trkpt lat="42.4545099" lon="12.7113228"><ele>899.0</ele><time>2026-04-07T10:48:28.063Z</time></trkpt><trkpt lat="42.4546087" lon="12.711232"><ele>899.0</ele><time>2026-04-07T10:48:30.062Z</time></trkpt><trkpt lat="42.4546996" lon="12.7111227"><ele>897.2</ele><time>2026-04-07T10:48:32.063Z</time></trkpt><trkpt lat="42.4547614" lon="12.7109816"><ele>895.4000000000001</ele><time>2026-04-07T10:48:34.063Z</time></trkpt><trkpt lat="42.4547786" lon="12.7108936"><ele>893.6</ele><time>2026-04-07T10:48:35.063Z</time></trkpt><trkpt lat="42.4547934" lon="12.7108046"><ele>891.8</ele><time>2026-04-07T10:48:36.063Z</time></trkpt><trkpt lat="42.4548119" lon="12.7107189"><ele>890.0</ele><time>2026-04-07T10:48:37.063Z</time></trkpt><trkpt lat="42.454834" lon="12.7105444"><ele>890.0000000000001</ele><time>2026-04-07T10:48:39.062Z</time></trkpt><trkpt lat="42.4548372" lon="12.7104567"><ele>890.0</ele><time>2026-04-07T10:48:40.062Z</time></trkpt><trkpt lat="42.4548485" lon="12.7102954"><ele>890.0</ele><time>2026-04-07T10:48:42.063Z</time></trkpt><trkpt lat="42.4548836" lon="12.7101441"><ele>890.0</ele><time>2026-04-07T10:48:44.063Z</time></trkpt><trkpt lat="42.4549231" lon="12.7100748"><ele>890.0000000000001</ele><time>2026-04-07T10:48:45.062Z</time></trkpt><trkpt lat="42.4549674" lon="12.7100067"><ele>890.0</ele><time>2026-04-07T10:48:46.063Z</time></trkpt><trkpt lat="42.4550131" lon="12.7099392"><ele>889.1666666666667</ele><time>2026-04-07T10:48:47.063Z</time></trkpt><trkpt lat="42.4550608" lon="12.7098649"><ele>888.3333333333334</ele><time>2026-04-07T10:48:48.063Z</time></trkpt><trkpt lat="42.455102" lon="12.709796"><ele>887.5</ele><time>2026-04-07T10:48:49.062Z</time></trkpt><trkpt lat="42.4551459" lon="12.7097292"><ele>886.6666666666667</ele><time>2026-04-07T10:48:50.061Z</time></trkpt><trkpt lat="42.4551836" lon="12.7096527"><ele>885.8333333333334</ele><time>2026-04-07T10:48:51.063Z</time></trkpt><trkpt lat="42.4552162" lon="12.7095766"><ele>885.0</ele><time>2026-04-07T10:48:52.062Z</time></trkpt><trkpt lat="42.4552642" lon="12.7094229"><ele>884.8333333333334</ele><time>2026-04-07T10:48:54.063Z</time></trkpt><trkpt lat="42.4552885" lon="12.7093432"><ele>884.6666666666667</ele><time>2026-04-07T10:48:55.062Z</time></trkpt><trkpt lat="42.4553146" lon="12.7092616"><ele>884.5</ele><time>2026-04-07T10:48:56.062Z</time></trkpt><trkpt lat="42.4553377" lon="12.7091791"><ele>884.3333333333334</ele><time>2026-04-07T10:48:57.062Z</time></trkpt><trkpt lat="42.4553868" lon="12.7090274"><ele>884.1666666666667</ele><time>2026-04-07T10:48:59.063Z</time></trkpt><trkpt lat="42.455473" lon="12.7088977"><ele>884.0</ele><time>2026-04-07T10:49:01.063Z</time></trkpt><trkpt lat="42.455521" lon="12.7088322"><ele>883.1428571428572</ele><time>2026-04-07T10:49:02.063Z</time></trkpt><trkpt lat="42.4555695" lon="12.7087635"><ele>882.2857142857143</ele><time>2026-04-07T10:49:03.063Z</time></trkpt><trkpt lat="42.4556171" lon="12.7086975"><ele>881.4285714285714</ele><time>2026-04-07T10:49:04.062Z</time></trkpt><trkpt lat="42.4556597" lon="12.7086256"><ele>880.5714285714287</ele><time>2026-04-07T10:49:05.063Z</time></trkpt><trkpt lat="42.4557099" lon="12.708552"><ele>879.7142857142857</ele><time>2026-04-07T10:49:06.063Z</time></trkpt><trkpt lat="42.4557618" lon="12.7084714"><ele>878.8571428571429</ele><time>2026-04-07T10:49:07.063Z</time></trkpt><trkpt lat="42.45582" lon="12.7083869"><ele>878.0</ele><time>2026-04-07T10:49:08.062Z</time></trkpt><trkpt lat="42.4558748" lon="12.7083065"><ele>878.0000000000001</ele><time>2026-04-07T10:49:09.063Z</time></trkpt><trkpt lat="42.4559204" lon="12.708229"><ele>878.0</ele><time>2026-04-07T10:49:10.062Z</time></trkpt><trkpt lat="42.4559732" lon="12.7081452"><ele>878.0</ele><time>2026-04-07T10:49:11.063Z</time></trkpt><trkpt lat="42.4560373" lon="12.7080585"><ele>878.0</ele><time>2026-04-07T10:49:12.063Z</time></trkpt><trkpt lat="42.4560991" lon="12.7079733"><ele>878.0000000000001</ele><time>2026-04-07T10:49:13.063Z</time></trkpt><trkpt lat="42.4561572" lon="12.7078924"><ele>878.0</ele><time>2026-04-07T10:49:14.063Z</time></trkpt><trkpt lat="42.4562112" lon="12.7078107"><ele>877.5000000000001</ele><time>2026-04-07T10:49:15.063Z</time></trkpt><trkpt lat="42.4562706" lon="12.7077281"><ele>877.0</ele><time>2026-04-07T10:49:16.062Z</time></trkpt><trkpt lat="42.4563277" lon="12.7076422"><ele>876.5</ele><time>2026-04-07T10:49:17.063Z</time></trkpt><trkpt lat="42.4563854" lon="12.7075535"><ele>876.0</ele><time>2026-04-07T10:49:18.063Z</time></trkpt><trkpt lat="42.4564414" lon="12.7074619"><ele>875.5000000000001</ele><time>2026-04-07T10:49:19.063Z</time></trkpt><trkpt lat="42.4564992" lon="12.7073678"><ele>875.0</ele><time>2026-04-07T10:49:20.063Z</time></trkpt><trkpt lat="42.4565544" lon="12.707275"><ele>875.0000000000001</ele><time>2026-04-07T10:49:21.063Z</time></trkpt><trkpt lat="42.4566055" lon="12.7071883"><ele>875.0</ele><time>2026-04-07T10:49:22.063Z</time></trkpt><trkpt lat="42.4566567" lon="12.7070909"><ele>875.0</ele><time>2026-04-07T10:49:23.063Z</time></trkpt><trkpt lat="42.4567121" lon="12.7070012"><ele>875.0</ele><time>2026-04-07T10:49:24.062Z</time></trkpt><trkpt lat="42.4567655" lon="12.7069102"><ele>875.0000000000001</ele><time>2026-04-07T10:49:25.063Z</time></trkpt><trkpt lat="42.4568139" lon="12.7068307"><ele>875.0</ele><time>2026-04-07T10:49:26.062Z</time></trkpt><trkpt lat="42.4568686" lon="12.7067426"><ele>874.8571428571429</ele><time>2026-04-07T10:49:27.062Z</time></trkpt><trkpt lat="42.4569096" lon="12.7066641"><ele>874.7142857142858</ele><time>2026-04-07T10:49:28.062Z</time></trkpt><trkpt lat="42.45694" lon="12.7065783"><ele>874.5714285714286</ele><time>2026-04-07T10:49:29.063Z</time></trkpt><trkpt lat="42.4569663" lon="12.70649"><ele>874.4285714285714</ele><time>2026-04-07T10:49:30.062Z</time></trkpt><trkpt lat="42.4569746" lon="12.7063908"><ele>874.2857142857143</ele><time>2026-04-07T10:49:31.063Z</time></trkpt><trkpt lat="42.4569747" lon="12.7062961"><ele>874.1428571428571</ele><time>2026-04-07T10:49:32.062Z</time></trkpt><trkpt lat="42.4569634" lon="12.7061954"><ele>874.0</ele><time>2026-04-07T10:49:33.062Z</time></trkpt><trkpt lat="42.4569434" lon="12.7060878"><ele>873.8000000000001</ele><time>2026-04-07T10:49:34.063Z</time></trkpt><trkpt lat="42.4569259" lon="12.7059746"><ele>873.6000000000001</ele><time>2026-04-07T10:49:35.063Z</time></trkpt><trkpt lat="42.4569142" lon="12.7058641"><ele>873.4</ele><time>2026-04-07T10:49:36.063Z</time></trkpt><trkpt lat="42.4569094" lon="12.705768"><ele>873.2</ele><time>2026-04-07T10:49:37.063Z</time></trkpt><trkpt lat="42.4568885" lon="12.7056141"><ele>873.0</ele><time>2026-04-07T10:49:39.063Z</time></trkpt><trkpt lat="42.45681" lon="12.7054932"><ele>873.0</ele><time>2026-04-07T10:49:41.062Z</time></trkpt><trkpt lat="42.4567497" lon="12.7054452"><ele>873.0</ele><time>2026-04-07T10:49:42.063Z</time></trkpt><trkpt lat="42.4566899" lon="12.7054112"><ele>873.0</ele><time>2026-04-07T10:49:43.063Z</time></trkpt><trkpt lat="42.4565081" lon="12.7053169"><ele>873.0</ele><time>2026-04-07T10:49:46.063Z</time></trkpt><trkpt lat="42.4564422" lon="12.7052812"><ele>873.0</ele><time>2026-04-07T10:49:47.063Z</time></trkpt><trkpt lat="42.4562522" lon="12.705128"><ele>872.7142857142857</ele><time>2026-04-07T10:49:50.063Z</time></trkpt><trkpt lat="42.4561897" lon="12.7050701"><ele>872.4285714285714</ele><time>2026-04-07T10:49:51.063Z</time></trkpt><trkpt lat="42.4561263" lon="12.705011"><ele>872.1428571428571</ele><time>2026-04-07T10:49:52.062Z</time></trkpt><trkpt lat="42.4560591" lon="12.7049489"><ele>871.8571428571429</ele><time>2026-04-07T10:49:53.062Z</time></trkpt><trkpt lat="42.4560033" lon="12.7048935"><ele>871.5714285714286</ele><time>2026-04-07T10:49:54.063Z</time></trkpt><trkpt lat="42.4559531" lon="12.7048396"><ele>871.2857142857142</ele><time>2026-04-07T10:49:55.063Z</time></trkpt><trkpt lat="42.455898" lon="12.7047874"><ele>871.0</ele><time>2026-04-07T10:49:56.062Z</time></trkpt><trkpt lat="42.4558474" lon="12.7047345"><ele>871.0</ele><time>2026-04-07T10:49:57.062Z</time></trkpt><trkpt lat="42.4557923" lon="12.7046784"><ele>871.0</ele><time>2026-04-07T10:49:58.062Z</time></trkpt><trkpt lat="42.4557309" lon="12.7046452"><ele>871.0</ele><time>2026-04-07T10:49:59.063Z</time></trkpt><trkpt lat="42.455669" lon="12.7046202"><ele>871.0</ele><time>2026-04-07T10:50:00.063Z</time></trkpt><trkpt lat="42.455604" lon="12.704611"><ele>871.0</ele><time>2026-04-07T10:50:01.063Z</time></trkpt><trkpt lat="42.4555421" lon="12.7046428"><ele>871.0</ele><time>2026-04-07T10:50:02.062Z</time></trkpt><trkpt lat="42.4554697" lon="12.704681"><ele>871.0</ele><time>2026-04-07T10:50:03.063Z</time></trkpt><trkpt lat="42.4554038" lon="12.7047313"><ele>870.3333333333333</ele><time>2026-04-07T10:50:04.063Z</time></trkpt><trkpt lat="42.4553425" lon="12.704776"><ele>869.6666666666666</ele><time>2026-04-07T10:50:05.061Z</time></trkpt><trkpt lat="42.4552815" lon="12.7048108"><ele>869.0</ele><time>2026-04-07T10:50:06.062Z</time></trkpt><trkpt lat="42.4552118" lon="12.7048327"><ele>868.3333333333333</ele><time>2026-04-07T10:50:07.062Z</time></trkpt><trkpt lat="42.4551337" lon="12.7048413"><ele>867.6666666666666</ele><time>2026-04-07T10:50:08.063Z</time></trkpt><trkpt lat="42.4550499" lon="12.7048319"><ele>867.0</ele><time>2026-04-07T10:50:09.063Z</time></trkpt><trkpt lat="42.454963" lon="12.704798"><ele>867.0</ele><time>2026-04-07T10:50:10.063Z</time></trkpt><trkpt lat="42.4548738" lon="12.7047646"><ele>867.0</ele><time>2026-04-07T10:50:11.063Z</time></trkpt><trkpt lat="42.4547824" lon="12.7047323"><ele>867.0</ele><time>2026-04-07T10:50:12.063Z</time></trkpt><trkpt lat="42.4546913" lon="12.7046974"><ele>867.0</ele><time>2026-04-07T10:50:13.062Z</time></trkpt><trkpt lat="42.4545986" lon="12.7046594"><ele>867.0</ele><time>2026-04-07T10:50:14.063Z</time></trkpt><trkpt lat="42.4545058" lon="12.7046154"><ele>868.0</ele><time>2026-04-07T10:50:15.062Z</time></trkpt><trkpt lat="42.4544171" lon="12.7045596"><ele>869.0</ele><time>2026-04-07T10:50:16.061Z</time></trkpt><trkpt lat="42.4543254" lon="12.7045007"><ele>870.0</ele><time>2026-04-07T10:50:17.062Z</time></trkpt><trkpt lat="42.4542309" lon="12.7044449"><ele>871.0</ele><time>2026-04-07T10:50:18.061Z</time></trkpt><trkpt lat="42.4541313" lon="12.7043911"><ele>872.0</ele><time>2026-04-07T10:50:19.062Z</time></trkpt><trkpt lat="42.4540282" lon="12.7043347"><ele>869.0</ele><time>2026-04-07T10:50:20.062Z</time></trkpt><trkpt lat="42.4539206" lon="12.7042899"><ele>866.0</ele><time>2026-04-07T10:50:21.062Z</time></trkpt><trkpt lat="42.4538071" lon="12.7042632"><ele>863.0</ele><time>2026-04-07T10:50:22.062Z</time></trkpt><trkpt lat="42.4536893" lon="12.7042364"><ele>860.0</ele><time>2026-04-07T10:50:23.062Z</time></trkpt><trkpt lat="42.4535717" lon="12.704205"><ele>860.0000000000001</ele><time>2026-04-07T10:50:24.062Z</time></trkpt><trkpt lat="42.4534652" lon="12.7041616"><ele>860.0</ele><time>2026-04-07T10:50:25.061Z</time></trkpt><trkpt lat="42.4533732" lon="12.7041367"><ele>860.0</ele><time>2026-04-07T10:50:26.061Z</time></trkpt><trkpt lat="42.4532931" lon="12.7041105"><ele>860.0</ele><time>2026-04-07T10:50:27.061Z</time></trkpt><trkpt lat="42.453214" lon="12.7040776"><ele>860.0000000000001</ele><time>2026-04-07T10:50:28.061Z</time></trkpt><trkpt lat="42.4531387" lon="12.7040506"><ele>860.0</ele><time>2026-04-07T10:50:29.061Z</time></trkpt><trkpt lat="42.4530666" lon="12.7040218"><ele>860.0</ele><time>2026-04-07T10:50:30.062Z</time></trkpt><trkpt lat="42.4529988" lon="12.7040126"><ele>860.0</ele><time>2026-04-07T10:50:31.062Z</time></trkpt><trkpt lat="42.4529331" lon="12.7039959"><ele>860.0</ele><time>2026-04-07T10:50:32.062Z</time></trkpt><trkpt lat="42.4528637" lon="12.7039789"><ele>860.0</ele><time>2026-04-07T10:50:33.062Z</time></trkpt><trkpt lat="42.4527979" lon="12.7039627"><ele>860.0</ele><time>2026-04-07T10:50:34.062Z</time></trkpt><trkpt lat="42.4527351" lon="12.7039405"><ele>860.0</ele><time>2026-04-07T10:50:35.062Z</time></trkpt><trkpt lat="42.4526709" lon="12.7039178"><ele>860.0</ele><time>2026-04-07T10:50:36.061Z</time></trkpt><trkpt lat="42.4526075" lon="12.7038975"><ele>860.8571428571428</ele><time>2026-04-07T10:50:37.062Z</time></trkpt><trkpt lat="42.4524869" lon="12.7038844"><ele>861.7142857142858</ele><time>2026-04-07T10:50:39.062Z</time></trkpt><trkpt lat="42.4524239" lon="12.7038587"><ele>862.5714285714286</ele><time>2026-04-07T10:50:40.062Z</time></trkpt><trkpt lat="42.4523645" lon="12.7038282"><ele>863.4285714285713</ele><time>2026-04-07T10:50:41.061Z</time></trkpt><trkpt lat="42.4523065" lon="12.7037925"><ele>864.2857142857142</ele><time>2026-04-07T10:50:42.062Z</time></trkpt><trkpt lat="42.4522515" lon="12.7037441"><ele>865.1428571428571</ele><time>2026-04-07T10:50:43.062Z</time></trkpt><trkpt lat="42.4522088" lon="12.7036812"><ele>866.0</ele><time>2026-04-07T10:50:44.062Z</time></trkpt><trkpt lat="42.4521719" lon="12.7036069"><ele>865.1428571428571</ele><time>2026-04-07T10:50:45.061Z</time></trkpt><trkpt lat="42.4521331" lon="12.7035295"><ele>864.2857142857142</ele><time>2026-04-07T10:50:46.062Z</time></trkpt><trkpt lat="42.452095" lon="12.7034494"><ele>863.4285714285713</ele><time>2026-04-07T10:50:47.062Z</time></trkpt><trkpt lat="42.4520442" lon="12.7033719"><ele>862.5714285714286</ele><time>2026-04-07T10:50:48.062Z</time></trkpt><trkpt lat="42.4519968" lon="12.7032996"><ele>861.7142857142858</ele><time>2026-04-07T10:50:49.061Z</time></trkpt><trkpt lat="42.4519482" lon="12.703237"><ele>860.8571428571428</ele><time>2026-04-07T10:50:50.061Z</time></trkpt><trkpt lat="42.4518888" lon="12.7031732"><ele>860.0</ele><time>2026-04-07T10:50:51.062Z</time></trkpt><trkpt lat="42.4518274" lon="12.7031076"><ele>860.0000000000001</ele><time>2026-04-07T10:50:52.062Z</time></trkpt><trkpt lat="42.4517618" lon="12.7030431"><ele>860.0</ele><time>2026-04-07T10:50:53.062Z</time></trkpt><trkpt lat="42.4516987" lon="12.702998"><ele>860.0</ele><time>2026-04-07T10:50:54.061Z</time></trkpt><trkpt lat="42.4516386" lon="12.7029476"><ele>860.0</ele><time>2026-04-07T10:50:55.062Z</time></trkpt><trkpt lat="42.4515699" lon="12.7028988"><ele>860.0000000000001</ele><time>2026-04-07T10:50:56.061Z</time></trkpt><trkpt lat="42.4514958" lon="12.7028546"><ele>860.0</ele><time>2026-04-07T10:50:57.062Z</time></trkpt><trkpt lat="42.4514223" lon="12.7028163"><ele>860.0000000000001</ele><time>2026-04-07T10:50:58.062Z</time></trkpt><trkpt lat="42.451347" lon="12.7027772"><ele>860.0</ele><time>2026-04-07T10:50:59.062Z</time></trkpt><trkpt lat="42.4512732" lon="12.7027545"><ele>860.0</ele><time>2026-04-07T10:51:00.062Z</time></trkpt><trkpt lat="42.4511986" lon="12.7027346"><ele>860.0</ele><time>2026-04-07T10:51:01.062Z</time></trkpt><trkpt lat="42.4511227" lon="12.7027165"><ele>860.0000000000001</ele><time>2026-04-07T10:51:02.062Z</time></trkpt><trkpt lat="42.4510487" lon="12.7026919"><ele>860.0</ele><time>2026-04-07T10:51:03.062Z</time></trkpt><trkpt lat="42.4509737" lon="12.7026689"><ele>858.1666666666667</ele><time>2026-04-07T10:51:04.061Z</time></trkpt><trkpt lat="42.450903" lon="12.7026471"><ele>856.3333333333334</ele><time>2026-04-07T10:51:05.062Z</time></trkpt><trkpt lat="42.4508295" lon="12.7026182"><ele>854.5</ele><time>2026-04-07T10:51:06.061Z</time></trkpt><trkpt lat="42.4507604" lon="12.7025828"><ele>852.6666666666667</ele><time>2026-04-07T10:51:07.061Z</time></trkpt><trkpt lat="42.4506866" lon="12.702546"><ele>850.8333333333334</ele><time>2026-04-07T10:51:08.062Z</time></trkpt><trkpt lat="42.450615" lon="12.702511"><ele>849.0</ele><time>2026-04-07T10:51:09.062Z</time></trkpt><trkpt lat="42.4505441" lon="12.7024766"><ele>849.0</ele><time>2026-04-07T10:51:10.061Z</time></trkpt><trkpt lat="42.4504664" lon="12.7024545"><ele>849.0</ele><time>2026-04-07T10:51:11.062Z</time></trkpt><trkpt lat="42.4503851" lon="12.702436"><ele>849.0</ele><time>2026-04-07T10:51:12.062Z</time></trkpt><trkpt lat="42.4503047" lon="12.7024175"><ele>849.0</ele><time>2026-04-07T10:51:13.062Z</time></trkpt><trkpt lat="42.4502292" lon="12.7023988"><ele>849.0</ele><time>2026-04-07T10:51:14.061Z</time></trkpt><trkpt lat="42.450149" lon="12.7023898"><ele>849.0</ele><time>2026-04-07T10:51:15.062Z</time></trkpt><trkpt lat="42.4500707" lon="12.7023779"><ele>849.3333333333334</ele><time>2026-04-07T10:51:16.062Z</time></trkpt><trkpt lat="42.449993" lon="12.702375"><ele>849.6666666666667</ele><time>2026-04-07T10:51:17.062Z</time></trkpt><trkpt lat="42.4499122" lon="12.7023824"><ele>850.0</ele><time>2026-04-07T10:51:18.062Z</time></trkpt><trkpt lat="42.4498361" lon="12.7024025"><ele>850.3333333333334</ele><time>2026-04-07T10:51:19.062Z</time></trkpt><trkpt lat="42.4497616" lon="12.7024319"><ele>850.6666666666667</ele><time>2026-04-07T10:51:20.062Z</time></trkpt><trkpt lat="42.44969" lon="12.7024611"><ele>851.0</ele><time>2026-04-07T10:51:21.061Z</time></trkpt><trkpt lat="42.4496159" lon="12.7024973"><ele>850.1999999999999</ele><time>2026-04-07T10:51:22.062Z</time></trkpt><trkpt lat="42.449541" lon="12.7025401"><ele>849.4</ele><time>2026-04-07T10:51:23.062Z</time></trkpt><trkpt lat="42.4494551" lon="12.7025939"><ele>848.6</ele><time>2026-04-07T10:51:24.062Z</time></trkpt><trkpt lat="42.4493636" lon="12.7026473"><ele>847.8</ele><time>2026-04-07T10:51:25.061Z</time></trkpt><trkpt lat="42.449278" lon="12.7027017"><ele>847.0</ele><time>2026-04-07T10:51:26.061Z</time></trkpt><trkpt lat="42.4491935" lon="12.7027527"><ele>847.4000000000001</ele><time>2026-04-07T10:51:27.062Z</time></trkpt><trkpt lat="42.449108" lon="12.7027976"><ele>847.8000000000001</ele><time>2026-04-07T10:51:28.06Z</time></trkpt><trkpt lat="42.4490224" lon="12.7028445"><ele>848.2</ele><time>2026-04-07T10:51:29.062Z</time></trkpt><trkpt lat="42.4489346" lon="12.7028957"><ele>848.6</ele><time>2026-04-07T10:51:30.062Z</time></trkpt><trkpt lat="42.4488477" lon="12.7029383"><ele>849.0</ele><time>2026-04-07T10:51:31.062Z</time></trkpt><trkpt lat="42.4487633" lon="12.7029807"><ele>849.0</ele><time>2026-04-07T10:51:32.062Z</time></trkpt><trkpt lat="42.4486802" lon="12.7030261"><ele>849.0</ele><time>2026-04-07T10:51:33.062Z</time></trkpt><trkpt lat="42.4485866" lon="12.7030811"><ele>849.0</ele><time>2026-04-07T10:51:34.062Z</time></trkpt><trkpt lat="42.4484911" lon="12.7031345"><ele>849.0</ele><time>2026-04-07T10:51:35.062Z</time></trkpt><trkpt lat="42.4483942" lon="12.7031755"><ele>849.0</ele><time>2026-04-07T10:51:36.062Z</time></trkpt><trkpt lat="42.4482922" lon="12.7032039"><ele>849.0</ele><time>2026-04-07T10:51:37.061Z</time></trkpt><trkpt lat="42.4481984" lon="12.7032276"><ele>849.0</ele><time>2026-04-07T10:51:38.062Z</time></trkpt><trkpt lat="42.4481077" lon="12.703246"><ele>849.0</ele><time>2026-04-07T10:51:39.062Z</time></trkpt><trkpt lat="42.448021" lon="12.7032605"><ele>849.0</ele><time>2026-04-07T10:51:40.062Z</time></trkpt><trkpt lat="42.4479325" lon="12.7032796"><ele>849.0</ele><time>2026-04-07T10:51:41.062Z</time></trkpt><trkpt lat="42.4478548" lon="12.7033129"><ele>849.0</ele><time>2026-04-07T10:51:42.062Z</time></trkpt><trkpt lat="42.4477708" lon="12.7033662"><ele>849.2</ele><time>2026-04-07T10:51:43.061Z</time></trkpt><trkpt lat="42.4476783" lon="12.7034395"><ele>849.4000000000001</ele><time>2026-04-07T10:51:44.062Z</time></trkpt><trkpt lat="42.4475906" lon="12.7035132"><ele>849.6</ele><time>2026-04-07T10:51:45.062Z</time></trkpt><trkpt lat="42.4475077" lon="12.7035844"><ele>849.8</ele><time>2026-04-07T10:51:46.062Z</time></trkpt><trkpt lat="42.44743" lon="12.7036548"><ele>850.0</ele><time>2026-04-07T10:51:47.062Z</time></trkpt><trkpt lat="42.4473552" lon="12.7037201"><ele>850.0</ele><time>2026-04-07T10:51:48.062Z</time></trkpt><trkpt lat="42.4472882" lon="12.7037779"><ele>850.0</ele><time>2026-04-07T10:51:49.062Z</time></trkpt><trkpt lat="42.4472243" lon="12.7038345"><ele>850.0</ele><time>2026-04-07T10:51:50.062Z</time></trkpt><trkpt lat="42.4471603" lon="12.7038861"><ele>850.0</ele><time>2026-04-07T10:51:51.062Z</time></trkpt><trkpt lat="42.4470975" lon="12.7039337"><ele>850.0</ele><time>2026-04-07T10:51:52.061Z</time></trkpt><trkpt lat="42.4470329" lon="12.7039733"><ele>850.0</ele><time>2026-04-07T10:51:53.062Z</time></trkpt><trkpt lat="42.4469678" lon="12.7039964"><ele>850.0</ele><time>2026-04-07T10:51:54.062Z</time></trkpt><trkpt lat="42.4469025" lon="12.7040192"><ele>848.25</ele><time>2026-04-07T10:51:55.062Z</time></trkpt><trkpt lat="42.4468351" lon="12.7040321"><ele>846.5</ele><time>2026-04-07T10:51:56.061Z</time></trkpt><trkpt lat="42.4466652" lon="12.7039836"><ele>844.75</ele><time>2026-04-07T10:51:58.062Z</time></trkpt><trkpt lat="42.4465579" lon="12.7039379"><ele>843.0</ele><time>2026-04-07T10:51:59.061Z</time></trkpt><trkpt lat="42.4464674" lon="12.7038943"><ele>843.0</ele><time>2026-04-07T10:52:00.062Z</time></trkpt><trkpt lat="42.4463737" lon="12.7038492"><ele>843.0</ele><time>2026-04-07T10:52:01.062Z</time></trkpt><trkpt lat="42.4462829" lon="12.7038066"><ele>843.0</ele><time>2026-04-07T10:52:02.062Z</time></trkpt><trkpt lat="42.4462003" lon="12.7037696"><ele>843.0</ele><time>2026-04-07T10:52:03.061Z</time></trkpt><trkpt lat="42.4461072" lon="12.7037462"><ele>843.0</ele><time>2026-04-07T10:52:04.062Z</time></trkpt><trkpt lat="42.44601" lon="12.7037305"><ele>843.2</ele><time>2026-04-07T10:52:05.062Z</time></trkpt><trkpt lat="42.4459138" lon="12.7037372"><ele>843.4</ele><time>2026-04-07T10:52:06.062Z</time></trkpt><trkpt lat="42.4457995" lon="12.7037384"><ele>843.6</ele><time>2026-04-07T10:52:07.061Z</time></trkpt><trkpt lat="42.4456934" lon="12.7037345"><ele>843.8000000000001</ele><time>2026-04-07T10:52:08.062Z</time></trkpt><trkpt lat="42.4455829" lon="12.7037224"><ele>844.0</ele><time>2026-04-07T10:52:09.061Z</time></trkpt><trkpt lat="42.4454574" lon="12.7037054"><ele>844.0</ele><time>2026-04-07T10:52:10.062Z</time></trkpt><trkpt lat="42.4453374" lon="12.7036969"><ele>844.0</ele><time>2026-04-07T10:52:11.062Z</time></trkpt><trkpt lat="42.4452268" lon="12.7036931"><ele>844.0</ele><time>2026-04-07T10:52:12.062Z</time></trkpt><trkpt lat="42.4451043" lon="12.7037005"><ele>844.0</ele><time>2026-04-07T10:52:13.062Z</time></trkpt><trkpt lat="42.4449652" lon="12.7037146"><ele>844.0</ele><time>2026-04-07T10:52:14.061Z</time></trkpt><trkpt lat="42.4448139" lon="12.7037362"><ele>844.0</ele><time>2026-04-07T10:52:15.062Z</time></trkpt><trkpt lat="42.4446602" lon="12.7037555"><ele>844.0</ele><time>2026-04-07T10:52:16.061Z</time></trkpt><trkpt lat="42.444519" lon="12.7037701"><ele>844.0</ele><time>2026-04-07T10:52:17.062Z</time></trkpt><trkpt lat="42.4443957" lon="12.7037833"><ele>843.8333333333333</ele><time>2026-04-07T10:52:18.062Z</time></trkpt><trkpt lat="42.4442876" lon="12.7037936"><ele>843.6666666666666</ele><time>2026-04-07T10:52:19.062Z</time></trkpt><trkpt lat="42.4442001" lon="12.7037979"><ele>843.5</ele><time>2026-04-07T10:52:20.061Z</time></trkpt><trkpt lat="42.4441269" lon="12.703787"><ele>843.3333333333333</ele><time>2026-04-07T10:52:21.062Z</time></trkpt><trkpt lat="42.444059" lon="12.7037758"><ele>843.1666666666666</ele><time>2026-04-07T10:52:22.062Z</time></trkpt><trkpt lat="42.443993" lon="12.7037667"><ele>843.0</ele><time>2026-04-07T10:52:23.062Z</time></trkpt><trkpt lat="42.4439121" lon="12.7037511"><ele>843.0</ele><time>2026-04-07T10:52:24.062Z</time></trkpt><trkpt lat="42.4438191" lon="12.7037368"><ele>843.0</ele><time>2026-04-07T10:52:25.062Z</time></trkpt><trkpt lat="42.4437127" lon="12.7037238"><ele>843.0</ele><time>2026-04-07T10:52:26.062Z</time></trkpt><trkpt lat="42.4435984" lon="12.7037102"><ele>843.0</ele><time>2026-04-07T10:52:27.062Z</time></trkpt><trkpt lat="42.4434867" lon="12.7036945"><ele>843.0</ele><time>2026-04-07T10:52:28.062Z</time></trkpt><trkpt lat="42.4433834" lon="12.7036912"><ele>842.0</ele><time>2026-04-07T10:52:29.062Z</time></trkpt><trkpt lat="42.4432918" lon="12.7036911"><ele>841.0</ele><time>2026-04-07T10:52:30.061Z</time></trkpt><trkpt lat="42.4432146" lon="12.7036916"><ele>840.0</ele><time>2026-04-07T10:52:31.062Z</time></trkpt><trkpt lat="42.443147" lon="12.7037376"><ele>839.0</ele><time>2026-04-07T10:52:32.062Z</time></trkpt><trkpt lat="42.4430784" lon="12.7037969"><ele>838.0</ele><time>2026-04-07T10:52:33.061Z</time></trkpt><trkpt lat="42.4430135" lon="12.7038709"><ele>837.0</ele><time>2026-04-07T10:52:34.061Z</time></trkpt><trkpt lat="42.4429543" lon="12.7039425"><ele>836.0</ele><time>2026-04-07T10:52:35.062Z</time></trkpt><trkpt lat="42.4428957" lon="12.7040171"><ele>835.0</ele><time>2026-04-07T10:52:36.061Z</time></trkpt><trkpt lat="42.442837" lon="12.7040795"><ele>834.0</ele><time>2026-04-07T10:52:37.062Z</time></trkpt><trkpt lat="42.4427752" lon="12.7041326"><ele>833.0</ele><time>2026-04-07T10:52:38.061Z</time></trkpt><trkpt lat="42.4427111" lon="12.704158"><ele>832.0</ele><time>2026-04-07T10:52:39.062Z</time></trkpt><trkpt lat="42.4426171" lon="12.7041552"><ele>831.0</ele><time>2026-04-07T10:52:40.062Z</time></trkpt><trkpt lat="42.4425186" lon="12.7041445"><ele>831.0</ele><time>2026-04-07T10:52:41.062Z</time></trkpt><trkpt lat="42.4424044" lon="12.7041255"><ele>831.0</ele><time>2026-04-07T10:52:42.062Z</time></trkpt><trkpt lat="42.4422885" lon="12.7040965"><ele>831.0</ele><time>2026-04-07T10:52:43.062Z</time></trkpt><trkpt lat="42.442184" lon="12.7040622"><ele>831.0</ele><time>2026-04-07T10:52:44.061Z</time></trkpt><trkpt lat="42.4420884" lon="12.70403"><ele>831.0</ele><time>2026-04-07T10:52:45.062Z</time></trkpt><trkpt lat="42.4420004" lon="12.7040004"><ele>831.4</ele><time>2026-04-07T10:52:46.061Z</time></trkpt><trkpt lat="42.4419115" lon="12.70397"><ele>831.8</ele><time>2026-04-07T10:52:47.062Z</time></trkpt><trkpt lat="42.4418219" lon="12.7039523"><ele>832.1999999999999</ele><time>2026-04-07T10:52:48.062Z</time></trkpt><trkpt lat="42.4417249" lon="12.7039517"><ele>832.5999999999999</ele><time>2026-04-07T10:52:49.062Z</time></trkpt><trkpt lat="42.4416176" lon="12.7039519"><ele>833.0</ele><time>2026-04-07T10:52:50.062Z</time></trkpt><trkpt lat="42.441494" lon="12.7039479"><ele>833.0</ele><time>2026-04-07T10:52:51.061Z</time></trkpt><trkpt lat="42.4413791" lon="12.7039483"><ele>833.0</ele><time>2026-04-07T10:52:52.062Z</time></trkpt><trkpt lat="42.4412727" lon="12.703952"><ele>833.0</ele><time>2026-04-07T10:52:53.062Z</time></trkpt><trkpt lat="42.4411755" lon="12.7039609"><ele>833.0</ele><time>2026-04-07T10:52:54.061Z</time></trkpt><trkpt lat="42.4410679" lon="12.7039764"><ele>833.0</ele><time>2026-04-07T10:52:55.062Z</time></trkpt><trkpt lat="42.440969" lon="12.7039986"><ele>831.8333333333334</ele><time>2026-04-07T10:52:56.061Z</time></trkpt><trkpt lat="42.4408799" lon="12.7040285"><ele>830.6666666666667</ele><time>2026-04-07T10:52:57.062Z</time></trkpt><trkpt lat="42.4407963" lon="12.7040626"><ele>829.5</ele><time>2026-04-07T10:52:58.061Z</time></trkpt><trkpt lat="42.4407214" lon="12.7040802"><ele>828.3333333333333</ele><time>2026-04-07T10:52:59.062Z</time></trkpt><trkpt lat="42.4406449" lon="12.7040944"><ele>827.1666666666666</ele><time>2026-04-07T10:53:00.062Z</time></trkpt><trkpt lat="42.4405649" lon="12.7041035"><ele>826.0</ele><time>2026-04-07T10:53:01.062Z</time></trkpt><trkpt lat="42.4404844" lon="12.7041086"><ele>824.4999999999999</ele><time>2026-04-07T10:53:02.062Z</time></trkpt><trkpt lat="42.4404002" lon="12.7041196"><ele>823.0</ele><time>2026-04-07T10:53:03.062Z</time></trkpt><trkpt lat="42.4403145" lon="12.7041315"><ele>821.5</ele><time>2026-04-07T10:53:04.062Z</time></trkpt><trkpt lat="42.4402394" lon="12.7041542"><ele>820.0</ele><time>2026-04-07T10:53:05.061Z</time></trkpt><trkpt lat="42.4401597" lon="12.7041875"><ele>818.4999999999999</ele><time>2026-04-07T10:53:06.062Z</time></trkpt><trkpt lat="42.4400643" lon="12.7042293"><ele>817.0</ele><time>2026-04-07T10:53:07.062Z</time></trkpt><trkpt lat="42.4399706" lon="12.704274"><ele>817.0</ele><time>2026-04-07T10:53:08.062Z</time></trkpt><trkpt lat="42.4398866" lon="12.704321"><ele>817.0</ele><time>2026-04-07T10:53:09.061Z</time></trkpt><trkpt lat="42.439803" lon="12.7043796"><ele>817.0</ele><time>2026-04-07T10:53:10.062Z</time></trkpt><trkpt lat="42.4397204" lon="12.7044344"><ele>817.0</ele><time>2026-04-07T10:53:11.062Z</time></trkpt><trkpt lat="42.4396415" lon="12.7044778"><ele>817.0</ele><time>2026-04-07T10:53:12.061Z</time></trkpt><trkpt lat="42.4395583" lon="12.7045176"><ele>817.6666666666666</ele><time>2026-04-07T10:53:13.062Z</time></trkpt><trkpt lat="42.4394804" lon="12.7045581"><ele>818.3333333333333</ele><time>2026-04-07T10:53:14.061Z</time></trkpt><trkpt lat="42.4394069" lon="12.7045905"><ele>819.0</ele><time>2026-04-07T10:53:15.06Z</time></trkpt><trkpt lat="42.4393338" lon="12.7046039"><ele>819.6666666666667</ele><time>2026-04-07T10:53:16.061Z</time></trkpt><trkpt lat="42.4392538" lon="12.7045984"><ele>820.3333333333334</ele><time>2026-04-07T10:53:17.062Z</time></trkpt><trkpt lat="42.4391636" lon="12.7045849"><ele>821.0</ele><time>2026-04-07T10:53:18.061Z</time></trkpt><trkpt lat="42.4390611" lon="12.7045637"><ele>821.0</ele><time>2026-04-07T10:53:19.062Z</time></trkpt><trkpt lat="42.4389566" lon="12.704536"><ele>821.0</ele><time>2026-04-07T10:53:20.062Z</time></trkpt><trkpt lat="42.4388513" lon="12.704511"><ele>821.0</ele><time>2026-04-07T10:53:21.061Z</time></trkpt><trkpt lat="42.4387369" lon="12.7044961"><ele>821.0</ele><time>2026-04-07T10:53:22.061Z</time></trkpt><trkpt lat="42.4386239" lon="12.7044874"><ele>821.0</ele><time>2026-04-07T10:53:23.061Z</time></trkpt><trkpt lat="42.4385207" lon="12.7044861"><ele>820.5000000000001</ele><time>2026-04-07T10:53:24.061Z</time></trkpt><trkpt lat="42.4384298" lon="12.7044856"><ele>820.0</ele><time>2026-04-07T10:53:25.06Z</time></trkpt><trkpt lat="42.4383477" lon="12.7044849"><ele>819.5</ele><time>2026-04-07T10:53:26.061Z</time></trkpt><trkpt lat="42.4382743" lon="12.7044781"><ele>819.0</ele><time>2026-04-07T10:53:27.061Z</time></trkpt><trkpt lat="42.4382038" lon="12.7044609"><ele>818.5000000000001</ele><time>2026-04-07T10:53:28.061Z</time></trkpt><trkpt lat="42.4381337" lon="12.7044364"><ele>818.0</ele><time>2026-04-07T10:53:29.06Z</time></trkpt><trkpt lat="42.4380668" lon="12.7044115"><ele>816.2</ele><time>2026-04-07T10:53:30.059Z</time></trkpt><trkpt lat="42.4379609" lon="12.7043746"><ele>814.4</ele><time>2026-04-07T10:53:32.061Z</time></trkpt><trkpt lat="42.4378682" lon="12.7043479"><ele>812.6</ele><time>2026-04-07T10:53:34.06Z</time></trkpt><trkpt lat="42.4377873" lon="12.7043183"><ele>810.8000000000001</ele><time>2026-04-07T10:53:36.06Z</time></trkpt><trkpt lat="42.4377188" lon="12.7042934"><ele>809.0</ele><time>2026-04-07T10:53:38.061Z</time></trkpt><trkpt lat="42.4375832" lon="12.7042596"><ele>809.0000000000001</ele><time>2026-04-07T10:57:01.059Z</time></trkpt><trkpt lat="42.4375165" lon="12.7042473"><ele>809.0</ele><time>2026-04-07T10:57:02.059Z</time></trkpt><trkpt lat="42.437409" lon="12.7042305"><ele>809.0</ele><time>2026-04-07T10:57:04.059Z</time></trkpt><trkpt lat="42.4372868" lon="12.7042068"><ele>809.0</ele><time>2026-04-07T10:57:06.059Z</time></trkpt><trkpt lat="42.4372188" lon="12.7041955"><ele>809.0000000000001</ele><time>2026-04-07T10:57:07.059Z</time></trkpt><trkpt lat="42.4371486" lon="12.7041846"><ele>809.0</ele><time>2026-04-07T10:57:08.059Z</time></trkpt><trkpt lat="42.4370771" lon="12.7041751"><ele>808.2857142857143</ele><time>2026-04-07T10:57:09.059Z</time></trkpt><trkpt lat="42.4370043" lon="12.7041625"><ele>807.5714285714287</ele><time>2026-04-07T10:57:10.059Z</time></trkpt><trkpt lat="42.4369363" lon="12.7041576"><ele>806.8571428571429</ele><time>2026-04-07T10:57:11.06Z</time></trkpt><trkpt lat="42.4368702" lon="12.7041547"><ele>806.1428571428571</ele><time>2026-04-07T10:57:12.06Z</time></trkpt><trkpt lat="42.4368036" lon="12.7041458"><ele>805.4285714285714</ele><time>2026-04-07T10:57:13.06Z</time></trkpt><trkpt lat="42.4367282" lon="12.7041418"><ele>804.7142857142857</ele><time>2026-04-07T10:57:14.06Z</time></trkpt><trkpt lat="42.4366554" lon="12.7041396"><ele>804.0</ele><time>2026-04-07T10:57:15.06Z</time></trkpt><trkpt lat="42.4365818" lon="12.7041374"><ele>804.0</ele><time>2026-04-07T10:57:16.059Z</time></trkpt><trkpt lat="42.4365077" lon="12.7041397"><ele>804.0</ele><time>2026-04-07T10:57:17.06Z</time></trkpt><trkpt lat="42.4364332" lon="12.7041392"><ele>804.0</ele><time>2026-04-07T10:57:18.06Z</time></trkpt><trkpt lat="42.4363582" lon="12.704126"><ele>804.0</ele><time>2026-04-07T10:57:19.06Z</time></trkpt><trkpt lat="42.4362867" lon="12.7040973"><ele>804.0</ele><time>2026-04-07T10:57:20.06Z</time></trkpt><trkpt lat="42.4362205" lon="12.704049"><ele>804.0</ele><time>2026-04-07T10:57:21.06Z</time></trkpt><trkpt lat="42.4361594" lon="12.7039869"><ele>804.0</ele><time>2026-04-07T10:57:22.06Z</time></trkpt><trkpt lat="42.4361042" lon="12.7039085"><ele>804.0</ele><time>2026-04-07T10:57:23.059Z</time></trkpt><trkpt lat="42.4360542" lon="12.7038182"><ele>804.0</ele><time>2026-04-07T10:57:24.06Z</time></trkpt><trkpt lat="42.4360038" lon="12.7037184"><ele>804.0</ele><time>2026-04-07T10:57:25.059Z</time></trkpt><trkpt lat="42.4359594" lon="12.703611"><ele>804.0</ele><time>2026-04-07T10:57:26.059Z</time></trkpt><trkpt lat="42.4359173" lon="12.7035101"><ele>804.0</ele><time>2026-04-07T10:57:27.059Z</time></trkpt><trkpt lat="42.4358757" lon="12.7034173"><ele>803.5</ele><time>2026-04-07T10:57:28.06Z</time></trkpt><trkpt lat="42.4358313" lon="12.7033297"><ele>803.0</ele><time>2026-04-07T10:57:29.06Z</time></trkpt><trkpt lat="42.4357872" lon="12.7032413"><ele>802.5</ele><time>2026-04-07T10:57:30.06Z</time></trkpt><trkpt lat="42.4357363" lon="12.703153"><ele>802.0</ele><time>2026-04-07T10:57:31.059Z</time></trkpt><trkpt lat="42.4356855" lon="12.7030654"><ele>801.5</ele><time>2026-04-07T10:57:32.06Z</time></trkpt><trkpt lat="42.4356357" lon="12.7029778"><ele>801.0</ele><time>2026-04-07T10:57:33.059Z</time></trkpt><trkpt lat="42.435583" lon="12.7028896"><ele>801.0</ele><time>2026-04-07T10:57:34.06Z</time></trkpt><trkpt lat="42.4355325" lon="12.7028047"><ele>801.0</ele><time>2026-04-07T10:57:35.059Z</time></trkpt><trkpt lat="42.435484" lon="12.7027221"><ele>801.0</ele><time>2026-04-07T10:57:36.06Z</time></trkpt><trkpt lat="42.4354356" lon="12.7026383"><ele>801.0</ele><time>2026-04-07T10:57:37.06Z</time></trkpt><trkpt lat="42.435386" lon="12.7025508"><ele>801.0</ele><time>2026-04-07T10:57:38.059Z</time></trkpt><trkpt lat="42.4353333" lon="12.7024615"><ele>801.0</ele><time>2026-04-07T10:57:39.06Z</time></trkpt><trkpt lat="42.4352804" lon="12.7023661"><ele>801.0</ele><time>2026-04-07T10:57:40.06Z</time></trkpt><trkpt lat="42.4352263" lon="12.7022727"><ele>801.0</ele><time>2026-04-07T10:57:41.06Z</time></trkpt><trkpt lat="42.4351708" lon="12.7021863"><ele>801.0</ele><time>2026-04-07T10:57:42.06Z</time></trkpt><trkpt lat="42.4351111" lon="12.7020974"><ele>801.0</ele><time>2026-04-07T10:57:43.059Z</time></trkpt><trkpt lat="42.4350508" lon="12.7020171"><ele>801.0</ele><time>2026-04-07T10:57:44.06Z</time></trkpt><trkpt lat="42.4349868" lon="12.7019469"><ele>801.0</ele><time>2026-04-07T10:57:45.06Z</time></trkpt><trkpt lat="42.4349223" lon="12.7018848"><ele>801.6666666666666</ele><time>2026-04-07T10:57:46.06Z</time></trkpt><trkpt lat="42.4348588" lon="12.7018296"><ele>802.3333333333333</ele><time>2026-04-07T10:57:47.06Z</time></trkpt><trkpt lat="42.4347921" lon="12.7017754"><ele>803.0</ele><time>2026-04-07T10:57:48.06Z</time></trkpt><trkpt lat="42.4347257" lon="12.7017163"><ele>803.6666666666666</ele><time>2026-04-07T10:57:49.06Z</time></trkpt><trkpt lat="42.4346603" lon="12.701651"><ele>804.3333333333333</ele><time>2026-04-07T10:57:50.06Z</time></trkpt><trkpt lat="42.4346009" lon="12.7015865"><ele>805.0</ele><time>2026-04-07T10:57:51.06Z</time></trkpt><trkpt lat="42.4345469" lon="12.7015314"><ele>805.75</ele><time>2026-04-07T10:57:52.059Z</time></trkpt><trkpt lat="42.4344466" lon="12.7014343"><ele>806.5</ele><time>2026-04-07T10:57:54.059Z</time></trkpt><trkpt lat="42.4343505" lon="12.7013387"><ele>807.25</ele><time>2026-04-07T10:57:56.06Z</time></trkpt><trkpt lat="42.4342723" lon="12.7012446"><ele>808.0</ele><time>2026-04-07T10:57:58.06Z</time></trkpt><trkpt lat="42.4341878" lon="12.7011396"><ele>807.9999999999999</ele><time>2026-04-07T10:58:00.059Z</time></trkpt><trkpt lat="42.4341312" lon="12.7010839"><ele>808.0</ele><time>2026-04-07T10:58:01.06Z</time></trkpt><trkpt lat="42.4340688" lon="12.701038"><ele>808.0</ele><time>2026-04-07T10:58:02.059Z</time></trkpt><trkpt lat="42.4339946" lon="12.7009997"><ele>808.0</ele><time>2026-04-07T10:58:03.06Z</time></trkpt><trkpt lat="42.4339094" lon="12.7009632"><ele>807.9999999999999</ele><time>2026-04-07T10:58:04.06Z</time></trkpt><trkpt lat="42.433813" lon="12.7009309"><ele>808.0</ele><time>2026-04-07T10:58:05.06Z</time></trkpt><trkpt lat="42.4337211" lon="12.7008971"><ele>808.8</ele><time>2026-04-07T10:58:06.059Z</time></trkpt><trkpt lat="42.4336206" lon="12.7008612"><ele>809.5999999999999</ele><time>2026-04-07T10:58:07.06Z</time></trkpt><trkpt lat="42.4335169" lon="12.7008309"><ele>810.4000000000001</ele><time>2026-04-07T10:58:08.06Z</time></trkpt><trkpt lat="42.4334143" lon="12.7007961"><ele>811.2</ele><time>2026-04-07T10:58:09.058Z</time></trkpt><trkpt lat="42.4333173" lon="12.7007667"><ele>812.0</ele><time>2026-04-07T10:58:10.06Z</time></trkpt><trkpt lat="42.4332296" lon="12.7007441"><ele>812.0000000000001</ele><time>2026-04-07T10:58:11.059Z</time></trkpt><trkpt lat="42.4331452" lon="12.7007354"><ele>812.0</ele><time>2026-04-07T10:58:12.06Z</time></trkpt><trkpt lat="42.4330605" lon="12.7007365"><ele>812.0</ele><time>2026-04-07T10:58:13.06Z</time></trkpt><trkpt lat="42.4329746" lon="12.7007407"><ele>812.0</ele><time>2026-04-07T10:58:14.06Z</time></trkpt><trkpt lat="42.4328899" lon="12.7007282"><ele>812.0000000000001</ele><time>2026-04-07T10:58:15.06Z</time></trkpt><trkpt lat="42.4327992" lon="12.7007038"><ele>812.0</ele><time>2026-04-07T10:58:16.059Z</time></trkpt><trkpt lat="42.4327038" lon="12.7006693"><ele>811.0</ele><time>2026-04-07T10:58:17.06Z</time></trkpt><trkpt lat="42.4325991" lon="12.7006283"><ele>810.0</ele><time>2026-04-07T10:58:18.059Z</time></trkpt><trkpt lat="42.4324924" lon="12.7005876"><ele>809.0</ele><time>2026-04-07T10:58:19.06Z</time></trkpt><trkpt lat="42.4323852" lon="12.700555"><ele>808.0</ele><time>2026-04-07T10:58:20.059Z</time></trkpt><trkpt lat="42.4322786" lon="12.7005214"><ele>807.0</ele><time>2026-04-07T10:58:21.06Z</time></trkpt><trkpt lat="42.432181" lon="12.7004941"><ele>806.0</ele><time>2026-04-07T10:58:22.06Z</time></trkpt><trkpt lat="42.4320938" lon="12.700472"><ele>805.0</ele><time>2026-04-07T10:58:23.059Z</time></trkpt><trkpt lat="42.4320127" lon="12.7004509"><ele>804.0</ele><time>2026-04-07T10:58:24.06Z</time></trkpt><trkpt lat="42.4319361" lon="12.7004378"><ele>803.0</ele><time>2026-04-07T10:58:25.06Z</time></trkpt><trkpt lat="42.4318623" lon="12.7004273"><ele>802.0</ele><time>2026-04-07T10:58:26.059Z</time></trkpt><trkpt lat="42.4317979" lon="12.7004229"><ele>801.0</ele><time>2026-04-07T10:58:27.06Z</time></trkpt><trkpt lat="42.4316977" lon="12.7003997"><ele>801.0</ele><time>2026-04-07T10:58:29.06Z</time></trkpt><trkpt lat="42.4316138" lon="12.7003312"><ele>801.0</ele><time>2026-04-07T10:58:31.06Z</time></trkpt><trkpt lat="42.4315134" lon="12.7002266"><ele>801.0</ele><time>2026-04-07T10:58:33.06Z</time></trkpt><trkpt lat="42.4314555" lon="12.700172"><ele>801.0</ele><time>2026-04-07T10:58:34.06Z</time></trkpt><trkpt lat="42.4313988" lon="12.7001226"><ele>801.0</ele><time>2026-04-07T10:58:35.06Z</time></trkpt><trkpt lat="42.4313059" lon="12.7000234"><ele>798.8</ele><time>2026-04-07T10:58:37.06Z</time></trkpt><trkpt lat="42.4312318" lon="12.6998822"><ele>796.5999999999999</ele><time>2026-04-07T10:58:39.06Z</time></trkpt><trkpt lat="42.4311993" lon="12.6997929"><ele>794.4</ele><time>2026-04-07T10:58:40.059Z</time></trkpt><trkpt lat="42.4311657" lon="12.6996894"><ele>792.2</ele><time>2026-04-07T10:58:41.06Z</time></trkpt><trkpt lat="42.4311287" lon="12.6995857"><ele>790.0</ele><time>2026-04-07T10:58:42.059Z</time></trkpt><trkpt lat="42.4310848" lon="12.6994831"><ele>793.0</ele><time>2026-04-07T10:58:43.06Z</time></trkpt><trkpt lat="42.4310421" lon="12.6993929"><ele>796.0</ele><time>2026-04-07T10:58:44.059Z</time></trkpt><trkpt lat="42.4310012" lon="12.6993094"><ele>799.0</ele><time>2026-04-07T10:58:45.059Z</time></trkpt><trkpt lat="42.4309603" lon="12.6992227"><ele>802.0</ele><time>2026-04-07T10:58:46.06Z</time></trkpt><trkpt lat="42.430915" lon="12.6991324"><ele>805.0</ele><time>2026-04-07T10:58:47.06Z</time></trkpt><trkpt lat="42.4308752" lon="12.6990592"><ele>808.0</ele><time>2026-04-07T10:58:48.06Z</time></trkpt><trkpt lat="42.430833" lon="12.6989893"><ele>811.0</ele><time>2026-04-07T10:58:49.06Z</time></trkpt><trkpt lat="42.4307531" lon="12.6988712"><ele>811.0</ele><time>2026-04-07T10:58:51.06Z</time></trkpt><trkpt lat="42.4306607" lon="12.6987788"><ele>811.0</ele><time>2026-04-07T10:58:53.06Z</time></trkpt><trkpt lat="42.4305627" lon="12.6987325"><ele>811.0</ele><time>2026-04-07T10:58:55.06Z</time></trkpt><trkpt lat="42.4304634" lon="12.6986844"><ele>811.0</ele><time>2026-04-07T10:58:57.06Z</time></trkpt><trkpt lat="42.4303714" lon="12.6986416"><ele>811.0</ele><time>2026-04-07T10:58:59.06Z</time></trkpt><trkpt lat="42.4302799" lon="12.6985825"><ele>808.6666666666666</ele><time>2026-04-07T10:59:01.059Z</time></trkpt><trkpt lat="42.4302108" lon="12.6985196"><ele>806.3333333333333</ele><time>2026-04-07T10:59:03.06Z</time></trkpt><trkpt lat="42.4301491" lon="12.6984313"><ele>804.0</ele><time>2026-04-07T10:59:05.06Z</time></trkpt><trkpt lat="42.4300789" lon="12.6983142"><ele>801.6666666666667</ele><time>2026-04-07T10:59:07.06Z</time></trkpt><trkpt lat="42.4300374" lon="12.6982471"><ele>799.3333333333334</ele><time>2026-04-07T10:59:08.06Z</time></trkpt><trkpt lat="42.4299967" lon="12.6981764"><ele>797.0</ele><time>2026-04-07T10:59:09.059Z</time></trkpt><trkpt lat="42.4299547" lon="12.6981025"><ele>797.0</ele><time>2026-04-07T10:59:10.059Z</time></trkpt><trkpt lat="42.4299077" lon="12.6980314"><ele>797.0</ele><time>2026-04-07T10:59:11.059Z</time></trkpt><trkpt lat="42.4298561" lon="12.6979649"><ele>797.0</ele><time>2026-04-07T10:59:12.059Z</time></trkpt><trkpt lat="42.4298011" lon="12.6979078"><ele>797.0</ele><time>2026-04-07T10:59:13.059Z</time></trkpt><trkpt lat="42.4297415" lon="12.6978595"><ele>797.0</ele><time>2026-04-07T10:59:14.059Z</time></trkpt><trkpt lat="42.4296781" lon="12.6978169"><ele>797.0</ele><time>2026-04-07T10:59:15.059Z</time></trkpt><trkpt lat="42.4296139" lon="12.6977818"><ele>797.0</ele><time>2026-04-07T10:59:16.059Z</time></trkpt><trkpt lat="42.4295492" lon="12.6977527"><ele>797.0</ele><time>2026-04-07T10:59:17.059Z</time></trkpt><trkpt lat="42.4294838" lon="12.6977237"><ele>797.0</ele><time>2026-04-07T10:59:18.059Z</time></trkpt><trkpt lat="42.4294176" lon="12.6976962"><ele>797.0</ele><time>2026-04-07T10:59:19.059Z</time></trkpt><trkpt lat="42.429351" lon="12.69767"><ele>797.0</ele><time>2026-04-07T10:59:20.059Z</time></trkpt><trkpt lat="42.4292828" lon="12.697646"><ele>797.0</ele><time>2026-04-07T10:59:21.059Z</time></trkpt><trkpt lat="42.429218" lon="12.6976253"><ele>797.0</ele><time>2026-04-07T10:59:22.058Z</time></trkpt><trkpt lat="42.4291555" lon="12.6976053"><ele>797.0</ele><time>2026-04-07T10:59:23.059Z</time></trkpt><trkpt lat="42.4290398" lon="12.6975569"><ele>797.0</ele><time>2026-04-07T10:59:25.059Z</time></trkpt><trkpt lat="42.4289235" lon="12.697498"><ele>797.0</ele><time>2026-04-07T10:59:27.058Z</time></trkpt><trkpt lat="42.4288133" lon="12.6974497"><ele>797.0</ele><time>2026-04-07T10:59:29.059Z</time></trkpt><trkpt lat="42.4287074" lon="12.697432"><ele>797.0</ele><time>2026-04-07T10:59:31.059Z</time></trkpt><trkpt lat="42.4286027" lon="12.6974243"><ele>794.4000000000001</ele><time>2026-04-07T10:59:33.058Z</time></trkpt><trkpt lat="42.4285063" lon="12.6974253"><ele>791.8000000000001</ele><time>2026-04-07T10:59:35.058Z</time></trkpt><trkpt lat="42.4284092" lon="12.6974474"><ele>789.2</ele><time>2026-04-07T10:59:37.058Z</time></trkpt><trkpt lat="42.4283071" lon="12.6974672"><ele>786.6</ele><time>2026-04-07T10:59:39.059Z</time></trkpt><trkpt lat="42.4282047" lon="12.6974702"><ele>784.0</ele><time>2026-04-07T10:59:41.059Z</time></trkpt><trkpt lat="42.4281147" lon="12.6974762"><ele>783.9999999999999</ele><time>2026-04-07T10:59:43.059Z</time></trkpt><trkpt lat="42.4280274" lon="12.6974739"><ele>784.0</ele><time>2026-04-07T10:59:45.059Z</time></trkpt><trkpt lat="42.4279123" lon="12.6974696"><ele>784.0</ele><time>2026-04-07T10:59:47.059Z</time></trkpt><trkpt lat="42.4278464" lon="12.6974662"><ele>784.0</ele><time>2026-04-07T10:59:48.058Z</time></trkpt><trkpt lat="42.427775" lon="12.697448"><ele>783.9999999999999</ele><time>2026-04-07T10:59:49.059Z</time></trkpt><trkpt lat="42.4277104" lon="12.6974262"><ele>784.0</ele><time>2026-04-07T10:59:50.059Z</time></trkpt><trkpt lat="42.4276441" lon="12.697393"><ele>781.7142857142857</ele><time>2026-04-07T10:59:51.059Z</time></trkpt><trkpt lat="42.4275778" lon="12.6973537"><ele>779.4285714285714</ele><time>2026-04-07T10:59:52.057Z</time></trkpt><trkpt lat="42.4275151" lon="12.6973114"><ele>777.1428571428571</ele><time>2026-04-07T10:59:53.059Z</time></trkpt><trkpt lat="42.4274513" lon="12.6972793"><ele>774.8571428571429</ele><time>2026-04-07T10:59:54.059Z</time></trkpt><trkpt lat="42.427388" lon="12.697247"><ele>772.5714285714286</ele><time>2026-04-07T10:59:55.059Z</time></trkpt><trkpt lat="42.4273206" lon="12.6972214"><ele>770.2857142857142</ele><time>2026-04-07T10:59:56.059Z</time></trkpt><trkpt lat="42.4272518" lon="12.6972114"><ele>768.0</ele><time>2026-04-07T10:59:57.059Z</time></trkpt><trkpt lat="42.4271772" lon="12.6972032"><ele>766.4285714285713</ele><time>2026-04-07T10:59:58.058Z</time></trkpt><trkpt lat="42.4271029" lon="12.6972018"><ele>764.8571428571429</ele><time>2026-04-07T10:59:59.059Z</time></trkpt><trkpt lat="42.4270336" lon="12.6972009"><ele>763.2857142857142</ele><time>2026-04-07T11:00:00.059Z</time></trkpt><trkpt lat="42.4269604" lon="12.6972062"><ele>761.7142857142857</ele><time>2026-04-07T11:00:01.058Z</time></trkpt><trkpt lat="42.4268835" lon="12.697207"><ele>760.1428571428571</ele><time>2026-04-07T11:00:02.058Z</time></trkpt><trkpt lat="42.4268135" lon="12.6972054"><ele>758.5714285714286</ele><time>2026-04-07T11:00:03.059Z</time></trkpt><trkpt lat="42.4267424" lon="12.6971921"><ele>757.0</ele><time>2026-04-07T11:00:04.059Z</time></trkpt><trkpt lat="42.4266695" lon="12.6971676"><ele>757.0</ele><time>2026-04-07T11:00:05.059Z</time></trkpt><trkpt lat="42.4266088" lon="12.6971318"><ele>757.0</ele><time>2026-04-07T11:00:06.059Z</time></trkpt><trkpt lat="42.4265533" lon="12.6970875"><ele>757.0</ele><time>2026-04-07T11:00:07.059Z</time></trkpt><trkpt lat="42.4265035" lon="12.6970301"><ele>757.0</ele><time>2026-04-07T11:00:08.059Z</time></trkpt><trkpt lat="42.4264571" lon="12.6969548"><ele>757.0</ele><time>2026-04-07T11:00:09.059Z</time></trkpt><trkpt lat="42.4264129" lon="12.6968737"><ele>757.0</ele><time>2026-04-07T11:00:10.059Z</time></trkpt><trkpt lat="42.4263653" lon="12.6967797"><ele>757.0</ele><time>2026-04-07T11:00:11.059Z</time></trkpt><trkpt lat="42.4263172" lon="12.6966802"><ele>759.1666666666667</ele><time>2026-04-07T11:00:12.059Z</time></trkpt><trkpt lat="42.4262683" lon="12.6965752"><ele>761.3333333333334</ele><time>2026-04-07T11:00:13.059Z</time></trkpt><trkpt lat="42.4262277" lon="12.6964781"><ele>763.5</ele><time>2026-04-07T11:00:14.058Z</time></trkpt><trkpt lat="42.4261978" lon="12.6963753"><ele>765.6666666666667</ele><time>2026-04-07T11:00:15.059Z</time></trkpt><trkpt lat="42.4261787" lon="12.6962646"><ele>767.8333333333334</ele><time>2026-04-07T11:00:16.058Z</time></trkpt><trkpt lat="42.4261668" lon="12.6961374"><ele>770.0</ele><time>2026-04-07T11:00:17.059Z</time></trkpt><trkpt lat="42.4261601" lon="12.6960023"><ele>771.1666666666667</ele><time>2026-04-07T11:00:18.059Z</time></trkpt><trkpt lat="42.4261485" lon="12.6958803"><ele>772.3333333333334</ele><time>2026-04-07T11:00:19.058Z</time></trkpt><trkpt lat="42.426134" lon="12.6957664"><ele>773.5</ele><time>2026-04-07T11:00:20.059Z</time></trkpt><trkpt lat="42.4261135" lon="12.6956502"><ele>774.6666666666667</ele><time>2026-04-07T11:00:21.059Z</time></trkpt><trkpt lat="42.4260829" lon="12.6955402"><ele>775.8333333333334</ele><time>2026-04-07T11:00:22.059Z</time></trkpt><trkpt lat="42.4260454" lon="12.6954324"><ele>777.0</ele><time>2026-04-07T11:00:23.059Z</time></trkpt><trkpt lat="42.4260103" lon="12.695321"><ele>776.0</ele><time>2026-04-07T11:00:24.058Z</time></trkpt><trkpt lat="42.4259804" lon="12.6952041"><ele>775.0</ele><time>2026-04-07T11:00:25.059Z</time></trkpt><trkpt lat="42.4259607" lon="12.6950836"><ele>774.0</ele><time>2026-04-07T11:00:26.059Z</time></trkpt><trkpt lat="42.4259465" lon="12.6949671"><ele>773.0</ele><time>2026-04-07T11:00:27.059Z</time></trkpt><trkpt lat="42.4259311" lon="12.6948562"><ele>772.0</ele><time>2026-04-07T11:00:28.058Z</time></trkpt><trkpt lat="42.4259093" lon="12.6947625"><ele>771.0</ele><time>2026-04-07T11:00:29.059Z</time></trkpt><trkpt lat="42.4258758" lon="12.6946839"><ele>771.0</ele><time>2026-04-07T11:00:30.059Z</time></trkpt><trkpt lat="42.4258289" lon="12.6946159"><ele>771.0</ele><time>2026-04-07T11:00:31.059Z</time></trkpt><trkpt lat="42.4257671" lon="12.6945593"><ele>771.0</ele><time>2026-04-07T11:00:32.059Z</time></trkpt><trkpt lat="42.4256953" lon="12.694507"><ele>771.0</ele><time>2026-04-07T11:00:33.059Z</time></trkpt><trkpt lat="42.4256179" lon="12.6944543"><ele>771.0</ele><time>2026-04-07T11:00:34.058Z</time></trkpt><trkpt lat="42.4255407" lon="12.6943943"><ele>771.0</ele><time>2026-04-07T11:00:35.058Z</time></trkpt><trkpt lat="42.4254666" lon="12.6943331"><ele>772.3333333333334</ele><time>2026-04-07T11:00:36.059Z</time></trkpt><trkpt lat="42.4254007" lon="12.6942596"><ele>773.6666666666667</ele><time>2026-04-07T11:00:37.059Z</time></trkpt><trkpt lat="42.4253452" lon="12.6941774"><ele>775.0</ele><time>2026-04-07T11:00:38.059Z</time></trkpt><trkpt lat="42.4253024" lon="12.6941001"><ele>776.3333333333334</ele><time>2026-04-07T11:00:39.059Z</time></trkpt><trkpt lat="42.425256" lon="12.6940228"><ele>777.6666666666667</ele><time>2026-04-07T11:00:40.059Z</time></trkpt><trkpt lat="42.4252068" lon="12.6939424"><ele>779.0</ele><time>2026-04-07T11:00:41.059Z</time></trkpt><trkpt lat="42.4251632" lon="12.6938792"><ele>779.0000000000001</ele><time>2026-04-07T11:00:42.058Z</time></trkpt><trkpt lat="42.4251175" lon="12.6938201"><ele>779.0</ele><time>2026-04-07T11:00:43.059Z</time></trkpt><trkpt lat="42.4250257" lon="12.6937129"><ele>779.0</ele><time>2026-04-07T11:00:45.059Z</time></trkpt><trkpt lat="42.424969" lon="12.6936548"><ele>779.0</ele><time>2026-04-07T11:00:46.059Z</time></trkpt><trkpt lat="42.4249064" lon="12.6935923"><ele>779.0000000000001</ele><time>2026-04-07T11:00:47.058Z</time></trkpt><trkpt lat="42.4248542" lon="12.6935269"><ele>779.0</ele><time>2026-04-07T11:00:48.059Z</time></trkpt><trkpt lat="42.4248113" lon="12.6934531"><ele>779.5714285714287</ele><time>2026-04-07T11:00:49.059Z</time></trkpt><trkpt lat="42.4247675" lon="12.6933788"><ele>780.1428571428571</ele><time>2026-04-07T11:00:50.059Z</time></trkpt><trkpt lat="42.4247245" lon="12.6932979"><ele>780.7142857142858</ele><time>2026-04-07T11:00:51.059Z</time></trkpt><trkpt lat="42.4246899" lon="12.6932106"><ele>781.2857142857143</ele><time>2026-04-07T11:00:52.059Z</time></trkpt><trkpt lat="42.4246683" lon="12.6931156"><ele>781.8571428571429</ele><time>2026-04-07T11:00:53.059Z</time></trkpt><trkpt lat="42.4246446" lon="12.6930144"><ele>782.4285714285714</ele><time>2026-04-07T11:00:54.059Z</time></trkpt><trkpt lat="42.424624" lon="12.692912"><ele>783.0</ele><time>2026-04-07T11:00:55.059Z</time></trkpt><trkpt lat="42.4246023" lon="12.692823"><ele>779.3333333333334</ele><time>2026-04-07T11:00:56.059Z</time></trkpt><trkpt lat="42.4245758" lon="12.6927409"><ele>775.6666666666666</ele><time>2026-04-07T11:00:57.058Z</time></trkpt><trkpt lat="42.4245503" lon="12.6926581"><ele>772.0</ele><time>2026-04-07T11:00:58.059Z</time></trkpt><trkpt lat="42.4245206" lon="12.6925796"><ele>768.3333333333333</ele><time>2026-04-07T11:00:59.059Z</time></trkpt><trkpt lat="42.4244569" lon="12.6924297"><ele>764.6666666666666</ele><time>2026-04-07T11:01:01.058Z</time></trkpt><trkpt lat="42.4243948" lon="12.6922889"><ele>761.0</ele><time>2026-04-07T11:01:03.059Z</time></trkpt><trkpt lat="42.4243079" lon="12.6921784"><ele>761.0</ele><time>2026-04-07T11:01:05.058Z</time></trkpt><trkpt lat="42.4242486" lon="12.6921411"><ele>761.0</ele><time>2026-04-07T11:01:06.058Z</time></trkpt><trkpt lat="42.4241786" lon="12.6921138"><ele>761.0</ele><time>2026-04-07T11:01:07.059Z</time></trkpt><trkpt lat="42.4241017" lon="12.6920915"><ele>761.0</ele><time>2026-04-07T11:01:08.059Z</time></trkpt><trkpt lat="42.4240363" lon="12.6920624"><ele>761.0</ele><time>2026-04-07T11:01:09.058Z</time></trkpt><trkpt lat="42.4239737" lon="12.6920417"><ele>761.0</ele><time>2026-04-07T11:01:10.059Z</time></trkpt><trkpt lat="42.4238646" lon="12.6920072"><ele>760.8</ele><time>2026-04-07T11:01:12.059Z</time></trkpt><trkpt lat="42.4237797" lon="12.6919887"><ele>760.5999999999999</ele><time>2026-04-07T11:01:14.059Z</time></trkpt><trkpt lat="42.4236823" lon="12.6919698"><ele>760.4</ele><time>2026-04-07T11:01:16.059Z</time></trkpt><trkpt lat="42.4235696" lon="12.6919775"><ele>760.2</ele><time>2026-04-07T11:01:18.059Z</time></trkpt><trkpt lat="42.4234507" lon="12.6920079"><ele>760.0</ele><time>2026-04-07T11:01:20.059Z</time></trkpt><trkpt lat="42.4233869" lon="12.6920299"><ele>760.0</ele><time>2026-04-07T11:01:21.058Z</time></trkpt><trkpt lat="42.4232657" lon="12.6920712"><ele>760.0</ele><time>2026-04-07T11:01:23.059Z</time></trkpt><trkpt lat="42.4231447" lon="12.6921204"><ele>760.0</ele><time>2026-04-07T11:01:25.059Z</time></trkpt><trkpt lat="42.423081" lon="12.6921505"><ele>760.0</ele><time>2026-04-07T11:01:26.059Z</time></trkpt><trkpt lat="42.4230165" lon="12.6921645"><ele>760.0</ele><time>2026-04-07T11:01:27.058Z</time></trkpt><trkpt lat="42.4229493" lon="12.692167"><ele>760.5714285714286</ele><time>2026-04-07T11:01:28.059Z</time></trkpt><trkpt lat="42.4228831" lon="12.692161"><ele>761.1428571428571</ele><time>2026-04-07T11:01:29.059Z</time></trkpt><trkpt lat="42.4228189" lon="12.6921386"><ele>761.7142857142858</ele><time>2026-04-07T11:01:30.059Z</time></trkpt><trkpt lat="42.4227553" lon="12.692112"><ele>762.2857142857142</ele><time>2026-04-07T11:01:31.059Z</time></trkpt><trkpt lat="42.4226908" lon="12.6920774"><ele>762.8571428571428</ele><time>2026-04-07T11:01:32.058Z</time></trkpt><trkpt lat="42.4226306" lon="12.6920417"><ele>763.4285714285714</ele><time>2026-04-07T11:01:33.058Z</time></trkpt><trkpt lat="42.4225696" lon="12.6920059"><ele>764.0</ele><time>2026-04-07T11:01:34.059Z</time></trkpt><trkpt lat="42.4225091" lon="12.6919606"><ele>760.4285714285714</ele><time>2026-04-07T11:01:35.059Z</time></trkpt><trkpt lat="42.4224456" lon="12.6919178"><ele>756.8571428571428</ele><time>2026-04-07T11:01:36.059Z</time></trkpt><trkpt lat="42.4223829" lon="12.6918689"><ele>753.2857142857142</ele><time>2026-04-07T11:01:37.059Z</time></trkpt><trkpt lat="42.42232" lon="12.6918205"><ele>749.7142857142858</ele><time>2026-04-07T11:01:38.059Z</time></trkpt><trkpt lat="42.4222525" lon="12.6917774"><ele>746.1428571428571</ele><time>2026-04-07T11:01:39.059Z</time></trkpt><trkpt lat="42.422192" lon="12.6917407"><ele>742.5714285714286</ele><time>2026-04-07T11:01:40.059Z</time></trkpt><trkpt lat="42.4221278" lon="12.6917041"><ele>739.0</ele><time>2026-04-07T11:01:41.058Z</time></trkpt><trkpt lat="42.4220677" lon="12.6916745"><ele>739.0</ele><time>2026-04-07T11:01:42.059Z</time></trkpt><trkpt lat="42.4220051" lon="12.6916478"><ele>739.0</ele><time>2026-04-07T11:01:43.058Z</time></trkpt><trkpt lat="42.4219411" lon="12.6916194"><ele>739.0</ele><time>2026-04-07T11:01:44.059Z</time></trkpt><trkpt lat="42.4218786" lon="12.6915886"><ele>739.0</ele><time>2026-04-07T11:01:45.058Z</time></trkpt><trkpt lat="42.4218128" lon="12.6915494"><ele>739.0</ele><time>2026-04-07T11:01:46.059Z</time></trkpt><trkpt lat="42.4217504" lon="12.6915062"><ele>739.0</ele><time>2026-04-07T11:01:47.058Z</time></trkpt><trkpt lat="42.4216813" lon="12.6914617"><ele>739.0</ele><time>2026-04-07T11:01:48.059Z</time></trkpt><trkpt lat="42.4216118" lon="12.6914097"><ele>739.0</ele><time>2026-04-07T11:01:49.059Z</time></trkpt><trkpt lat="42.4215402" lon="12.6913469"><ele>739.0</ele><time>2026-04-07T11:01:50.058Z</time></trkpt><trkpt lat="42.421465" lon="12.6912821"><ele>739.0</ele><time>2026-04-07T11:01:51.059Z</time></trkpt><trkpt lat="42.421389" lon="12.6912233"><ele>739.0</ele><time>2026-04-07T11:01:52.058Z</time></trkpt><trkpt lat="42.4213121" lon="12.6911698"><ele>739.0</ele><time>2026-04-07T11:01:53.059Z</time></trkpt><trkpt lat="42.4212379" lon="12.6911169"><ele>739.0</ele><time>2026-04-07T11:01:54.059Z</time></trkpt><trkpt lat="42.4211672" lon="12.6910616"><ele>736.0</ele><time>2026-04-07T11:01:55.059Z</time></trkpt><trkpt lat="42.4210922" lon="12.6910168"><ele>733.0</ele><time>2026-04-07T11:01:56.058Z</time></trkpt><trkpt lat="42.4210227" lon="12.6909743"><ele>730.0</ele><time>2026-04-07T11:01:57.059Z</time></trkpt><trkpt lat="42.4209469" lon="12.6909429"><ele>727.0</ele><time>2026-04-07T11:01:58.058Z</time></trkpt><trkpt lat="42.4208682" lon="12.6909277"><ele>724.0</ele><time>2026-04-07T11:01:59.058Z</time></trkpt><trkpt lat="42.4207839" lon="12.6909255"><ele>721.0</ele><time>2026-04-07T11:02:00.057Z</time></trkpt><trkpt lat="42.4207016" lon="12.6909322"><ele>721.0</ele><time>2026-04-07T11:02:01.057Z</time></trkpt><trkpt lat="42.420621" lon="12.6909517"><ele>721.0</ele><time>2026-04-07T11:02:02.058Z</time></trkpt><trkpt lat="42.4205434" lon="12.690985"><ele>721.0</ele><time>2026-04-07T11:02:03.058Z</time></trkpt><trkpt lat="42.4204666" lon="12.69103"><ele>721.0</ele><time>2026-04-07T11:02:04.057Z</time></trkpt><trkpt lat="42.4203924" lon="12.6910794"><ele>721.0</ele><time>2026-04-07T11:02:05.058Z</time></trkpt><trkpt lat="42.4203211" lon="12.6911277"><ele>721.0</ele><time>2026-04-07T11:02:06.057Z</time></trkpt><trkpt lat="42.4202474" lon="12.6911751"><ele>721.8333333333334</ele><time>2026-04-07T11:02:07.057Z</time></trkpt><trkpt lat="42.4201722" lon="12.6912276"><ele>722.6666666666667</ele><time>2026-04-07T11:02:08.058Z</time></trkpt><trkpt lat="42.4201033" lon="12.691279"><ele>723.5</ele><time>2026-04-07T11:02:09.057Z</time></trkpt><trkpt lat="42.4200336" lon="12.6913355"><ele>724.3333333333334</ele><time>2026-04-07T11:02:10.058Z</time></trkpt><trkpt lat="42.4199666" lon="12.6914009"><ele>725.1666666666666</ele><time>2026-04-07T11:02:11.058Z</time></trkpt><trkpt lat="42.4199038" lon="12.6914637"><ele>726.0</ele><time>2026-04-07T11:02:12.058Z</time></trkpt><trkpt lat="42.4198443" lon="12.69153"><ele>726.0</ele><time>2026-04-07T11:02:13.057Z</time></trkpt><trkpt lat="42.4197808" lon="12.6916004"><ele>726.0</ele><time>2026-04-07T11:02:14.057Z</time></trkpt><trkpt lat="42.4197185" lon="12.6916774"><ele>726.0</ele><time>2026-04-07T11:02:15.058Z</time></trkpt><trkpt lat="42.4196586" lon="12.69175"><ele>726.0</ele><time>2026-04-07T11:02:16.058Z</time></trkpt><trkpt lat="42.4196032" lon="12.6918188"><ele>726.0</ele><time>2026-04-07T11:02:17.057Z</time></trkpt><trkpt lat="42.419555" lon="12.6918871"><ele>726.0</ele><time>2026-04-07T11:02:18.058Z</time></trkpt><trkpt lat="42.4195119" lon="12.6919553"><ele>724.3333333333334</ele><time>2026-04-07T11:02:19.058Z</time></trkpt><trkpt lat="42.419428" lon="12.6920818"><ele>722.6666666666666</ele><time>2026-04-07T11:02:21.057Z</time></trkpt><trkpt lat="42.4193831" lon="12.6921471"><ele>721.0</ele><time>2026-04-07T11:02:22.057Z</time></trkpt><trkpt lat="42.4193379" lon="12.6922199"><ele>719.3333333333333</ele><time>2026-04-07T11:02:23.057Z</time></trkpt><trkpt lat="42.419294" lon="12.6922943"><ele>717.6666666666666</ele><time>2026-04-07T11:02:24.058Z</time></trkpt><trkpt lat="42.4192526" lon="12.6923751"><ele>716.0</ele><time>2026-04-07T11:02:25.058Z</time></trkpt><trkpt lat="42.4192101" lon="12.6924574"><ele>716.0</ele><time>2026-04-07T11:02:26.058Z</time></trkpt><trkpt lat="42.4191706" lon="12.6925357"><ele>716.0</ele><time>2026-04-07T11:02:27.058Z</time></trkpt><trkpt lat="42.4191361" lon="12.6926212"><ele>716.0</ele><time>2026-04-07T11:02:28.058Z</time></trkpt><trkpt lat="42.4191082" lon="12.6927016"><ele>716.0</ele><time>2026-04-07T11:02:29.058Z</time></trkpt><trkpt lat="42.4190835" lon="12.6927822"><ele>716.0</ele><time>2026-04-07T11:02:30.057Z</time></trkpt><trkpt lat="42.4190487" lon="12.6929402"><ele>716.0</ele><time>2026-04-07T11:02:32.058Z</time></trkpt><trkpt lat="42.419018" lon="12.6930853"><ele>716.8</ele><time>2026-04-07T11:02:34.057Z</time></trkpt><trkpt lat="42.4189498" lon="12.6931824"><ele>717.5999999999999</ele><time>2026-04-07T11:02:36.058Z</time></trkpt><trkpt lat="42.4188449" lon="12.6932053"><ele>718.4</ele><time>2026-04-07T11:02:38.058Z</time></trkpt><trkpt lat="42.4187623" lon="12.6931298"><ele>719.2</ele><time>2026-04-07T11:02:40.058Z</time></trkpt><trkpt lat="42.4187339" lon="12.6929978"><ele>720.0</ele><time>2026-04-07T11:02:42.058Z</time></trkpt><trkpt lat="42.4187393" lon="12.6928467"><ele>720.4285714285714</ele><time>2026-04-07T11:02:44.058Z</time></trkpt><trkpt lat="42.4187483" lon="12.6927612"><ele>720.8571428571429</ele><time>2026-04-07T11:02:45.058Z</time></trkpt><trkpt lat="42.4187556" lon="12.6926745"><ele>721.2857142857143</ele><time>2026-04-07T11:02:46.057Z</time></trkpt><trkpt lat="42.4187571" lon="12.6925861"><ele>721.7142857142858</ele><time>2026-04-07T11:02:47.058Z</time></trkpt><trkpt lat="42.4187556" lon="12.692493"><ele>722.1428571428571</ele><time>2026-04-07T11:02:48.057Z</time></trkpt><trkpt lat="42.4187546" lon="12.6924032"><ele>722.5714285714287</ele><time>2026-04-07T11:02:49.058Z</time></trkpt><trkpt lat="42.4187461" lon="12.6923151"><ele>723.0</ele><time>2026-04-07T11:02:50.058Z</time></trkpt><trkpt lat="42.4187306" lon="12.6921529"><ele>723.5</ele><time>2026-04-07T11:02:52.058Z</time></trkpt><trkpt lat="42.4187162" lon="12.6920671"><ele>724.0</ele><time>2026-04-07T11:02:53.057Z</time></trkpt><trkpt lat="42.418699" lon="12.6919755"><ele>724.5</ele><time>2026-04-07T11:02:54.057Z</time></trkpt><trkpt lat="42.4186846" lon="12.6918884"><ele>725.0</ele><time>2026-04-07T11:02:55.058Z</time></trkpt><trkpt lat="42.4186689" lon="12.6917984"><ele>725.5</ele><time>2026-04-07T11:02:56.057Z</time></trkpt><trkpt lat="42.4186391" lon="12.691642"><ele>726.0</ele><time>2026-04-07T11:02:58.058Z</time></trkpt><trkpt lat="42.418613" lon="12.6915175"><ele>723.5999999999999</ele><time>2026-04-07T11:03:00.058Z</time></trkpt><trkpt lat="42.4185843" lon="12.6914034"><ele>721.2</ele><time>2026-04-07T11:03:02.058Z</time></trkpt><trkpt lat="42.4185481" lon="12.6913123"><ele>718.8</ele><time>2026-04-07T11:03:04.058Z</time></trkpt><trkpt lat="42.4185027" lon="12.6912133"><ele>716.4000000000001</ele><time>2026-04-07T11:03:06.058Z</time></trkpt><trkpt lat="42.4184375" lon="12.691111"><ele>714.0</ele><time>2026-04-07T11:03:08.058Z</time></trkpt><trkpt lat="42.4183697" lon="12.6909908"><ele>715.2</ele><time>2026-04-07T11:03:10.057Z</time></trkpt><trkpt lat="42.4183002" lon="12.6909023"><ele>716.4000000000001</ele><time>2026-04-07T11:03:12.058Z</time></trkpt><trkpt lat="42.4182222" lon="12.6908019"><ele>717.6</ele><time>2026-04-07T11:03:14.057Z</time></trkpt><trkpt lat="42.4181439" lon="12.6906936"><ele>718.8</ele><time>2026-04-07T11:03:16.057Z</time></trkpt><trkpt lat="42.4180604" lon="12.6905764"><ele>720.0</ele><time>2026-04-07T11:03:18.058Z</time></trkpt><trkpt lat="42.4179793" lon="12.6904644"><ele>720.0</ele><time>2026-04-07T11:03:20.058Z</time></trkpt><trkpt lat="42.4179002" lon="12.6903438"><ele>720.0</ele><time>2026-04-07T11:03:22.058Z</time></trkpt><trkpt lat="42.4178233" lon="12.6902306"><ele>720.0</ele><time>2026-04-07T11:03:24.058Z</time></trkpt><trkpt lat="42.4177424" lon="12.6901114"><ele>720.0</ele><time>2026-04-07T11:03:26.057Z</time></trkpt><trkpt lat="42.4177127" lon="12.6900329"><ele>720.0</ele><time>2026-04-07T11:03:27.057Z</time></trkpt><trkpt lat="42.4176737" lon="12.6898734"><ele>715.2</ele><time>2026-04-07T11:03:29.058Z</time></trkpt><trkpt lat="42.4176647" lon="12.6897856"><ele>710.4</ele><time>2026-04-07T11:03:30.057Z</time></trkpt><trkpt lat="42.4176686" lon="12.689625"><ele>705.5999999999999</ele><time>2026-04-07T11:03:32.058Z</time></trkpt><trkpt lat="42.4176927" lon="12.6894605"><ele>700.8</ele><time>2026-04-07T11:03:34.058Z</time></trkpt><trkpt lat="42.4177173" lon="12.6892965"><ele>696.0</ele><time>2026-04-07T11:03:36.058Z</time></trkpt><trkpt lat="42.4177299" lon="12.689136"><ele>693.4</ele><time>2026-04-07T11:03:38.058Z</time></trkpt><trkpt lat="42.4177335" lon="12.6889696"><ele>690.8</ele><time>2026-04-07T11:03:40.058Z</time></trkpt><trkpt lat="42.4177374" lon="12.6888828"><ele>688.1999999999999</ele><time>2026-04-07T11:03:41.058Z</time></trkpt><trkpt lat="42.4177439" lon="12.688794"><ele>685.5999999999999</ele><time>2026-04-07T11:03:42.058Z</time></trkpt><trkpt lat="42.417732" lon="12.6886602"><ele>683.0</ele><time>2026-04-07T11:03:44.057Z</time></trkpt><trkpt lat="42.4176991" lon="12.6885312"><ele>680.4</ele><time>2026-04-07T11:03:46.058Z</time></trkpt><trkpt lat="42.4176478" lon="12.6883917"><ele>677.8</ele><time>2026-04-07T11:03:48.058Z</time></trkpt><trkpt lat="42.4175896" lon="12.6882753"><ele>675.2</ele><time>2026-04-07T11:03:50.057Z</time></trkpt><trkpt lat="42.4175333" lon="12.6881398"><ele>672.6</ele><time>2026-04-07T11:03:52.057Z</time></trkpt><trkpt lat="42.4175012" lon="12.6880032"><ele>670.0</ele><time>2026-04-07T11:03:54.057Z</time></trkpt><trkpt lat="42.4175022" lon="12.6878524"><ele>667.8</ele><time>2026-04-07T11:03:56.058Z</time></trkpt><trkpt lat="42.4174781" lon="12.6877235"><ele>665.6</ele><time>2026-04-07T11:03:58.058Z</time></trkpt><trkpt lat="42.417405" lon="12.6876109"><ele>663.4000000000001</ele><time>2026-04-07T11:04:00.057Z</time></trkpt><trkpt lat="42.4172913" lon="12.6876006"><ele>661.2</ele><time>2026-04-07T11:04:02.058Z</time></trkpt><trkpt lat="42.4172319" lon="12.6876428"><ele>659.0</ele><time>2026-04-07T11:04:03.058Z</time></trkpt><trkpt lat="42.4171757" lon="12.6877045"><ele>661.0</ele><time>2026-04-07T11:04:04.058Z</time></trkpt><trkpt lat="42.4171147" lon="12.6877848"><ele>663.0</ele><time>2026-04-07T11:04:05.057Z</time></trkpt><trkpt lat="42.4170505" lon="12.6878668"><ele>665.0</ele><time>2026-04-07T11:04:06.058Z</time></trkpt><trkpt lat="42.4169856" lon="12.687942"><ele>667.0</ele><time>2026-04-07T11:04:07.058Z</time></trkpt><trkpt lat="42.4169178" lon="12.6880045"><ele>669.0</ele><time>2026-04-07T11:04:08.058Z</time></trkpt><trkpt lat="42.416847" lon="12.6880525"><ele>671.0</ele><time>2026-04-07T11:04:09.058Z</time></trkpt><trkpt lat="42.4167741" lon="12.6880788"><ele>671.0</ele><time>2026-04-07T11:04:10.058Z</time></trkpt><trkpt lat="42.4167073" lon="12.6880815"><ele>671.0</ele><time>2026-04-07T11:04:11.058Z</time></trkpt><trkpt lat="42.4166372" lon="12.6880538"><ele>671.0</ele><time>2026-04-07T11:04:12.057Z</time></trkpt><trkpt lat="42.4165836" lon="12.6879946"><ele>671.0</ele><time>2026-04-07T11:04:13.058Z</time></trkpt><trkpt lat="42.4165427" lon="12.6878989"><ele>671.0</ele><time>2026-04-07T11:04:14.058Z</time></trkpt><trkpt lat="42.4165164" lon="12.6877805"><ele>671.0</ele><time>2026-04-07T11:04:15.058Z</time></trkpt><trkpt lat="42.4164982" lon="12.6876553"><ele>667.25</ele><time>2026-04-07T11:04:16.057Z</time></trkpt><trkpt lat="42.4164939" lon="12.6874944"><ele>663.5</ele><time>2026-04-07T11:04:17.057Z</time></trkpt><trkpt lat="42.4164855" lon="12.6873423"><ele>659.75</ele><time>2026-04-07T11:04:18.057Z</time></trkpt><trkpt lat="42.4164753" lon="12.6871933"><ele>656.0</ele><time>2026-04-07T11:04:19.058Z</time></trkpt><trkpt lat="42.4164674" lon="12.6870475"><ele>653.5999999999999</ele><time>2026-04-07T11:04:20.058Z</time></trkpt><trkpt lat="42.4164594" lon="12.6869087"><ele>651.2</ele><time>2026-04-07T11:04:21.058Z</time></trkpt><trkpt lat="42.4164536" lon="12.6867684"><ele>648.8</ele><time>2026-04-07T11:04:22.058Z</time></trkpt><trkpt lat="42.4164582" lon="12.6866369"><ele>646.4000000000001</ele><time>2026-04-07T11:04:23.058Z</time></trkpt><trkpt lat="42.4164614" lon="12.6865083"><ele>644.0</ele><time>2026-04-07T11:04:24.058Z</time></trkpt><trkpt lat="42.4164507" lon="12.686378"><ele>644.0</ele><time>2026-04-07T11:04:25.058Z</time></trkpt><trkpt lat="42.4164275" lon="12.6862412"><ele>644.0</ele><time>2026-04-07T11:04:26.057Z</time></trkpt><trkpt lat="42.416394" lon="12.6861076"><ele>644.0</ele><time>2026-04-07T11:04:27.058Z</time></trkpt><trkpt lat="42.4163572" lon="12.6859803"><ele>644.0</ele><time>2026-04-07T11:04:28.057Z</time></trkpt><trkpt lat="42.4163166" lon="12.6858616"><ele>644.0</ele><time>2026-04-07T11:04:29.058Z</time></trkpt><trkpt lat="42.4162705" lon="12.6857366"><ele>645.4000000000001</ele><time>2026-04-07T11:04:30.058Z</time></trkpt><trkpt lat="42.4162164" lon="12.6856213"><ele>646.8</ele><time>2026-04-07T11:04:31.058Z</time></trkpt><trkpt lat="42.4161551" lon="12.6855235"><ele>648.2</ele><time>2026-04-07T11:04:32.058Z</time></trkpt><trkpt lat="42.4160902" lon="12.6854309"><ele>649.5999999999999</ele><time>2026-04-07T11:04:33.057Z</time></trkpt><trkpt lat="42.4160333" lon="12.6853315"><ele>651.0</ele><time>2026-04-07T11:04:34.058Z</time></trkpt><trkpt lat="42.4159874" lon="12.6852205"><ele>647.3333333333334</ele><time>2026-04-07T11:04:35.058Z</time></trkpt><trkpt lat="42.4159497" lon="12.6851004"><ele>643.6666666666666</ele><time>2026-04-07T11:04:36.058Z</time></trkpt><trkpt lat="42.415912" lon="12.6849915"><ele>640.0</ele><time>2026-04-07T11:04:37.057Z</time></trkpt><trkpt lat="42.4158645" lon="12.6848967"><ele>636.3333333333333</ele><time>2026-04-07T11:04:38.058Z</time></trkpt><trkpt lat="42.4158059" lon="12.6848194"><ele>632.6666666666666</ele><time>2026-04-07T11:04:39.058Z</time></trkpt><trkpt lat="42.4157359" lon="12.6847666"><ele>629.0</ele><time>2026-04-07T11:04:40.058Z</time></trkpt><trkpt lat="42.4156495" lon="12.684736"><ele>629.0</ele><time>2026-04-07T11:04:41.058Z</time></trkpt><trkpt lat="42.4155529" lon="12.6847281"><ele>629.0</ele><time>2026-04-07T11:04:42.057Z</time></trkpt><trkpt lat="42.4154585" lon="12.6847303"><ele>629.0</ele><time>2026-04-07T11:04:43.058Z</time></trkpt><trkpt lat="42.4153673" lon="12.6847385"><ele>629.0</ele><time>2026-04-07T11:04:44.058Z</time></trkpt><trkpt lat="42.4152764" lon="12.6847432"><ele>629.0</ele><time>2026-04-07T11:04:45.058Z</time></trkpt><trkpt lat="42.4151832" lon="12.6847259"><ele>628.8333333333333</ele><time>2026-04-07T11:04:46.058Z</time></trkpt><trkpt lat="42.4150926" lon="12.6846922"><ele>628.6666666666666</ele><time>2026-04-07T11:04:47.057Z</time></trkpt><trkpt lat="42.4150106" lon="12.6846444"><ele>628.5</ele><time>2026-04-07T11:04:48.058Z</time></trkpt><trkpt lat="42.4149359" lon="12.684598"><ele>628.3333333333334</ele><time>2026-04-07T11:04:49.057Z</time></trkpt><trkpt lat="42.4148654" lon="12.6845596"><ele>628.1666666666667</ele><time>2026-04-07T11:04:50.058Z</time></trkpt><trkpt lat="42.4147914" lon="12.6845382"><ele>628.0</ele><time>2026-04-07T11:04:51.058Z</time></trkpt><trkpt lat="42.4147238" lon="12.6845446"><ele>628.0</ele><time>2026-04-07T11:04:52.058Z</time></trkpt><trkpt lat="42.4146627" lon="12.6845786"><ele>628.0</ele><time>2026-04-07T11:04:53.058Z</time></trkpt><trkpt lat="42.4146084" lon="12.6846438"><ele>628.0</ele><time>2026-04-07T11:04:54.057Z</time></trkpt><trkpt lat="42.4145648" lon="12.6847368"><ele>628.0</ele><time>2026-04-07T11:04:55.058Z</time></trkpt><trkpt lat="42.4145324" lon="12.6848469"><ele>628.0</ele><time>2026-04-07T11:04:56.058Z</time></trkpt><trkpt lat="42.4145036" lon="12.6849721"><ele>628.0</ele><time>2026-04-07T11:04:57.058Z</time></trkpt><trkpt lat="42.4144757" lon="12.6850953"><ele>623.6</ele><time>2026-04-07T11:04:58.057Z</time></trkpt><trkpt lat="42.4144477" lon="12.6852146"><ele>619.1999999999999</ele><time>2026-04-07T11:04:59.057Z</time></trkpt><trkpt lat="42.4144169" lon="12.6853284"><ele>614.8</ele><time>2026-04-07T11:05:00.058Z</time></trkpt><trkpt lat="42.4143895" lon="12.6854372"><ele>610.4</ele><time>2026-04-07T11:05:01.058Z</time></trkpt><trkpt lat="42.4143558" lon="12.6855538"><ele>606.0</ele><time>2026-04-07T11:05:02.057Z</time></trkpt><trkpt lat="42.4143244" lon="12.6856737"><ele>606.0</ele><time>2026-04-07T11:05:03.058Z</time></trkpt><trkpt lat="42.414295" lon="12.6857894"><ele>606.0</ele><time>2026-04-07T11:05:04.057Z</time></trkpt><trkpt lat="42.4142684" lon="12.6859023"><ele>606.0</ele><time>2026-04-07T11:05:05.057Z</time></trkpt><trkpt lat="42.4142409" lon="12.6860105"><ele>606.0</ele><time>2026-04-07T11:05:06.056Z</time></trkpt><trkpt lat="42.4142127" lon="12.6861101"><ele>606.0</ele><time>2026-04-07T11:05:07.057Z</time></trkpt><trkpt lat="42.4141812" lon="12.6862097"><ele>606.0</ele><time>2026-04-07T11:05:08.057Z</time></trkpt><trkpt lat="42.4141465" lon="12.6863008"><ele>608.4</ele><time>2026-04-07T11:05:09.057Z</time></trkpt><trkpt lat="42.4141033" lon="12.6863737"><ele>610.8</ele><time>2026-04-07T11:05:10.057Z</time></trkpt><trkpt lat="42.4140031" lon="12.6864696"><ele>613.1999999999999</ele><time>2026-04-07T11:05:12.056Z</time></trkpt><trkpt lat="42.4138849" lon="12.6864554"><ele>615.6</ele><time>2026-04-07T11:05:14.057Z</time></trkpt><trkpt lat="42.4138234" lon="12.6864051"><ele>618.0</ele><time>2026-04-07T11:05:15.057Z</time></trkpt><trkpt lat="42.4137628" lon="12.6863371"><ele>618.0</ele><time>2026-04-07T11:05:16.057Z</time></trkpt><trkpt lat="42.4137043" lon="12.686257"><ele>618.0</ele><time>2026-04-07T11:05:17.056Z</time></trkpt><trkpt lat="42.4136455" lon="12.6861726"><ele>618.0</ele><time>2026-04-07T11:05:18.057Z</time></trkpt><trkpt lat="42.413587" lon="12.6860882"><ele>618.0</ele><time>2026-04-07T11:05:19.056Z</time></trkpt><trkpt lat="42.4135287" lon="12.6860125"><ele>618.0</ele><time>2026-04-07T11:05:20.057Z</time></trkpt><trkpt lat="42.4134605" lon="12.6859448"><ele>618.0</ele><time>2026-04-07T11:05:21.057Z</time></trkpt><trkpt lat="42.4133848" lon="12.6858839"><ele>613.3333333333334</ele><time>2026-04-07T11:05:22.057Z</time></trkpt><trkpt lat="42.4133034" lon="12.6858334"><ele>608.6666666666666</ele><time>2026-04-07T11:05:23.057Z</time></trkpt><trkpt lat="42.4132196" lon="12.6857873"><ele>604.0</ele><time>2026-04-07T11:05:24.057Z</time></trkpt><trkpt lat="42.4131352" lon="12.6857516"><ele>599.3333333333333</ele><time>2026-04-07T11:05:25.056Z</time></trkpt><trkpt lat="42.4130493" lon="12.6857254"><ele>594.6666666666666</ele><time>2026-04-07T11:05:26.057Z</time></trkpt><trkpt lat="42.4129618" lon="12.6857018"><ele>590.0</ele><time>2026-04-07T11:05:27.057Z</time></trkpt><trkpt lat="42.4128747" lon="12.6856936"><ele>588.8333333333333</ele><time>2026-04-07T11:05:28.057Z</time></trkpt><trkpt lat="42.412788" lon="12.6856975"><ele>587.6666666666666</ele><time>2026-04-07T11:05:29.056Z</time></trkpt><trkpt lat="42.412702" lon="12.6857143"><ele>586.5</ele><time>2026-04-07T11:05:30.057Z</time></trkpt><trkpt lat="42.4126225" lon="12.6857532"><ele>585.3333333333334</ele><time>2026-04-07T11:05:31.056Z</time></trkpt><trkpt lat="42.412547" lon="12.6858099"><ele>584.1666666666667</ele><time>2026-04-07T11:05:32.057Z</time></trkpt><trkpt lat="42.4124821" lon="12.6858796"><ele>583.0</ele><time>2026-04-07T11:05:33.056Z</time></trkpt><trkpt lat="42.4124274" lon="12.6859532"><ele>583.0</ele><time>2026-04-07T11:05:34.057Z</time></trkpt><trkpt lat="42.4123789" lon="12.6860259"><ele>583.0</ele><time>2026-04-07T11:05:35.057Z</time></trkpt><trkpt lat="42.4123355" lon="12.6860966"><ele>583.0</ele><time>2026-04-07T11:05:36.056Z</time></trkpt><trkpt lat="42.41225" lon="12.6862153"><ele>583.0</ele><time>2026-04-07T11:05:38.057Z</time></trkpt><trkpt lat="42.4121278" lon="12.6862391"><ele>583.0</ele><time>2026-04-07T11:05:40.057Z</time></trkpt><trkpt lat="42.4120543" lon="12.6862084"><ele>581.6</ele><time>2026-04-07T11:05:41.057Z</time></trkpt><trkpt lat="42.4119774" lon="12.6861532"><ele>580.1999999999999</ele><time>2026-04-07T11:05:42.057Z</time></trkpt><trkpt lat="42.4118955" lon="12.6860855"><ele>578.8</ele><time>2026-04-07T11:05:43.056Z</time></trkpt><trkpt lat="42.4118087" lon="12.686021"><ele>577.4</ele><time>2026-04-07T11:05:44.057Z</time></trkpt><trkpt lat="42.4117199" lon="12.6859626"><ele>576.0</ele><time>2026-04-07T11:05:45.057Z</time></trkpt><trkpt lat="42.4116297" lon="12.6859075"><ele>576.0</ele><time>2026-04-07T11:05:46.057Z</time></trkpt><trkpt lat="42.4115404" lon="12.6858375"><ele>576.0</ele><time>2026-04-07T11:05:47.057Z</time></trkpt><trkpt lat="42.4114558" lon="12.6857641"><ele>576.0</ele><time>2026-04-07T11:05:48.057Z</time></trkpt><trkpt lat="42.4113686" lon="12.6856854"><ele>576.0</ele><time>2026-04-07T11:05:49.057Z</time></trkpt><trkpt lat="42.4112806" lon="12.6856248"><ele>576.0</ele><time>2026-04-07T11:05:50.056Z</time></trkpt><trkpt lat="42.4111972" lon="12.6855622"><ele>576.2</ele><time>2026-04-07T11:05:51.057Z</time></trkpt><trkpt lat="42.4111169" lon="12.6855056"><ele>576.4000000000001</ele><time>2026-04-07T11:05:52.057Z</time></trkpt><trkpt lat="42.411036" lon="12.6854543"><ele>576.6</ele><time>2026-04-07T11:05:53.057Z</time></trkpt><trkpt lat="42.4109524" lon="12.6854114"><ele>576.8000000000001</ele><time>2026-04-07T11:05:54.055Z</time></trkpt><trkpt lat="42.4108662" lon="12.6853823"><ele>577.0</ele><time>2026-04-07T11:05:55.057Z</time></trkpt><trkpt lat="42.4107738" lon="12.6853733"><ele>577.0</ele><time>2026-04-07T11:05:56.056Z</time></trkpt><trkpt lat="42.4106799" lon="12.6853757"><ele>577.0</ele><time>2026-04-07T11:05:57.056Z</time></trkpt><trkpt lat="42.4105946" lon="12.6853874"><ele>577.0</ele><time>2026-04-07T11:05:58.057Z</time></trkpt><trkpt lat="42.4105084" lon="12.6854061"><ele>577.0</ele><time>2026-04-07T11:05:59.057Z</time></trkpt><trkpt lat="42.4104287" lon="12.6854337"><ele>577.0</ele><time>2026-04-07T11:06:00.057Z</time></trkpt><trkpt lat="42.4103526" lon="12.685474"><ele>577.0</ele><time>2026-04-07T11:06:01.056Z</time></trkpt><trkpt lat="42.4102843" lon="12.6855291"><ele>573.2</ele><time>2026-04-07T11:06:02.057Z</time></trkpt><trkpt lat="42.4102145" lon="12.6856023"><ele>569.4000000000001</ele><time>2026-04-07T11:06:03.057Z</time></trkpt><trkpt lat="42.4101482" lon="12.6856736"><ele>565.5999999999999</ele><time>2026-04-07T11:06:04.056Z</time></trkpt><trkpt lat="42.4100739" lon="12.6857566"><ele>561.8</ele><time>2026-04-07T11:06:05.057Z</time></trkpt><trkpt lat="42.4099988" lon="12.6858394"><ele>558.0</ele><time>2026-04-07T11:06:06.057Z</time></trkpt><trkpt lat="42.4099316" lon="12.6859204"><ele>558.0</ele><time>2026-04-07T11:06:07.056Z</time></trkpt><trkpt lat="42.409861" lon="12.6859979"><ele>558.0</ele><time>2026-04-07T11:06:08.057Z</time></trkpt><trkpt lat="42.4097942" lon="12.6860779"><ele>558.0</ele><time>2026-04-07T11:06:09.057Z</time></trkpt><trkpt lat="42.409732" lon="12.6861501"><ele>558.0</ele><time>2026-04-07T11:06:10.057Z</time></trkpt><trkpt lat="42.4096711" lon="12.6862254"><ele>558.0</ele><time>2026-04-07T11:06:11.057Z</time></trkpt><trkpt lat="42.4096128" lon="12.6863031"><ele>558.0</ele><time>2026-04-07T11:06:12.056Z</time></trkpt><trkpt lat="42.4095581" lon="12.6863857"><ele>555.1666666666666</ele><time>2026-04-07T11:06:13.057Z</time></trkpt><trkpt lat="42.4095061" lon="12.6864592"><ele>552.3333333333334</ele><time>2026-04-07T11:06:14.057Z</time></trkpt><trkpt lat="42.4094533" lon="12.6865356"><ele>549.5</ele><time>2026-04-07T11:06:15.057Z</time></trkpt><trkpt lat="42.4094066" lon="12.6866237"><ele>546.6666666666667</ele><time>2026-04-07T11:06:16.056Z</time></trkpt><trkpt lat="42.4093607" lon="12.6867212"><ele>543.8333333333334</ele><time>2026-04-07T11:06:17.057Z</time></trkpt><trkpt lat="42.4093127" lon="12.6868211"><ele>541.0</ele><time>2026-04-07T11:06:18.057Z</time></trkpt><trkpt lat="42.4092682" lon="12.686924"><ele>541.6666666666667</ele><time>2026-04-07T11:06:19.057Z</time></trkpt><trkpt lat="42.409226" lon="12.6870225"><ele>542.3333333333334</ele><time>2026-04-07T11:06:20.057Z</time></trkpt><trkpt lat="42.4091809" lon="12.6871205"><ele>543.0</ele><time>2026-04-07T11:06:21.057Z</time></trkpt><trkpt lat="42.409133" lon="12.6872089"><ele>543.6666666666666</ele><time>2026-04-07T11:06:22.056Z</time></trkpt><trkpt lat="42.4090883" lon="12.6873015"><ele>544.3333333333333</ele><time>2026-04-07T11:06:23.056Z</time></trkpt><trkpt lat="42.4090551" lon="12.6873841"><ele>545.0</ele><time>2026-04-07T11:06:24.057Z</time></trkpt><trkpt lat="42.409033" lon="12.6874726"><ele>545.0</ele><time>2026-04-07T11:06:25.057Z</time></trkpt><trkpt lat="42.4090348" lon="12.6875588"><ele>545.0</ele><time>2026-04-07T11:06:26.056Z</time></trkpt><trkpt lat="42.4090554" lon="12.68764"><ele>545.0</ele><time>2026-04-07T11:06:27.057Z</time></trkpt><trkpt lat="42.4090956" lon="12.6877143"><ele>545.0</ele><time>2026-04-07T11:06:28.057Z</time></trkpt><trkpt lat="42.4091386" lon="12.6877825"><ele>545.0</ele><time>2026-04-07T11:06:29.056Z</time></trkpt><trkpt lat="42.4092238" lon="12.6878893"><ele>545.0</ele><time>2026-04-07T11:06:31.057Z</time></trkpt><trkpt lat="42.4092735" lon="12.6879732"><ele>531.0</ele><time>2026-04-07T11:06:33.057Z</time></trkpt><trkpt lat="42.4092519" lon="12.6880537"><ele>531.0</ele><time>2026-04-07T11:06:36.057Z</time></trkpt><trkpt lat="42.4091818" lon="12.6881286"><ele>531.0</ele><time>2026-04-07T11:06:39.057Z</time></trkpt></trkseg></trk></gpx>